<?xml version="1.0" encoding="UTF-8" standalone="no" ?>
<gpx xmlns="http://www.topografix.com/GPX/1/1" xmlns:xsi="http://www.w3.org/2001/XMLSchema-instance" xsi:schemaLocation="http://www.topografix.com/GPX/1/1 http://www.topografix.com/GPX/1/1/gpx.xsd" version="1.1" creator="VisuGPX - https://www.visugpx.com">
  <metadata>
    <name>ferion 05/12</name>
    <desc><![CDATA[Balade sous la neige et avec verglas! Max, nico et jon]]></desc>
  </metadata>
  <trk>
    <name><![CDATA[Ferion 05/12]]></name>
    <desc><![CDATA[(null)]]></desc>
    <trkseg>
      <trkpt lat="43.84895" lon="7.23762">
        <ele>549</ele>
        <time>2010-12-05T10:12:15Z</time>
      </trkpt>
      <trkpt lat="43.84895" lon="7.23762">
        <ele>549</ele>
        <time>2010-12-05T10:12:15Z</time>
      </trkpt>
      <trkpt lat="43.84895" lon="7.23762">
        <ele>549</ele>
        <time>2010-12-05T10:12:16Z</time>
      </trkpt>
      <trkpt lat="43.84895" lon="7.23762">
        <ele>549</ele>
        <time>2010-12-05T10:12:22Z</time>
      </trkpt>
      <trkpt lat="43.84895" lon="7.23762">
        <ele>549</ele>
        <time>2010-12-05T10:12:28Z</time>
      </trkpt>
      <trkpt lat="43.84881" lon="7.23774">
        <ele>604</ele>
        <time>2010-12-05T10:12:38Z</time>
      </trkpt>
      <trkpt lat="43.84881" lon="7.23774">
        <ele>602</ele>
        <time>2010-12-05T10:12:48Z</time>
      </trkpt>
      <trkpt lat="43.84891" lon="7.2377">
        <ele>598</ele>
        <time>2010-12-05T10:13:17Z</time>
      </trkpt>
      <trkpt lat="43.849" lon="7.23765">
        <ele>597</ele>
        <time>2010-12-05T10:13:21Z</time>
      </trkpt>
      <trkpt lat="43.84909" lon="7.23761">
        <ele>598</ele>
        <time>2010-12-05T10:13:26Z</time>
      </trkpt>
      <trkpt lat="43.84918" lon="7.2376">
        <ele>599</ele>
        <time>2010-12-05T10:13:30Z</time>
      </trkpt>
      <trkpt lat="43.84927" lon="7.23765">
        <ele>600</ele>
        <time>2010-12-05T10:13:35Z</time>
      </trkpt>
      <trkpt lat="43.84933" lon="7.23776">
        <ele>603</ele>
        <time>2010-12-05T10:13:39Z</time>
      </trkpt>
      <trkpt lat="43.84934" lon="7.23777">
        <ele>603</ele>
        <time>2010-12-05T10:13:40Z</time>
      </trkpt>
      <trkpt lat="43.84939" lon="7.23788">
        <ele>606</ele>
        <time>2010-12-05T10:13:44Z</time>
      </trkpt>
      <trkpt lat="43.84944" lon="7.23799">
        <ele>608</ele>
        <time>2010-12-05T10:13:49Z</time>
      </trkpt>
      <trkpt lat="43.84948" lon="7.23811">
        <ele>610</ele>
        <time>2010-12-05T10:13:53Z</time>
      </trkpt>
      <trkpt lat="43.84953" lon="7.23823">
        <ele>612</ele>
        <time>2010-12-05T10:13:58Z</time>
      </trkpt>
      <trkpt lat="43.84954" lon="7.23826">
        <ele>613</ele>
        <time>2010-12-05T10:13:59Z</time>
      </trkpt>
      <trkpt lat="43.8496" lon="7.23839">
        <ele>616</ele>
        <time>2010-12-05T10:14:04Z</time>
      </trkpt>
      <trkpt lat="43.84964" lon="7.23851">
        <ele>618</ele>
        <time>2010-12-05T10:14:08Z</time>
      </trkpt>
      <trkpt lat="43.84969" lon="7.23863">
        <ele>621</ele>
        <time>2010-12-05T10:14:13Z</time>
      </trkpt>
      <trkpt lat="43.84972" lon="7.23875">
        <ele>624</ele>
        <time>2010-12-05T10:14:17Z</time>
      </trkpt>
      <trkpt lat="43.84976" lon="7.23887">
        <ele>627</ele>
        <time>2010-12-05T10:14:21Z</time>
      </trkpt>
      <trkpt lat="43.8498" lon="7.23899">
        <ele>629</ele>
        <time>2010-12-05T10:14:24Z</time>
      </trkpt>
      <trkpt lat="43.84984" lon="7.23911">
        <ele>632</ele>
        <time>2010-12-05T10:14:28Z</time>
      </trkpt>
      <trkpt lat="43.84988" lon="7.23924">
        <ele>634</ele>
        <time>2010-12-05T10:14:35Z</time>
      </trkpt>
      <trkpt lat="43.84992" lon="7.23937">
        <ele>635</ele>
        <time>2010-12-05T10:14:40Z</time>
      </trkpt>
      <trkpt lat="43.84997" lon="7.2395">
        <ele>636</ele>
        <time>2010-12-05T10:14:43Z</time>
      </trkpt>
      <trkpt lat="43.85001" lon="7.23962">
        <ele>637</ele>
        <time>2010-12-05T10:14:46Z</time>
      </trkpt>
      <trkpt lat="43.85006" lon="7.23974">
        <ele>638</ele>
        <time>2010-12-05T10:14:50Z</time>
      </trkpt>
      <trkpt lat="43.85012" lon="7.23987">
        <ele>638</ele>
        <time>2010-12-05T10:14:53Z</time>
      </trkpt>
      <trkpt lat="43.85018" lon="7.23999">
        <ele>639</ele>
        <time>2010-12-05T10:14:57Z</time>
      </trkpt>
      <trkpt lat="43.85024" lon="7.24011">
        <ele>640</ele>
        <time>2010-12-05T10:15:01Z</time>
      </trkpt>
      <trkpt lat="43.8503" lon="7.24023">
        <ele>640</ele>
        <time>2010-12-05T10:15:06Z</time>
      </trkpt>
      <trkpt lat="43.85035" lon="7.24034">
        <ele>640</ele>
        <time>2010-12-05T10:15:09Z</time>
      </trkpt>
      <trkpt lat="43.85041" lon="7.24046">
        <ele>641</ele>
        <time>2010-12-05T10:15:13Z</time>
      </trkpt>
      <trkpt lat="43.85047" lon="7.24057">
        <ele>642</ele>
        <time>2010-12-05T10:15:17Z</time>
      </trkpt>
      <trkpt lat="43.85053" lon="7.24069">
        <ele>643</ele>
        <time>2010-12-05T10:15:22Z</time>
      </trkpt>
      <trkpt lat="43.8506" lon="7.24078">
        <ele>643</ele>
        <time>2010-12-05T10:15:25Z</time>
      </trkpt>
      <trkpt lat="43.85066" lon="7.24086">
        <ele>643</ele>
        <time>2010-12-05T10:15:28Z</time>
      </trkpt>
      <trkpt lat="43.85073" lon="7.24097">
        <ele>645</ele>
        <time>2010-12-05T10:15:32Z</time>
      </trkpt>
      <trkpt lat="43.8508" lon="7.24108">
        <ele>646</ele>
        <time>2010-12-05T10:15:36Z</time>
      </trkpt>
      <trkpt lat="43.85086" lon="7.24119">
        <ele>648</ele>
        <time>2010-12-05T10:15:40Z</time>
      </trkpt>
      <trkpt lat="43.8509" lon="7.24126">
        <ele>649</ele>
        <time>2010-12-05T10:15:43Z</time>
      </trkpt>
      <trkpt lat="43.85096" lon="7.24137">
        <ele>650</ele>
        <time>2010-12-05T10:15:46Z</time>
      </trkpt>
      <trkpt lat="43.85101" lon="7.24148">
        <ele>652</ele>
        <time>2010-12-05T10:15:50Z</time>
      </trkpt>
      <trkpt lat="43.85107" lon="7.24158">
        <ele>654</ele>
        <time>2010-12-05T10:15:55Z</time>
      </trkpt>
      <trkpt lat="43.85112" lon="7.24169">
        <ele>655</ele>
        <time>2010-12-05T10:16:00Z</time>
      </trkpt>
      <trkpt lat="43.85118" lon="7.24179">
        <ele>657</ele>
        <time>2010-12-05T10:16:05Z</time>
      </trkpt>
      <trkpt lat="43.85119" lon="7.24181">
        <ele>657</ele>
        <time>2010-12-05T10:16:06Z</time>
      </trkpt>
      <trkpt lat="43.85125" lon="7.24192">
        <ele>659</ele>
        <time>2010-12-05T10:16:11Z</time>
      </trkpt>
      <trkpt lat="43.8513" lon="7.24204">
        <ele>660</ele>
        <time>2010-12-05T10:16:15Z</time>
      </trkpt>
      <trkpt lat="43.85135" lon="7.24216">
        <ele>660</ele>
        <time>2010-12-05T10:16:18Z</time>
      </trkpt>
      <trkpt lat="43.85138" lon="7.24229">
        <ele>661</ele>
        <time>2010-12-05T10:16:23Z</time>
      </trkpt>
      <trkpt lat="43.85139" lon="7.24249">
        <ele>661</ele>
        <time>2010-12-05T10:16:31Z</time>
      </trkpt>
      <trkpt lat="43.85141" lon="7.24262">
        <ele>662</ele>
        <time>2010-12-05T10:16:35Z</time>
      </trkpt>
      <trkpt lat="43.85142" lon="7.24268">
        <ele>662</ele>
        <time>2010-12-05T10:16:37Z</time>
      </trkpt>
      <trkpt lat="43.85144" lon="7.24289">
        <ele>663</ele>
        <time>2010-12-05T10:16:44Z</time>
      </trkpt>
      <trkpt lat="43.85146" lon="7.24309">
        <ele>665</ele>
        <time>2010-12-05T10:16:50Z</time>
      </trkpt>
      <trkpt lat="43.85146" lon="7.24322">
        <ele>666</ele>
        <time>2010-12-05T10:16:54Z</time>
      </trkpt>
      <trkpt lat="43.85148" lon="7.24335">
        <ele>668</ele>
        <time>2010-12-05T10:16:59Z</time>
      </trkpt>
      <trkpt lat="43.8515" lon="7.24348">
        <ele>671</ele>
        <time>2010-12-05T10:17:03Z</time>
      </trkpt>
      <trkpt lat="43.85152" lon="7.24361">
        <ele>671</ele>
        <time>2010-12-05T10:17:08Z</time>
      </trkpt>
      <trkpt lat="43.85155" lon="7.24372">
        <ele>672</ele>
        <time>2010-12-05T10:17:13Z</time>
      </trkpt>
      <trkpt lat="43.85157" lon="7.24386">
        <ele>673</ele>
        <time>2010-12-05T10:17:18Z</time>
      </trkpt>
      <trkpt lat="43.85157" lon="7.24386">
        <ele>673</ele>
        <time>2010-12-05T10:17:20Z</time>
      </trkpt>
      <trkpt lat="43.85159" lon="7.244">
        <ele>674</ele>
        <time>2010-12-05T10:17:23Z</time>
      </trkpt>
      <trkpt lat="43.85162" lon="7.24414">
        <ele>675</ele>
        <time>2010-12-05T10:17:28Z</time>
      </trkpt>
      <trkpt lat="43.85166" lon="7.24425">
        <ele>675</ele>
        <time>2010-12-05T10:17:33Z</time>
      </trkpt>
      <trkpt lat="43.85168" lon="7.24438">
        <ele>676</ele>
        <time>2010-12-05T10:17:40Z</time>
      </trkpt>
      <trkpt lat="43.85171" lon="7.2445">
        <ele>677</ele>
        <time>2010-12-05T10:17:46Z</time>
      </trkpt>
      <trkpt lat="43.85175" lon="7.24462">
        <ele>677</ele>
        <time>2010-12-05T10:17:52Z</time>
      </trkpt>
      <trkpt lat="43.85179" lon="7.24473">
        <ele>678</ele>
        <time>2010-12-05T10:17:58Z</time>
      </trkpt>
      <trkpt lat="43.85184" lon="7.24484">
        <ele>679</ele>
        <time>2010-12-05T10:18:04Z</time>
      </trkpt>
      <trkpt lat="43.8519" lon="7.24495">
        <ele>679</ele>
        <time>2010-12-05T10:18:09Z</time>
      </trkpt>
      <trkpt lat="43.85198" lon="7.24501">
        <ele>680</ele>
        <time>2010-12-05T10:18:14Z</time>
      </trkpt>
      <trkpt lat="43.852" lon="7.24501">
        <ele>680</ele>
        <time>2010-12-05T10:18:16Z</time>
      </trkpt>
      <trkpt lat="43.85211" lon="7.24505">
        <ele>683</ele>
        <time>2010-12-05T10:18:25Z</time>
      </trkpt>
      <trkpt lat="43.85222" lon="7.24512">
        <ele>683</ele>
        <time>2010-12-05T10:18:33Z</time>
      </trkpt>
      <trkpt lat="43.85226" lon="7.24525">
        <ele>683</ele>
        <time>2010-12-05T10:18:38Z</time>
      </trkpt>
      <trkpt lat="43.8523" lon="7.24542">
        <ele>683</ele>
        <time>2010-12-05T10:18:42Z</time>
      </trkpt>
      <trkpt lat="43.85233" lon="7.24555">
        <ele>683</ele>
        <time>2010-12-05T10:18:44Z</time>
      </trkpt>
      <trkpt lat="43.85237" lon="7.24568">
        <ele>683</ele>
        <time>2010-12-05T10:18:46Z</time>
      </trkpt>
      <trkpt lat="43.85242" lon="7.24581">
        <ele>685</ele>
        <time>2010-12-05T10:18:48Z</time>
      </trkpt>
      <trkpt lat="43.85246" lon="7.24598">
        <ele>687</ele>
        <time>2010-12-05T10:18:50Z</time>
      </trkpt>
      <trkpt lat="43.8525" lon="7.24611">
        <ele>689</ele>
        <time>2010-12-05T10:18:52Z</time>
      </trkpt>
      <trkpt lat="43.85255" lon="7.24625">
        <ele>690</ele>
        <time>2010-12-05T10:18:54Z</time>
      </trkpt>
      <trkpt lat="43.85263" lon="7.24618">
        <ele>693</ele>
        <time>2010-12-05T10:19:08Z</time>
      </trkpt>
      <trkpt lat="43.85264" lon="7.24605">
        <ele>691</ele>
        <time>2010-12-05T10:19:14Z</time>
      </trkpt>
      <trkpt lat="43.85266" lon="7.24592">
        <ele>688</ele>
        <time>2010-12-05T10:19:20Z</time>
      </trkpt>
      <trkpt lat="43.8527" lon="7.24582">
        <ele>682</ele>
        <time>2010-12-05T10:19:25Z</time>
      </trkpt>
      <trkpt lat="43.85277" lon="7.24572">
        <ele>673</ele>
        <time>2010-12-05T10:19:31Z</time>
      </trkpt>
      <trkpt lat="43.85285" lon="7.24565">
        <ele>668</ele>
        <time>2010-12-05T10:19:36Z</time>
      </trkpt>
      <trkpt lat="43.85292" lon="7.24558">
        <ele>666</ele>
        <time>2010-12-05T10:19:41Z</time>
      </trkpt>
      <trkpt lat="43.853" lon="7.24552">
        <ele>664</ele>
        <time>2010-12-05T10:19:45Z</time>
      </trkpt>
      <trkpt lat="43.85308" lon="7.24547">
        <ele>662</ele>
        <time>2010-12-05T10:19:51Z</time>
      </trkpt>
      <trkpt lat="43.85317" lon="7.24542">
        <ele>660</ele>
        <time>2010-12-05T10:19:54Z</time>
      </trkpt>
      <trkpt lat="43.85328" lon="7.24543">
        <ele>658</ele>
        <time>2010-12-05T10:19:58Z</time>
      </trkpt>
      <trkpt lat="43.85338" lon="7.24544">
        <ele>658</ele>
        <time>2010-12-05T10:20:02Z</time>
      </trkpt>
      <trkpt lat="43.85345" lon="7.24545">
        <ele>658</ele>
        <time>2010-12-05T10:20:05Z</time>
      </trkpt>
      <trkpt lat="43.85355" lon="7.24547">
        <ele>658</ele>
        <time>2010-12-05T10:20:08Z</time>
      </trkpt>
      <trkpt lat="43.85365" lon="7.24549">
        <ele>656</ele>
        <time>2010-12-05T10:20:13Z</time>
      </trkpt>
      <trkpt lat="43.85374" lon="7.24551">
        <ele>651</ele>
        <time>2010-12-05T10:20:22Z</time>
      </trkpt>
      <trkpt lat="43.85374" lon="7.24551">
        <ele>651</ele>
        <time>2010-12-05T10:20:24Z</time>
      </trkpt>
      <trkpt lat="43.8538" lon="7.24552">
        <ele>653</ele>
        <time>2010-12-05T10:20:29Z</time>
      </trkpt>
      <trkpt lat="43.85389" lon="7.24555">
        <ele>653</ele>
        <time>2010-12-05T10:20:38Z</time>
      </trkpt>
      <trkpt lat="43.85398" lon="7.24558">
        <ele>653</ele>
        <time>2010-12-05T10:20:47Z</time>
      </trkpt>
      <trkpt lat="43.85407" lon="7.24561">
        <ele>655</ele>
        <time>2010-12-05T10:20:53Z</time>
      </trkpt>
      <trkpt lat="43.85416" lon="7.24564">
        <ele>656</ele>
        <time>2010-12-05T10:20:58Z</time>
      </trkpt>
      <trkpt lat="43.85426" lon="7.24566">
        <ele>656</ele>
        <time>2010-12-05T10:21:03Z</time>
      </trkpt>
      <trkpt lat="43.85434" lon="7.24566">
        <ele>659</ele>
        <time>2010-12-05T10:21:06Z</time>
      </trkpt>
      <trkpt lat="43.85443" lon="7.24566">
        <ele>659</ele>
        <time>2010-12-05T10:21:11Z</time>
      </trkpt>
      <trkpt lat="43.85453" lon="7.24566">
        <ele>660</ele>
        <time>2010-12-05T10:21:16Z</time>
      </trkpt>
      <trkpt lat="43.85463" lon="7.24567">
        <ele>662</ele>
        <time>2010-12-05T10:21:21Z</time>
      </trkpt>
      <trkpt lat="43.85473" lon="7.24568">
        <ele>663</ele>
        <time>2010-12-05T10:21:26Z</time>
      </trkpt>
      <trkpt lat="43.85483" lon="7.2457">
        <ele>664</ele>
        <time>2010-12-05T10:21:31Z</time>
      </trkpt>
      <trkpt lat="43.8549" lon="7.24572">
        <ele>664</ele>
        <time>2010-12-05T10:21:34Z</time>
      </trkpt>
      <trkpt lat="43.85499" lon="7.24575">
        <ele>664</ele>
        <time>2010-12-05T10:21:39Z</time>
      </trkpt>
      <trkpt lat="43.85507" lon="7.24581">
        <ele>664</ele>
        <time>2010-12-05T10:21:42Z</time>
      </trkpt>
      <trkpt lat="43.85514" lon="7.2459">
        <ele>663</ele>
        <time>2010-12-05T10:21:45Z</time>
      </trkpt>
      <trkpt lat="43.85523" lon="7.24598">
        <ele>663</ele>
        <time>2010-12-05T10:21:48Z</time>
      </trkpt>
      <trkpt lat="43.85533" lon="7.24595">
        <ele>665</ele>
        <time>2010-12-05T10:21:52Z</time>
      </trkpt>
      <trkpt lat="43.85544" lon="7.24587">
        <ele>667</ele>
        <time>2010-12-05T10:21:55Z</time>
      </trkpt>
      <trkpt lat="43.85554" lon="7.24586">
        <ele>669</ele>
        <time>2010-12-05T10:21:57Z</time>
      </trkpt>
      <trkpt lat="43.85563" lon="7.24588">
        <ele>670</ele>
        <time>2010-12-05T10:21:59Z</time>
      </trkpt>
      <trkpt lat="43.85573" lon="7.24594">
        <ele>670</ele>
        <time>2010-12-05T10:22:02Z</time>
      </trkpt>
      <trkpt lat="43.85583" lon="7.24602">
        <ele>671</ele>
        <time>2010-12-05T10:22:05Z</time>
      </trkpt>
      <trkpt lat="43.85585" lon="7.24604">
        <ele>671</ele>
        <time>2010-12-05T10:22:06Z</time>
      </trkpt>
      <trkpt lat="43.85595" lon="7.24609">
        <ele>671</ele>
        <time>2010-12-05T10:22:09Z</time>
      </trkpt>
      <trkpt lat="43.85605" lon="7.24613">
        <ele>671</ele>
        <time>2010-12-05T10:22:12Z</time>
      </trkpt>
      <trkpt lat="43.85614" lon="7.24616">
        <ele>670</ele>
        <time>2010-12-05T10:22:15Z</time>
      </trkpt>
      <trkpt lat="43.85625" lon="7.24619">
        <ele>670</ele>
        <time>2010-12-05T10:22:19Z</time>
      </trkpt>
      <trkpt lat="43.85635" lon="7.24626">
        <ele>670</ele>
        <time>2010-12-05T10:22:22Z</time>
      </trkpt>
      <trkpt lat="43.85645" lon="7.24632">
        <ele>669</ele>
        <time>2010-12-05T10:22:26Z</time>
      </trkpt>
      <trkpt lat="43.85654" lon="7.24624">
        <ele>667</ele>
        <time>2010-12-05T10:22:30Z</time>
      </trkpt>
      <trkpt lat="43.85661" lon="7.24616">
        <ele>666</ele>
        <time>2010-12-05T10:22:34Z</time>
      </trkpt>
      <trkpt lat="43.85663" lon="7.24616">
        <ele>666</ele>
        <time>2010-12-05T10:22:35Z</time>
      </trkpt>
      <trkpt lat="43.85671" lon="7.24621">
        <ele>665</ele>
        <time>2010-12-05T10:22:39Z</time>
      </trkpt>
      <trkpt lat="43.85678" lon="7.24627">
        <ele>663</ele>
        <time>2010-12-05T10:22:43Z</time>
      </trkpt>
      <trkpt lat="43.85687" lon="7.24635">
        <ele>662</ele>
        <time>2010-12-05T10:22:48Z</time>
      </trkpt>
      <trkpt lat="43.85696" lon="7.24641">
        <ele>659</ele>
        <time>2010-12-05T10:22:52Z</time>
      </trkpt>
      <trkpt lat="43.85705" lon="7.24644">
        <ele>658</ele>
        <time>2010-12-05T10:22:57Z</time>
      </trkpt>
      <trkpt lat="43.85714" lon="7.24646">
        <ele>658</ele>
        <time>2010-12-05T10:23:01Z</time>
      </trkpt>
      <trkpt lat="43.85724" lon="7.24648">
        <ele>658</ele>
        <time>2010-12-05T10:23:07Z</time>
      </trkpt>
      <trkpt lat="43.85733" lon="7.24653">
        <ele>658</ele>
        <time>2010-12-05T10:23:12Z</time>
      </trkpt>
      <trkpt lat="43.85742" lon="7.24658">
        <ele>658</ele>
        <time>2010-12-05T10:23:17Z</time>
      </trkpt>
      <trkpt lat="43.85751" lon="7.24665">
        <ele>660</ele>
        <time>2010-12-05T10:23:23Z</time>
      </trkpt>
      <trkpt lat="43.85758" lon="7.24673">
        <ele>661</ele>
        <time>2010-12-05T10:23:29Z</time>
      </trkpt>
      <trkpt lat="43.85765" lon="7.24681">
        <ele>662</ele>
        <time>2010-12-05T10:23:35Z</time>
      </trkpt>
      <trkpt lat="43.85772" lon="7.24689">
        <ele>664</ele>
        <time>2010-12-05T10:23:41Z</time>
      </trkpt>
      <trkpt lat="43.85773" lon="7.2469">
        <ele>664</ele>
        <time>2010-12-05T10:23:42Z</time>
      </trkpt>
      <trkpt lat="43.85779" lon="7.24701">
        <ele>669</ele>
        <time>2010-12-05T10:23:49Z</time>
      </trkpt>
      <trkpt lat="43.85786" lon="7.2471">
        <ele>670</ele>
        <time>2010-12-05T10:23:57Z</time>
      </trkpt>
      <trkpt lat="43.85793" lon="7.2472">
        <ele>669</ele>
        <time>2010-12-05T10:24:04Z</time>
      </trkpt>
      <trkpt lat="43.85799" lon="7.2473">
        <ele>667</ele>
        <time>2010-12-05T10:24:11Z</time>
      </trkpt>
      <trkpt lat="43.85803" lon="7.24741">
        <ele>670</ele>
        <time>2010-12-05T10:24:18Z</time>
      </trkpt>
      <trkpt lat="43.8581" lon="7.24751">
        <ele>671</ele>
        <time>2010-12-05T10:24:25Z</time>
      </trkpt>
      <trkpt lat="43.85811" lon="7.24752">
        <ele>672</ele>
        <time>2010-12-05T10:24:26Z</time>
      </trkpt>
      <trkpt lat="43.85818" lon="7.24743">
        <ele>674</ele>
        <time>2010-12-05T10:24:34Z</time>
      </trkpt>
      <trkpt lat="43.85819" lon="7.24739">
        <ele>674</ele>
        <time>2010-12-05T10:24:37Z</time>
      </trkpt>
      <trkpt lat="43.85817" lon="7.24729">
        <ele>673</ele>
        <time>2010-12-05T10:24:41Z</time>
      </trkpt>
      <trkpt lat="43.85814" lon="7.24717">
        <ele>672</ele>
        <time>2010-12-05T10:24:47Z</time>
      </trkpt>
      <trkpt lat="43.85812" lon="7.24705">
        <ele>673</ele>
        <time>2010-12-05T10:24:53Z</time>
      </trkpt>
      <trkpt lat="43.8581" lon="7.24692">
        <ele>674</ele>
        <time>2010-12-05T10:24:59Z</time>
      </trkpt>
      <trkpt lat="43.85807" lon="7.2468">
        <ele>676</ele>
        <time>2010-12-05T10:25:05Z</time>
      </trkpt>
      <trkpt lat="43.85806" lon="7.24667">
        <ele>676</ele>
        <time>2010-12-05T10:25:12Z</time>
      </trkpt>
      <trkpt lat="43.85815" lon="7.2467">
        <ele>676</ele>
        <time>2010-12-05T10:25:18Z</time>
      </trkpt>
      <trkpt lat="43.8582" lon="7.24682">
        <ele>678</ele>
        <time>2010-12-05T10:25:23Z</time>
      </trkpt>
      <trkpt lat="43.85821" lon="7.24688">
        <ele>679</ele>
        <time>2010-12-05T10:25:26Z</time>
      </trkpt>
      <trkpt lat="43.85824" lon="7.247">
        <ele>680</ele>
        <time>2010-12-05T10:25:31Z</time>
      </trkpt>
      <trkpt lat="43.85828" lon="7.24712">
        <ele>680</ele>
        <time>2010-12-05T10:25:37Z</time>
      </trkpt>
      <trkpt lat="43.85833" lon="7.24723">
        <ele>683</ele>
        <time>2010-12-05T10:25:43Z</time>
      </trkpt>
      <trkpt lat="43.85838" lon="7.24734">
        <ele>683</ele>
        <time>2010-12-05T10:25:49Z</time>
      </trkpt>
      <trkpt lat="43.85844" lon="7.24745">
        <ele>682</ele>
        <time>2010-12-05T10:25:56Z</time>
      </trkpt>
      <trkpt lat="43.85852" lon="7.24751">
        <ele>682</ele>
        <time>2010-12-05T10:26:01Z</time>
      </trkpt>
      <trkpt lat="43.85861" lon="7.24755">
        <ele>682</ele>
        <time>2010-12-05T10:26:06Z</time>
      </trkpt>
      <trkpt lat="43.8587" lon="7.24749">
        <ele>684</ele>
        <time>2010-12-05T10:26:12Z</time>
      </trkpt>
      <trkpt lat="43.85875" lon="7.24737">
        <ele>684</ele>
        <time>2010-12-05T10:26:18Z</time>
      </trkpt>
      <trkpt lat="43.85877" lon="7.24724">
        <ele>686</ele>
        <time>2010-12-05T10:26:23Z</time>
      </trkpt>
      <trkpt lat="43.85878" lon="7.24712">
        <ele>688</ele>
        <time>2010-12-05T10:26:28Z</time>
      </trkpt>
      <trkpt lat="43.85879" lon="7.24698">
        <ele>691</ele>
        <time>2010-12-05T10:26:33Z</time>
      </trkpt>
      <trkpt lat="43.85878" lon="7.24684">
        <ele>692</ele>
        <time>2010-12-05T10:26:36Z</time>
      </trkpt>
      <trkpt lat="43.85876" lon="7.24669">
        <ele>692</ele>
        <time>2010-12-05T10:26:40Z</time>
      </trkpt>
      <trkpt lat="43.85878" lon="7.24656">
        <ele>694</ele>
        <time>2010-12-05T10:26:44Z</time>
      </trkpt>
      <trkpt lat="43.85884" lon="7.24645">
        <ele>697</ele>
        <time>2010-12-05T10:26:48Z</time>
      </trkpt>
      <trkpt lat="43.85885" lon="7.24643">
        <ele>697</ele>
        <time>2010-12-05T10:26:49Z</time>
      </trkpt>
      <trkpt lat="43.85893" lon="7.24635">
        <ele>700</ele>
        <time>2010-12-05T10:26:53Z</time>
      </trkpt>
      <trkpt lat="43.85903" lon="7.2463">
        <ele>701</ele>
        <time>2010-12-05T10:26:59Z</time>
      </trkpt>
      <trkpt lat="43.85912" lon="7.24625">
        <ele>704</ele>
        <time>2010-12-05T10:27:04Z</time>
      </trkpt>
      <trkpt lat="43.85921" lon="7.24623">
        <ele>705</ele>
        <time>2010-12-05T10:27:09Z</time>
      </trkpt>
      <trkpt lat="43.8593" lon="7.2462">
        <ele>707</ele>
        <time>2010-12-05T10:27:15Z</time>
      </trkpt>
      <trkpt lat="43.85936" lon="7.2461">
        <ele>710</ele>
        <time>2010-12-05T10:27:19Z</time>
      </trkpt>
      <trkpt lat="43.85939" lon="7.24597">
        <ele>710</ele>
        <time>2010-12-05T10:27:23Z</time>
      </trkpt>
      <trkpt lat="43.85941" lon="7.24584">
        <ele>710</ele>
        <time>2010-12-05T10:27:27Z</time>
      </trkpt>
      <trkpt lat="43.85941" lon="7.24579">
        <ele>710</ele>
        <time>2010-12-05T10:27:29Z</time>
      </trkpt>
      <trkpt lat="43.85942" lon="7.24566">
        <ele>709</ele>
        <time>2010-12-05T10:27:32Z</time>
      </trkpt>
      <trkpt lat="43.85944" lon="7.24553">
        <ele>708</ele>
        <time>2010-12-05T10:27:36Z</time>
      </trkpt>
      <trkpt lat="43.85944" lon="7.24539">
        <ele>706</ele>
        <time>2010-12-05T10:27:41Z</time>
      </trkpt>
      <trkpt lat="43.85944" lon="7.24535">
        <ele>706</ele>
        <time>2010-12-05T10:27:42Z</time>
      </trkpt>
      <trkpt lat="43.85939" lon="7.24523">
        <ele>706</ele>
        <time>2010-12-05T10:27:47Z</time>
      </trkpt>
      <trkpt lat="43.85933" lon="7.24515">
        <ele>706</ele>
        <time>2010-12-05T10:27:52Z</time>
      </trkpt>
      <trkpt lat="43.85925" lon="7.24507">
        <ele>709</ele>
        <time>2010-12-05T10:27:58Z</time>
      </trkpt>
      <trkpt lat="43.85922" lon="7.24495">
        <ele>710</ele>
        <time>2010-12-05T10:28:05Z</time>
      </trkpt>
      <trkpt lat="43.85924" lon="7.24492">
        <ele>711</ele>
        <time>2010-12-05T10:28:08Z</time>
      </trkpt>
      <trkpt lat="43.85933" lon="7.24486">
        <ele>714</ele>
        <time>2010-12-05T10:28:14Z</time>
      </trkpt>
      <trkpt lat="43.8594" lon="7.24478">
        <ele>717</ele>
        <time>2010-12-05T10:28:22Z</time>
      </trkpt>
      <trkpt lat="43.85949" lon="7.24475">
        <ele>721</ele>
        <time>2010-12-05T10:28:29Z</time>
      </trkpt>
      <trkpt lat="43.85958" lon="7.24472">
        <ele>723</ele>
        <time>2010-12-05T10:28:35Z</time>
      </trkpt>
      <trkpt lat="43.85968" lon="7.24467">
        <ele>725</ele>
        <time>2010-12-05T10:28:41Z</time>
      </trkpt>
      <trkpt lat="43.85976" lon="7.24461">
        <ele>726</ele>
        <time>2010-12-05T10:28:47Z</time>
      </trkpt>
      <trkpt lat="43.85985" lon="7.24456">
        <ele>726</ele>
        <time>2010-12-05T10:28:52Z</time>
      </trkpt>
      <trkpt lat="43.85994" lon="7.2445">
        <ele>728</ele>
        <time>2010-12-05T10:28:57Z</time>
      </trkpt>
      <trkpt lat="43.86" lon="7.24444">
        <ele>730</ele>
        <time>2010-12-05T10:29:02Z</time>
      </trkpt>
      <trkpt lat="43.86009" lon="7.24438">
        <ele>732</ele>
        <time>2010-12-05T10:29:07Z</time>
      </trkpt>
      <trkpt lat="43.86017" lon="7.24433">
        <ele>734</ele>
        <time>2010-12-05T10:29:13Z</time>
      </trkpt>
      <trkpt lat="43.86025" lon="7.24424">
        <ele>733</ele>
        <time>2010-12-05T10:29:18Z</time>
      </trkpt>
      <trkpt lat="43.86032" lon="7.24416">
        <ele>734</ele>
        <time>2010-12-05T10:29:23Z</time>
      </trkpt>
      <trkpt lat="43.86039" lon="7.24408">
        <ele>734</ele>
        <time>2010-12-05T10:29:29Z</time>
      </trkpt>
      <trkpt lat="43.86048" lon="7.24403">
        <ele>734</ele>
        <time>2010-12-05T10:29:34Z</time>
      </trkpt>
      <trkpt lat="43.86056" lon="7.24398">
        <ele>735</ele>
        <time>2010-12-05T10:29:40Z</time>
      </trkpt>
      <trkpt lat="43.86065" lon="7.24391">
        <ele>737</ele>
        <time>2010-12-05T10:29:46Z</time>
      </trkpt>
      <trkpt lat="43.86072" lon="7.24382">
        <ele>739</ele>
        <time>2010-12-05T10:29:52Z</time>
      </trkpt>
      <trkpt lat="43.86079" lon="7.24372">
        <ele>741</ele>
        <time>2010-12-05T10:29:59Z</time>
      </trkpt>
      <trkpt lat="43.86087" lon="7.24364">
        <ele>740</ele>
        <time>2010-12-05T10:30:05Z</time>
      </trkpt>
      <trkpt lat="43.86096" lon="7.24358">
        <ele>740</ele>
        <time>2010-12-05T10:30:12Z</time>
      </trkpt>
      <trkpt lat="43.86105" lon="7.24354">
        <ele>740</ele>
        <time>2010-12-05T10:30:19Z</time>
      </trkpt>
      <trkpt lat="43.86114" lon="7.2435">
        <ele>741</ele>
        <time>2010-12-05T10:30:25Z</time>
      </trkpt>
      <trkpt lat="43.86124" lon="7.24349">
        <ele>740</ele>
        <time>2010-12-05T10:30:32Z</time>
      </trkpt>
      <trkpt lat="43.86133" lon="7.24349">
        <ele>742</ele>
        <time>2010-12-05T10:30:39Z</time>
      </trkpt>
      <trkpt lat="43.86143" lon="7.24347">
        <ele>744</ele>
        <time>2010-12-05T10:30:45Z</time>
      </trkpt>
      <trkpt lat="43.86152" lon="7.24343">
        <ele>744</ele>
        <time>2010-12-05T10:30:51Z</time>
      </trkpt>
      <trkpt lat="43.86161" lon="7.24338">
        <ele>745</ele>
        <time>2010-12-05T10:30:58Z</time>
      </trkpt>
      <trkpt lat="43.86169" lon="7.24331">
        <ele>748</ele>
        <time>2010-12-05T10:31:05Z</time>
      </trkpt>
      <trkpt lat="43.86175" lon="7.24321">
        <ele>749</ele>
        <time>2010-12-05T10:31:12Z</time>
      </trkpt>
      <trkpt lat="43.86178" lon="7.24309">
        <ele>750</ele>
        <time>2010-12-05T10:31:18Z</time>
      </trkpt>
      <trkpt lat="43.86178" lon="7.24296">
        <ele>751</ele>
        <time>2010-12-05T10:31:23Z</time>
      </trkpt>
      <trkpt lat="43.86176" lon="7.24283">
        <ele>750</ele>
        <time>2010-12-05T10:31:28Z</time>
      </trkpt>
      <trkpt lat="43.86174" lon="7.2427">
        <ele>749</ele>
        <time>2010-12-05T10:31:33Z</time>
      </trkpt>
      <trkpt lat="43.86177" lon="7.24258">
        <ele>750</ele>
        <time>2010-12-05T10:31:40Z</time>
      </trkpt>
      <trkpt lat="43.86178" lon="7.24255">
        <ele>750</ele>
        <time>2010-12-05T10:31:41Z</time>
      </trkpt>
      <trkpt lat="43.86182" lon="7.24243">
        <ele>751</ele>
        <time>2010-12-05T10:31:49Z</time>
      </trkpt>
      <trkpt lat="43.86183" lon="7.2424">
        <ele>751</ele>
        <time>2010-12-05T10:31:51Z</time>
      </trkpt>
      <trkpt lat="43.86186" lon="7.24228">
        <ele>753</ele>
        <time>2010-12-05T10:31:57Z</time>
      </trkpt>
      <trkpt lat="43.86191" lon="7.24217">
        <ele>754</ele>
        <time>2010-12-05T10:32:04Z</time>
      </trkpt>
      <trkpt lat="43.862" lon="7.24219">
        <ele>755</ele>
        <time>2010-12-05T10:32:14Z</time>
      </trkpt>
      <trkpt lat="43.86199" lon="7.24213">
        <ele>735</ele>
        <time>2010-12-05T10:33:53Z</time>
      </trkpt>
      <trkpt lat="43.86193" lon="7.24222">
        <ele>741</ele>
        <time>2010-12-05T10:35:17Z</time>
      </trkpt>
      <trkpt lat="43.86188" lon="7.24235">
        <ele>743</ele>
        <time>2010-12-05T10:35:25Z</time>
      </trkpt>
      <trkpt lat="43.86186" lon="7.24248">
        <ele>745</ele>
        <time>2010-12-05T10:35:31Z</time>
      </trkpt>
      <trkpt lat="43.86189" lon="7.24261">
        <ele>746</ele>
        <time>2010-12-05T10:35:36Z</time>
      </trkpt>
      <trkpt lat="43.86192" lon="7.24273">
        <ele>746</ele>
        <time>2010-12-05T10:35:42Z</time>
      </trkpt>
      <trkpt lat="43.86193" lon="7.24275">
        <ele>746</ele>
        <time>2010-12-05T10:35:42Z</time>
      </trkpt>
      <trkpt lat="43.86194" lon="7.24288">
        <ele>746</ele>
        <time>2010-12-05T10:35:49Z</time>
      </trkpt>
      <trkpt lat="43.86193" lon="7.24301">
        <ele>746</ele>
        <time>2010-12-05T10:35:55Z</time>
      </trkpt>
      <trkpt lat="43.86193" lon="7.24304">
        <ele>746</ele>
        <time>2010-12-05T10:35:57Z</time>
      </trkpt>
      <trkpt lat="43.86193" lon="7.24317">
        <ele>747</ele>
        <time>2010-12-05T10:36:04Z</time>
      </trkpt>
      <trkpt lat="43.86194" lon="7.24331">
        <ele>748</ele>
        <time>2010-12-05T10:36:11Z</time>
      </trkpt>
      <trkpt lat="43.86195" lon="7.24344">
        <ele>749</ele>
        <time>2010-12-05T10:36:17Z</time>
      </trkpt>
      <trkpt lat="43.86194" lon="7.24358">
        <ele>750</ele>
        <time>2010-12-05T10:36:24Z</time>
      </trkpt>
      <trkpt lat="43.86192" lon="7.2437">
        <ele>751</ele>
        <time>2010-12-05T10:36:30Z</time>
      </trkpt>
      <trkpt lat="43.86189" lon="7.24382">
        <ele>751</ele>
        <time>2010-12-05T10:36:36Z</time>
      </trkpt>
      <trkpt lat="43.86187" lon="7.24396">
        <ele>752</ele>
        <time>2010-12-05T10:36:41Z</time>
      </trkpt>
      <trkpt lat="43.86186" lon="7.24411">
        <ele>752</ele>
        <time>2010-12-05T10:36:46Z</time>
      </trkpt>
      <trkpt lat="43.86184" lon="7.24423">
        <ele>754</ele>
        <time>2010-12-05T10:36:51Z</time>
      </trkpt>
      <trkpt lat="43.86183" lon="7.24437">
        <ele>755</ele>
        <time>2010-12-05T10:36:56Z</time>
      </trkpt>
      <trkpt lat="43.86185" lon="7.24451">
        <ele>756</ele>
        <time>2010-12-05T10:37:02Z</time>
      </trkpt>
      <trkpt lat="43.86189" lon="7.24465">
        <ele>756</ele>
        <time>2010-12-05T10:37:07Z</time>
      </trkpt>
      <trkpt lat="43.86192" lon="7.24477">
        <ele>758</ele>
        <time>2010-12-05T10:37:12Z</time>
      </trkpt>
      <trkpt lat="43.86196" lon="7.2449">
        <ele>758</ele>
        <time>2010-12-05T10:37:17Z</time>
      </trkpt>
      <trkpt lat="43.86199" lon="7.24503">
        <ele>759</ele>
        <time>2010-12-05T10:37:21Z</time>
      </trkpt>
      <trkpt lat="43.86201" lon="7.24517">
        <ele>759</ele>
        <time>2010-12-05T10:37:26Z</time>
      </trkpt>
      <trkpt lat="43.86201" lon="7.2453">
        <ele>759</ele>
        <time>2010-12-05T10:37:30Z</time>
      </trkpt>
      <trkpt lat="43.86202" lon="7.24542">
        <ele>760</ele>
        <time>2010-12-05T10:37:33Z</time>
      </trkpt>
      <trkpt lat="43.86201" lon="7.24557">
        <ele>759</ele>
        <time>2010-12-05T10:37:38Z</time>
      </trkpt>
      <trkpt lat="43.86201" lon="7.24562">
        <ele>759</ele>
        <time>2010-12-05T10:37:40Z</time>
      </trkpt>
      <trkpt lat="43.862" lon="7.24577">
        <ele>760</ele>
        <time>2010-12-05T10:37:44Z</time>
      </trkpt>
      <trkpt lat="43.862" lon="7.2459">
        <ele>761</ele>
        <time>2010-12-05T10:37:48Z</time>
      </trkpt>
      <trkpt lat="43.86198" lon="7.24604">
        <ele>760</ele>
        <time>2010-12-05T10:37:52Z</time>
      </trkpt>
      <trkpt lat="43.86194" lon="7.24617">
        <ele>761</ele>
        <time>2010-12-05T10:37:56Z</time>
      </trkpt>
      <trkpt lat="43.86193" lon="7.24623">
        <ele>761</ele>
        <time>2010-12-05T10:37:57Z</time>
      </trkpt>
      <trkpt lat="43.86188" lon="7.24637">
        <ele>761</ele>
        <time>2010-12-05T10:38:01Z</time>
      </trkpt>
      <trkpt lat="43.86183" lon="7.2465">
        <ele>762</ele>
        <time>2010-12-05T10:38:05Z</time>
      </trkpt>
      <trkpt lat="43.86176" lon="7.2466">
        <ele>762</ele>
        <time>2010-12-05T10:38:09Z</time>
      </trkpt>
      <trkpt lat="43.86175" lon="7.24663">
        <ele>763</ele>
        <time>2010-12-05T10:38:09Z</time>
      </trkpt>
      <trkpt lat="43.86168" lon="7.24674">
        <ele>766</ele>
        <time>2010-12-05T10:38:14Z</time>
      </trkpt>
      <trkpt lat="43.86167" lon="7.24679">
        <ele>767</ele>
        <time>2010-12-05T10:38:16Z</time>
      </trkpt>
      <trkpt lat="43.86167" lon="7.24689">
        <ele>763</ele>
        <time>2010-12-05T10:38:32Z</time>
      </trkpt>
      <trkpt lat="43.86174" lon="7.24698">
        <ele>761</ele>
        <time>2010-12-05T10:38:53Z</time>
      </trkpt>
      <trkpt lat="43.86183" lon="7.24697">
        <ele>763</ele>
        <time>2010-12-05T10:39:03Z</time>
      </trkpt>
      <trkpt lat="43.86186" lon="7.24701">
        <ele>765</ele>
        <time>2010-12-05T10:39:11Z</time>
      </trkpt>
      <trkpt lat="43.86183" lon="7.24713">
        <ele>767</ele>
        <time>2010-12-05T10:39:24Z</time>
      </trkpt>
      <trkpt lat="43.8618" lon="7.24726">
        <ele>770</ele>
        <time>2010-12-05T10:39:34Z</time>
      </trkpt>
      <trkpt lat="43.8618" lon="7.24738">
        <ele>772</ele>
        <time>2010-12-05T10:39:45Z</time>
      </trkpt>
      <trkpt lat="43.86181" lon="7.24743">
        <ele>772</ele>
        <time>2010-12-05T10:39:50Z</time>
      </trkpt>
      <trkpt lat="43.86183" lon="7.24756">
        <ele>774</ele>
        <time>2010-12-05T10:40:03Z</time>
      </trkpt>
      <trkpt lat="43.86182" lon="7.24769">
        <ele>774</ele>
        <time>2010-12-05T10:40:14Z</time>
      </trkpt>
      <trkpt lat="43.86182" lon="7.24781">
        <ele>776</ele>
        <time>2010-12-05T10:40:26Z</time>
      </trkpt>
      <trkpt lat="43.86183" lon="7.24795">
        <ele>776</ele>
        <time>2010-12-05T10:40:38Z</time>
      </trkpt>
      <trkpt lat="43.86184" lon="7.24804">
        <ele>777</ele>
        <time>2010-12-05T10:40:45Z</time>
      </trkpt>
      <trkpt lat="43.86186" lon="7.24816">
        <ele>779</ele>
        <time>2010-12-05T10:40:55Z</time>
      </trkpt>
      <trkpt lat="43.86188" lon="7.24828">
        <ele>778</ele>
        <time>2010-12-05T10:41:05Z</time>
      </trkpt>
      <trkpt lat="43.86193" lon="7.24839">
        <ele>780</ele>
        <time>2010-12-05T10:41:19Z</time>
      </trkpt>
      <trkpt lat="43.862" lon="7.24847">
        <ele>787</ele>
        <time>2010-12-05T10:41:37Z</time>
      </trkpt>
      <trkpt lat="43.86204" lon="7.24859">
        <ele>789</ele>
        <time>2010-12-05T10:41:51Z</time>
      </trkpt>
      <trkpt lat="43.86208" lon="7.24865">
        <ele>790</ele>
        <time>2010-12-05T10:42:01Z</time>
      </trkpt>
      <trkpt lat="43.86215" lon="7.24873">
        <ele>791</ele>
        <time>2010-12-05T10:42:14Z</time>
      </trkpt>
      <trkpt lat="43.86222" lon="7.24881">
        <ele>792</ele>
        <time>2010-12-05T10:42:31Z</time>
      </trkpt>
      <trkpt lat="43.86225" lon="7.24884">
        <ele>794</ele>
        <time>2010-12-05T10:42:36Z</time>
      </trkpt>
      <trkpt lat="43.86231" lon="7.24892">
        <ele>797</ele>
        <time>2010-12-05T10:42:47Z</time>
      </trkpt>
      <trkpt lat="43.86237" lon="7.24903">
        <ele>799</ele>
        <time>2010-12-05T10:43:02Z</time>
      </trkpt>
      <trkpt lat="43.86238" lon="7.24915">
        <ele>800</ele>
        <time>2010-12-05T10:43:14Z</time>
      </trkpt>
      <trkpt lat="43.86241" lon="7.24928">
        <ele>805</ele>
        <time>2010-12-05T10:43:33Z</time>
      </trkpt>
      <trkpt lat="43.86244" lon="7.24941">
        <ele>809</ele>
        <time>2010-12-05T10:44:02Z</time>
      </trkpt>
      <trkpt lat="43.86248" lon="7.24952">
        <ele>809</ele>
        <time>2010-12-05T10:44:10Z</time>
      </trkpt>
      <trkpt lat="43.86253" lon="7.24963">
        <ele>812</ele>
        <time>2010-12-05T10:44:20Z</time>
      </trkpt>
      <trkpt lat="43.8626" lon="7.24972">
        <ele>814</ele>
        <time>2010-12-05T10:44:30Z</time>
      </trkpt>
      <trkpt lat="43.86264" lon="7.24984">
        <ele>815</ele>
        <time>2010-12-05T10:44:38Z</time>
      </trkpt>
      <trkpt lat="43.8627" lon="7.24995">
        <ele>817</ele>
        <time>2010-12-05T10:44:49Z</time>
      </trkpt>
      <trkpt lat="43.86276" lon="7.25004">
        <ele>820</ele>
        <time>2010-12-05T10:45:04Z</time>
      </trkpt>
      <trkpt lat="43.86282" lon="7.25014">
        <ele>820</ele>
        <time>2010-12-05T10:45:15Z</time>
      </trkpt>
      <trkpt lat="43.86285" lon="7.25026">
        <ele>822</ele>
        <time>2010-12-05T10:45:28Z</time>
      </trkpt>
      <trkpt lat="43.86292" lon="7.25035">
        <ele>825</ele>
        <time>2010-12-05T10:45:38Z</time>
      </trkpt>
      <trkpt lat="43.86298" lon="7.25045">
        <ele>828</ele>
        <time>2010-12-05T10:45:53Z</time>
      </trkpt>
      <trkpt lat="43.86305" lon="7.25053">
        <ele>830</ele>
        <time>2010-12-05T10:46:04Z</time>
      </trkpt>
      <trkpt lat="43.86311" lon="7.25062">
        <ele>835</ele>
        <time>2010-12-05T10:46:17Z</time>
      </trkpt>
      <trkpt lat="43.86317" lon="7.25073">
        <ele>837</ele>
        <time>2010-12-05T10:46:32Z</time>
      </trkpt>
      <trkpt lat="43.86323" lon="7.25083">
        <ele>842</ele>
        <time>2010-12-05T10:46:45Z</time>
      </trkpt>
      <trkpt lat="43.86327" lon="7.25095">
        <ele>843</ele>
        <time>2010-12-05T10:46:54Z</time>
      </trkpt>
      <trkpt lat="43.8633" lon="7.25108">
        <ele>844</ele>
        <time>2010-12-05T10:47:02Z</time>
      </trkpt>
      <trkpt lat="43.86333" lon="7.25119">
        <ele>845</ele>
        <time>2010-12-05T10:47:09Z</time>
      </trkpt>
      <trkpt lat="43.86334" lon="7.2512">
        <ele>845</ele>
        <time>2010-12-05T10:47:10Z</time>
      </trkpt>
      <trkpt lat="43.86338" lon="7.25132">
        <ele>846</ele>
        <time>2010-12-05T10:47:17Z</time>
      </trkpt>
      <trkpt lat="43.86343" lon="7.25142">
        <ele>846</ele>
        <time>2010-12-05T10:47:28Z</time>
      </trkpt>
      <trkpt lat="43.8635" lon="7.25151">
        <ele>847</ele>
        <time>2010-12-05T10:47:39Z</time>
      </trkpt>
      <trkpt lat="43.86357" lon="7.25159">
        <ele>850</ele>
        <time>2010-12-05T10:47:56Z</time>
      </trkpt>
      <trkpt lat="43.86362" lon="7.25168">
        <ele>853</ele>
        <time>2010-12-05T10:48:14Z</time>
      </trkpt>
      <trkpt lat="43.86368" lon="7.25179">
        <ele>854</ele>
        <time>2010-12-05T10:48:26Z</time>
      </trkpt>
      <trkpt lat="43.86373" lon="7.2519">
        <ele>857</ele>
        <time>2010-12-05T10:48:39Z</time>
      </trkpt>
      <trkpt lat="43.86376" lon="7.25196">
        <ele>859</ele>
        <time>2010-12-05T10:48:46Z</time>
      </trkpt>
      <trkpt lat="43.86379" lon="7.25209">
        <ele>862</ele>
        <time>2010-12-05T10:48:55Z</time>
      </trkpt>
      <trkpt lat="43.8638" lon="7.25213">
        <ele>862</ele>
        <time>2010-12-05T10:48:57Z</time>
      </trkpt>
      <trkpt lat="43.86383" lon="7.25225">
        <ele>865</ele>
        <time>2010-12-05T10:49:06Z</time>
      </trkpt>
      <trkpt lat="43.86386" lon="7.25236">
        <ele>865</ele>
        <time>2010-12-05T10:49:16Z</time>
      </trkpt>
      <trkpt lat="43.86388" lon="7.25249">
        <ele>867</ele>
        <time>2010-12-05T10:49:30Z</time>
      </trkpt>
      <trkpt lat="43.86394" lon="7.2526">
        <ele>869</ele>
        <time>2010-12-05T10:49:42Z</time>
      </trkpt>
      <trkpt lat="43.86399" lon="7.2527">
        <ele>868</ele>
        <time>2010-12-05T10:49:56Z</time>
      </trkpt>
      <trkpt lat="43.86402" lon="7.25283">
        <ele>867</ele>
        <time>2010-12-05T10:50:04Z</time>
      </trkpt>
      <trkpt lat="43.86404" lon="7.25294">
        <ele>870</ele>
        <time>2010-12-05T10:50:15Z</time>
      </trkpt>
      <trkpt lat="43.86409" lon="7.25304">
        <ele>870</ele>
        <time>2010-12-05T10:50:31Z</time>
      </trkpt>
      <trkpt lat="43.86411" lon="7.25312">
        <ele>872</ele>
        <time>2010-12-05T10:50:38Z</time>
      </trkpt>
      <trkpt lat="43.86414" lon="7.25325">
        <ele>874</ele>
        <time>2010-12-05T10:50:49Z</time>
      </trkpt>
      <trkpt lat="43.86418" lon="7.25336">
        <ele>876</ele>
        <time>2010-12-05T10:50:59Z</time>
      </trkpt>
      <trkpt lat="43.86422" lon="7.25348">
        <ele>877</ele>
        <time>2010-12-05T10:51:14Z</time>
      </trkpt>
      <trkpt lat="43.86428" lon="7.25358">
        <ele>881</ele>
        <time>2010-12-05T10:51:27Z</time>
      </trkpt>
      <trkpt lat="43.86433" lon="7.25369">
        <ele>884</ele>
        <time>2010-12-05T10:51:43Z</time>
      </trkpt>
      <trkpt lat="43.8644" lon="7.25377">
        <ele>887</ele>
        <time>2010-12-05T10:51:58Z</time>
      </trkpt>
      <trkpt lat="43.86441" lon="7.25377">
        <ele>887</ele>
        <time>2010-12-05T10:51:59Z</time>
      </trkpt>
      <trkpt lat="43.8645" lon="7.25378">
        <ele>893</ele>
        <time>2010-12-05T10:52:21Z</time>
      </trkpt>
      <trkpt lat="43.8645" lon="7.25378">
        <ele>892</ele>
        <time>2010-12-05T10:52:21Z</time>
      </trkpt>
      <trkpt lat="43.86453" lon="7.25366">
        <ele>896</ele>
        <time>2010-12-05T10:52:40Z</time>
      </trkpt>
      <trkpt lat="43.86455" lon="7.25366">
        <ele>898</ele>
        <time>2010-12-05T10:52:49Z</time>
      </trkpt>
      <trkpt lat="43.86451" lon="7.25378">
        <ele>899</ele>
        <time>2010-12-05T10:55:39Z</time>
      </trkpt>
      <trkpt lat="43.86449" lon="7.25388">
        <ele>899</ele>
        <time>2010-12-05T10:55:43Z</time>
      </trkpt>
      <trkpt lat="43.86446" lon="7.254">
        <ele>901</ele>
        <time>2010-12-05T10:55:49Z</time>
      </trkpt>
      <trkpt lat="43.86446" lon="7.25413">
        <ele>903</ele>
        <time>2010-12-05T10:55:55Z</time>
      </trkpt>
      <trkpt lat="43.8645" lon="7.25425">
        <ele>904</ele>
        <time>2010-12-05T10:56:01Z</time>
      </trkpt>
      <trkpt lat="43.86454" lon="7.25438">
        <ele>905</ele>
        <time>2010-12-05T10:56:06Z</time>
      </trkpt>
      <trkpt lat="43.86457" lon="7.2545">
        <ele>906</ele>
        <time>2010-12-05T10:56:11Z</time>
      </trkpt>
      <trkpt lat="43.8646" lon="7.25463">
        <ele>906</ele>
        <time>2010-12-05T10:56:17Z</time>
      </trkpt>
      <trkpt lat="43.86461" lon="7.25477">
        <ele>906</ele>
        <time>2010-12-05T10:56:23Z</time>
      </trkpt>
      <trkpt lat="43.86461" lon="7.25491">
        <ele>907</ele>
        <time>2010-12-05T10:56:29Z</time>
      </trkpt>
      <trkpt lat="43.86462" lon="7.25504">
        <ele>909</ele>
        <time>2010-12-05T10:56:35Z</time>
      </trkpt>
      <trkpt lat="43.86462" lon="7.25517">
        <ele>910</ele>
        <time>2010-12-05T10:56:41Z</time>
      </trkpt>
      <trkpt lat="43.86463" lon="7.25531">
        <ele>911</ele>
        <time>2010-12-05T10:56:47Z</time>
      </trkpt>
      <trkpt lat="43.86467" lon="7.25544">
        <ele>912</ele>
        <time>2010-12-05T10:56:52Z</time>
      </trkpt>
      <trkpt lat="43.86471" lon="7.25557">
        <ele>913</ele>
        <time>2010-12-05T10:56:57Z</time>
      </trkpt>
      <trkpt lat="43.86476" lon="7.25568">
        <ele>915</ele>
        <time>2010-12-05T10:57:02Z</time>
      </trkpt>
      <trkpt lat="43.86483" lon="7.2558">
        <ele>915</ele>
        <time>2010-12-05T10:57:06Z</time>
      </trkpt>
      <trkpt lat="43.86489" lon="7.2559">
        <ele>915</ele>
        <time>2010-12-05T10:57:10Z</time>
      </trkpt>
      <trkpt lat="43.86495" lon="7.25599">
        <ele>916</ele>
        <time>2010-12-05T10:57:14Z</time>
      </trkpt>
      <trkpt lat="43.86502" lon="7.25609">
        <ele>916</ele>
        <time>2010-12-05T10:57:18Z</time>
      </trkpt>
      <trkpt lat="43.86508" lon="7.25618">
        <ele>917</ele>
        <time>2010-12-05T10:57:22Z</time>
      </trkpt>
      <trkpt lat="43.86516" lon="7.25628">
        <ele>919</ele>
        <time>2010-12-05T10:57:26Z</time>
      </trkpt>
      <trkpt lat="43.86523" lon="7.25637">
        <ele>920</ele>
        <time>2010-12-05T10:57:31Z</time>
      </trkpt>
      <trkpt lat="43.86529" lon="7.25645">
        <ele>920</ele>
        <time>2010-12-05T10:57:34Z</time>
      </trkpt>
      <trkpt lat="43.86536" lon="7.25654">
        <ele>920</ele>
        <time>2010-12-05T10:57:39Z</time>
      </trkpt>
      <trkpt lat="43.8654" lon="7.25661">
        <ele>920</ele>
        <time>2010-12-05T10:57:43Z</time>
      </trkpt>
      <trkpt lat="43.86543" lon="7.25673">
        <ele>921</ele>
        <time>2010-12-05T10:57:50Z</time>
      </trkpt>
      <trkpt lat="43.86542" lon="7.25686">
        <ele>922</ele>
        <time>2010-12-05T10:58:00Z</time>
      </trkpt>
      <trkpt lat="43.86548" lon="7.25697">
        <ele>927</ele>
        <time>2010-12-05T10:58:07Z</time>
      </trkpt>
      <trkpt lat="43.86558" lon="7.25699">
        <ele>928</ele>
        <time>2010-12-05T10:58:11Z</time>
      </trkpt>
      <trkpt lat="43.86564" lon="7.2569">
        <ele>925</ele>
        <time>2010-12-05T10:58:17Z</time>
      </trkpt>
      <trkpt lat="43.86565" lon="7.25677">
        <ele>921</ele>
        <time>2010-12-05T10:58:23Z</time>
      </trkpt>
      <trkpt lat="43.86566" lon="7.25663">
        <ele>920</ele>
        <time>2010-12-05T10:58:29Z</time>
      </trkpt>
      <trkpt lat="43.86566" lon="7.2565">
        <ele>919</ele>
        <time>2010-12-05T10:58:35Z</time>
      </trkpt>
      <trkpt lat="43.86563" lon="7.25637">
        <ele>921</ele>
        <time>2010-12-05T10:58:41Z</time>
      </trkpt>
      <trkpt lat="43.86562" lon="7.25634">
        <ele>921</ele>
        <time>2010-12-05T10:58:43Z</time>
      </trkpt>
      <trkpt lat="43.86556" lon="7.25624">
        <ele>922</ele>
        <time>2010-12-05T10:58:48Z</time>
      </trkpt>
      <trkpt lat="43.86552" lon="7.25612">
        <ele>922</ele>
        <time>2010-12-05T10:58:54Z</time>
      </trkpt>
      <trkpt lat="43.8655" lon="7.25599">
        <ele>923</ele>
        <time>2010-12-05T10:59:00Z</time>
      </trkpt>
      <trkpt lat="43.86549" lon="7.25586">
        <ele>926</ele>
        <time>2010-12-05T10:59:06Z</time>
      </trkpt>
      <trkpt lat="43.86549" lon="7.25572">
        <ele>928</ele>
        <time>2010-12-05T10:59:13Z</time>
      </trkpt>
      <trkpt lat="43.8655" lon="7.25559">
        <ele>930</ele>
        <time>2010-12-05T10:59:19Z</time>
      </trkpt>
      <trkpt lat="43.8655" lon="7.25545">
        <ele>932</ele>
        <time>2010-12-05T10:59:26Z</time>
      </trkpt>
      <trkpt lat="43.86552" lon="7.25532">
        <ele>933</ele>
        <time>2010-12-05T10:59:31Z</time>
      </trkpt>
      <trkpt lat="43.86553" lon="7.25519">
        <ele>934</ele>
        <time>2010-12-05T10:59:37Z</time>
      </trkpt>
      <trkpt lat="43.86553" lon="7.25505">
        <ele>935</ele>
        <time>2010-12-05T10:59:42Z</time>
      </trkpt>
      <trkpt lat="43.86553" lon="7.25492">
        <ele>936</ele>
        <time>2010-12-05T10:59:46Z</time>
      </trkpt>
      <trkpt lat="43.86553" lon="7.25479">
        <ele>935</ele>
        <time>2010-12-05T10:59:51Z</time>
      </trkpt>
      <trkpt lat="43.86552" lon="7.25466">
        <ele>934</ele>
        <time>2010-12-05T10:59:55Z</time>
      </trkpt>
      <trkpt lat="43.8655" lon="7.25452">
        <ele>935</ele>
        <time>2010-12-05T11:00:00Z</time>
      </trkpt>
      <trkpt lat="43.86549" lon="7.25439">
        <ele>935</ele>
        <time>2010-12-05T11:00:05Z</time>
      </trkpt>
      <trkpt lat="43.86549" lon="7.25426">
        <ele>935</ele>
        <time>2010-12-05T11:00:09Z</time>
      </trkpt>
      <trkpt lat="43.86548" lon="7.2542">
        <ele>936</ele>
        <time>2010-12-05T11:00:11Z</time>
      </trkpt>
      <trkpt lat="43.86546" lon="7.25406">
        <ele>937</ele>
        <time>2010-12-05T11:00:16Z</time>
      </trkpt>
      <trkpt lat="43.86543" lon="7.25393">
        <ele>938</ele>
        <time>2010-12-05T11:00:21Z</time>
      </trkpt>
      <trkpt lat="43.86542" lon="7.25386">
        <ele>939</ele>
        <time>2010-12-05T11:00:23Z</time>
      </trkpt>
      <trkpt lat="43.86539" lon="7.25373">
        <ele>940</ele>
        <time>2010-12-05T11:00:27Z</time>
      </trkpt>
      <trkpt lat="43.86536" lon="7.2536">
        <ele>940</ele>
        <time>2010-12-05T11:00:32Z</time>
      </trkpt>
      <trkpt lat="43.86534" lon="7.25347">
        <ele>940</ele>
        <time>2010-12-05T11:00:36Z</time>
      </trkpt>
      <trkpt lat="43.86533" lon="7.25335">
        <ele>941</ele>
        <time>2010-12-05T11:00:41Z</time>
      </trkpt>
      <trkpt lat="43.86532" lon="7.25321">
        <ele>942</ele>
        <time>2010-12-05T11:00:46Z</time>
      </trkpt>
      <trkpt lat="43.86532" lon="7.25308">
        <ele>942</ele>
        <time>2010-12-05T11:00:52Z</time>
      </trkpt>
      <trkpt lat="43.8654" lon="7.25303">
        <ele>943</ele>
        <time>2010-12-05T11:00:57Z</time>
      </trkpt>
      <trkpt lat="43.86541" lon="7.25316">
        <ele>946</ele>
        <time>2010-12-05T11:01:04Z</time>
      </trkpt>
      <trkpt lat="43.86539" lon="7.25329">
        <ele>949</ele>
        <time>2010-12-05T11:01:10Z</time>
      </trkpt>
      <trkpt lat="43.86538" lon="7.25342">
        <ele>952</ele>
        <time>2010-12-05T11:01:16Z</time>
      </trkpt>
      <trkpt lat="43.86537" lon="7.25356">
        <ele>953</ele>
        <time>2010-12-05T11:01:23Z</time>
      </trkpt>
      <trkpt lat="43.86541" lon="7.25368">
        <ele>956</ele>
        <time>2010-12-05T11:01:28Z</time>
      </trkpt>
      <trkpt lat="43.86546" lon="7.25378">
        <ele>958</ele>
        <time>2010-12-05T11:01:32Z</time>
      </trkpt>
      <trkpt lat="43.86553" lon="7.25389">
        <ele>960</ele>
        <time>2010-12-05T11:01:36Z</time>
      </trkpt>
      <trkpt lat="43.86558" lon="7.25401">
        <ele>961</ele>
        <time>2010-12-05T11:01:40Z</time>
      </trkpt>
      <trkpt lat="43.86563" lon="7.25412">
        <ele>962</ele>
        <time>2010-12-05T11:01:45Z</time>
      </trkpt>
      <trkpt lat="43.86566" lon="7.25425">
        <ele>963</ele>
        <time>2010-12-05T11:01:51Z</time>
      </trkpt>
      <trkpt lat="43.8657" lon="7.25438">
        <ele>963</ele>
        <time>2010-12-05T11:01:58Z</time>
      </trkpt>
      <trkpt lat="43.86575" lon="7.25448">
        <ele>965</ele>
        <time>2010-12-05T11:02:03Z</time>
      </trkpt>
      <trkpt lat="43.86581" lon="7.25459">
        <ele>968</ele>
        <time>2010-12-05T11:02:08Z</time>
      </trkpt>
      <trkpt lat="43.86581" lon="7.25461">
        <ele>968</ele>
        <time>2010-12-05T11:02:09Z</time>
      </trkpt>
      <trkpt lat="43.86586" lon="7.25472">
        <ele>969</ele>
        <time>2010-12-05T11:02:14Z</time>
      </trkpt>
      <trkpt lat="43.8659" lon="7.25483">
        <ele>970</ele>
        <time>2010-12-05T11:02:20Z</time>
      </trkpt>
      <trkpt lat="43.86592" lon="7.25496">
        <ele>972</ele>
        <time>2010-12-05T11:02:29Z</time>
      </trkpt>
      <trkpt lat="43.86596" lon="7.25508">
        <ele>973</ele>
        <time>2010-12-05T11:02:35Z</time>
      </trkpt>
      <trkpt lat="43.86601" lon="7.25519">
        <ele>975</ele>
        <time>2010-12-05T11:02:40Z</time>
      </trkpt>
      <trkpt lat="43.86602" lon="7.25521">
        <ele>976</ele>
        <time>2010-12-05T11:02:41Z</time>
      </trkpt>
      <trkpt lat="43.86608" lon="7.25533">
        <ele>977</ele>
        <time>2010-12-05T11:02:45Z</time>
      </trkpt>
      <trkpt lat="43.86615" lon="7.25545">
        <ele>977</ele>
        <time>2010-12-05T11:02:49Z</time>
      </trkpt>
      <trkpt lat="43.8662" lon="7.25555">
        <ele>978</ele>
        <time>2010-12-05T11:02:53Z</time>
      </trkpt>
      <trkpt lat="43.86624" lon="7.25568">
        <ele>978</ele>
        <time>2010-12-05T11:02:58Z</time>
      </trkpt>
      <trkpt lat="43.86628" lon="7.2558">
        <ele>979</ele>
        <time>2010-12-05T11:03:04Z</time>
      </trkpt>
      <trkpt lat="43.86631" lon="7.25593">
        <ele>980</ele>
        <time>2010-12-05T11:03:11Z</time>
      </trkpt>
      <trkpt lat="43.86636" lon="7.25605">
        <ele>981</ele>
        <time>2010-12-05T11:03:17Z</time>
      </trkpt>
      <trkpt lat="43.86641" lon="7.25617">
        <ele>984</ele>
        <time>2010-12-05T11:03:23Z</time>
      </trkpt>
      <trkpt lat="43.86646" lon="7.25629">
        <ele>985</ele>
        <time>2010-12-05T11:03:29Z</time>
      </trkpt>
      <trkpt lat="43.8665" lon="7.25636">
        <ele>985</ele>
        <time>2010-12-05T11:03:33Z</time>
      </trkpt>
      <trkpt lat="43.86656" lon="7.25648">
        <ele>986</ele>
        <time>2010-12-05T11:03:37Z</time>
      </trkpt>
      <trkpt lat="43.86661" lon="7.25658">
        <ele>986</ele>
        <time>2010-12-05T11:03:41Z</time>
      </trkpt>
      <trkpt lat="43.86667" lon="7.25668">
        <ele>987</ele>
        <time>2010-12-05T11:03:45Z</time>
      </trkpt>
      <trkpt lat="43.86674" lon="7.25678">
        <ele>988</ele>
        <time>2010-12-05T11:03:48Z</time>
      </trkpt>
      <trkpt lat="43.8668" lon="7.25687">
        <ele>989</ele>
        <time>2010-12-05T11:03:52Z</time>
      </trkpt>
      <trkpt lat="43.86688" lon="7.25698">
        <ele>990</ele>
        <time>2010-12-05T11:03:56Z</time>
      </trkpt>
      <trkpt lat="43.86694" lon="7.25707">
        <ele>990</ele>
        <time>2010-12-05T11:04:01Z</time>
      </trkpt>
      <trkpt lat="43.86699" lon="7.25718">
        <ele>990</ele>
        <time>2010-12-05T11:04:06Z</time>
      </trkpt>
      <trkpt lat="43.86702" lon="7.25731">
        <ele>990</ele>
        <time>2010-12-05T11:04:11Z</time>
      </trkpt>
      <trkpt lat="43.86704" lon="7.25743">
        <ele>991</ele>
        <time>2010-12-05T11:04:16Z</time>
      </trkpt>
      <trkpt lat="43.86708" lon="7.25755">
        <ele>992</ele>
        <time>2010-12-05T11:04:22Z</time>
      </trkpt>
      <trkpt lat="43.86713" lon="7.25767">
        <ele>994</ele>
        <time>2010-12-05T11:04:27Z</time>
      </trkpt>
      <trkpt lat="43.86718" lon="7.25779">
        <ele>995</ele>
        <time>2010-12-05T11:04:31Z</time>
      </trkpt>
      <trkpt lat="43.86723" lon="7.2579">
        <ele>996</ele>
        <time>2010-12-05T11:04:36Z</time>
      </trkpt>
      <trkpt lat="43.86729" lon="7.25803">
        <ele>997</ele>
        <time>2010-12-05T11:04:40Z</time>
      </trkpt>
      <trkpt lat="43.86733" lon="7.25815">
        <ele>997</ele>
        <time>2010-12-05T11:04:45Z</time>
      </trkpt>
      <trkpt lat="43.86734" lon="7.25816">
        <ele>997</ele>
        <time>2010-12-05T11:04:45Z</time>
      </trkpt>
      <trkpt lat="43.86738" lon="7.25828">
        <ele>999</ele>
        <time>2010-12-05T11:04:51Z</time>
      </trkpt>
      <trkpt lat="43.86744" lon="7.25839">
        <ele>1001</ele>
        <time>2010-12-05T11:04:55Z</time>
      </trkpt>
      <trkpt lat="43.86752" lon="7.25848">
        <ele>1001</ele>
        <time>2010-12-05T11:04:59Z</time>
      </trkpt>
      <trkpt lat="43.86761" lon="7.25855">
        <ele>1003</ele>
        <time>2010-12-05T11:05:04Z</time>
      </trkpt>
      <trkpt lat="43.8677" lon="7.25863">
        <ele>1002</ele>
        <time>2010-12-05T11:05:09Z</time>
      </trkpt>
      <trkpt lat="43.86778" lon="7.2587">
        <ele>1003</ele>
        <time>2010-12-05T11:05:13Z</time>
      </trkpt>
      <trkpt lat="43.86786" lon="7.25878">
        <ele>1004</ele>
        <time>2010-12-05T11:05:18Z</time>
      </trkpt>
      <trkpt lat="43.86793" lon="7.25886">
        <ele>1006</ele>
        <time>2010-12-05T11:05:22Z</time>
      </trkpt>
      <trkpt lat="43.86801" lon="7.25893">
        <ele>1006</ele>
        <time>2010-12-05T11:05:27Z</time>
      </trkpt>
      <trkpt lat="43.86809" lon="7.25899">
        <ele>1008</ele>
        <time>2010-12-05T11:05:31Z</time>
      </trkpt>
      <trkpt lat="43.86817" lon="7.25906">
        <ele>1009</ele>
        <time>2010-12-05T11:05:36Z</time>
      </trkpt>
      <trkpt lat="43.86822" lon="7.25918">
        <ele>1010</ele>
        <time>2010-12-05T11:05:42Z</time>
      </trkpt>
      <trkpt lat="43.86819" lon="7.2593">
        <ele>1009</ele>
        <time>2010-12-05T11:05:50Z</time>
      </trkpt>
      <trkpt lat="43.8681" lon="7.25933">
        <ele>1010</ele>
        <time>2010-12-05T11:05:57Z</time>
      </trkpt>
      <trkpt lat="43.86801" lon="7.25935">
        <ele>1013</ele>
        <time>2010-12-05T11:06:03Z</time>
      </trkpt>
      <trkpt lat="43.86791" lon="7.25937">
        <ele>1016</ele>
        <time>2010-12-05T11:06:09Z</time>
      </trkpt>
      <trkpt lat="43.86784" lon="7.25946">
        <ele>1022</ele>
        <time>2010-12-05T11:06:15Z</time>
      </trkpt>
      <trkpt lat="43.86782" lon="7.25961">
        <ele>1019</ele>
        <time>2010-12-05T11:06:20Z</time>
      </trkpt>
      <trkpt lat="43.86784" lon="7.25976">
        <ele>1018</ele>
        <time>2010-12-05T11:06:23Z</time>
      </trkpt>
      <trkpt lat="43.8679" lon="7.2599">
        <ele>1018</ele>
        <time>2010-12-05T11:06:26Z</time>
      </trkpt>
      <trkpt lat="43.86793" lon="7.25995">
        <ele>1019</ele>
        <time>2010-12-05T11:06:27Z</time>
      </trkpt>
      <trkpt lat="43.86802" lon="7.26001">
        <ele>1020</ele>
        <time>2010-12-05T11:06:32Z</time>
      </trkpt>
      <trkpt lat="43.86811" lon="7.25994">
        <ele>1023</ele>
        <time>2010-12-05T11:06:37Z</time>
      </trkpt>
      <trkpt lat="43.86818" lon="7.25983">
        <ele>1026</ele>
        <time>2010-12-05T11:06:43Z</time>
      </trkpt>
      <trkpt lat="43.86824" lon="7.25972">
        <ele>1029</ele>
        <time>2010-12-05T11:06:47Z</time>
      </trkpt>
      <trkpt lat="43.8683" lon="7.25962">
        <ele>1030</ele>
        <time>2010-12-05T11:06:52Z</time>
      </trkpt>
      <trkpt lat="43.86838" lon="7.25955">
        <ele>1032</ele>
        <time>2010-12-05T11:06:57Z</time>
      </trkpt>
      <trkpt lat="43.86846" lon="7.2595">
        <ele>1033</ele>
        <time>2010-12-05T11:07:02Z</time>
      </trkpt>
      <trkpt lat="43.8685" lon="7.25948">
        <ele>1034</ele>
        <time>2010-12-05T11:07:04Z</time>
      </trkpt>
      <trkpt lat="43.86858" lon="7.25941">
        <ele>1039</ele>
        <time>2010-12-05T11:07:11Z</time>
      </trkpt>
      <trkpt lat="43.86862" lon="7.2593">
        <ele>1044</ele>
        <time>2010-12-05T11:07:16Z</time>
      </trkpt>
      <trkpt lat="43.86862" lon="7.25915">
        <ele>1044</ele>
        <time>2010-12-05T11:07:21Z</time>
      </trkpt>
      <trkpt lat="43.86859" lon="7.25902">
        <ele>1043</ele>
        <time>2010-12-05T11:07:24Z</time>
      </trkpt>
      <trkpt lat="43.86856" lon="7.2589">
        <ele>1041</ele>
        <time>2010-12-05T11:07:28Z</time>
      </trkpt>
      <trkpt lat="43.86852" lon="7.25878">
        <ele>1039</ele>
        <time>2010-12-05T11:07:32Z</time>
      </trkpt>
      <trkpt lat="43.86847" lon="7.25866">
        <ele>1039</ele>
        <time>2010-12-05T11:07:37Z</time>
      </trkpt>
      <trkpt lat="43.86841" lon="7.25855">
        <ele>1039</ele>
        <time>2010-12-05T11:07:41Z</time>
      </trkpt>
      <trkpt lat="43.86836" lon="7.25844">
        <ele>1039</ele>
        <time>2010-12-05T11:07:45Z</time>
      </trkpt>
      <trkpt lat="43.86832" lon="7.25833">
        <ele>1039</ele>
        <time>2010-12-05T11:07:49Z</time>
      </trkpt>
      <trkpt lat="43.86827" lon="7.25821">
        <ele>1039</ele>
        <time>2010-12-05T11:07:53Z</time>
      </trkpt>
      <trkpt lat="43.86824" lon="7.25809">
        <ele>1038</ele>
        <time>2010-12-05T11:07:57Z</time>
      </trkpt>
      <trkpt lat="43.86822" lon="7.25802">
        <ele>1038</ele>
        <time>2010-12-05T11:07:59Z</time>
      </trkpt>
      <trkpt lat="43.86818" lon="7.25791">
        <ele>1039</ele>
        <time>2010-12-05T11:08:03Z</time>
      </trkpt>
      <trkpt lat="43.86814" lon="7.25779">
        <ele>1039</ele>
        <time>2010-12-05T11:08:07Z</time>
      </trkpt>
      <trkpt lat="43.8681" lon="7.25765">
        <ele>1039</ele>
        <time>2010-12-05T11:08:12Z</time>
      </trkpt>
      <trkpt lat="43.86806" lon="7.25752">
        <ele>1038</ele>
        <time>2010-12-05T11:08:16Z</time>
      </trkpt>
      <trkpt lat="43.86803" lon="7.25739">
        <ele>1040</ele>
        <time>2010-12-05T11:08:21Z</time>
      </trkpt>
      <trkpt lat="43.86799" lon="7.25727">
        <ele>1040</ele>
        <time>2010-12-05T11:08:25Z</time>
      </trkpt>
      <trkpt lat="43.86796" lon="7.25719">
        <ele>1041</ele>
        <time>2010-12-05T11:08:29Z</time>
      </trkpt>
      <trkpt lat="43.86791" lon="7.25707">
        <ele>1042</ele>
        <time>2010-12-05T11:08:33Z</time>
      </trkpt>
      <trkpt lat="43.86787" lon="7.25695">
        <ele>1043</ele>
        <time>2010-12-05T11:08:38Z</time>
      </trkpt>
      <trkpt lat="43.86786" lon="7.25692">
        <ele>1043</ele>
        <time>2010-12-05T11:08:40Z</time>
      </trkpt>
      <trkpt lat="43.86782" lon="7.25681">
        <ele>1043</ele>
        <time>2010-12-05T11:08:45Z</time>
      </trkpt>
      <trkpt lat="43.86779" lon="7.25669">
        <ele>1043</ele>
        <time>2010-12-05T11:08:51Z</time>
      </trkpt>
      <trkpt lat="43.86776" lon="7.25657">
        <ele>1043</ele>
        <time>2010-12-05T11:08:56Z</time>
      </trkpt>
      <trkpt lat="43.86772" lon="7.25645">
        <ele>1043</ele>
        <time>2010-12-05T11:09:01Z</time>
      </trkpt>
      <trkpt lat="43.86768" lon="7.25633">
        <ele>1044</ele>
        <time>2010-12-05T11:09:06Z</time>
      </trkpt>
      <trkpt lat="43.86765" lon="7.25621">
        <ele>1045</ele>
        <time>2010-12-05T11:09:11Z</time>
      </trkpt>
      <trkpt lat="43.86763" lon="7.25608">
        <ele>1045</ele>
        <time>2010-12-05T11:09:16Z</time>
      </trkpt>
      <trkpt lat="43.8676" lon="7.25595">
        <ele>1047</ele>
        <time>2010-12-05T11:09:21Z</time>
      </trkpt>
      <trkpt lat="43.86757" lon="7.25583">
        <ele>1047</ele>
        <time>2010-12-05T11:09:27Z</time>
      </trkpt>
      <trkpt lat="43.86754" lon="7.25571">
        <ele>1047</ele>
        <time>2010-12-05T11:09:32Z</time>
      </trkpt>
      <trkpt lat="43.8675" lon="7.25558">
        <ele>1049</ele>
        <time>2010-12-05T11:09:38Z</time>
      </trkpt>
      <trkpt lat="43.86747" lon="7.25546">
        <ele>1050</ele>
        <time>2010-12-05T11:09:43Z</time>
      </trkpt>
      <trkpt lat="43.86754" lon="7.25554">
        <ele>1057</ele>
        <time>2010-12-05T11:10:03Z</time>
      </trkpt>
      <trkpt lat="43.86755" lon="7.25567">
        <ele>1060</ele>
        <time>2010-12-05T11:10:09Z</time>
      </trkpt>
      <trkpt lat="43.86758" lon="7.2558">
        <ele>1063</ele>
        <time>2010-12-05T11:10:17Z</time>
      </trkpt>
      <trkpt lat="43.8676" lon="7.25593">
        <ele>1064</ele>
        <time>2010-12-05T11:10:23Z</time>
      </trkpt>
      <trkpt lat="43.86764" lon="7.25606">
        <ele>1066</ele>
        <time>2010-12-05T11:10:29Z</time>
      </trkpt>
      <trkpt lat="43.86768" lon="7.25618">
        <ele>1068</ele>
        <time>2010-12-05T11:10:35Z</time>
      </trkpt>
      <trkpt lat="43.86775" lon="7.25629">
        <ele>1070</ele>
        <time>2010-12-05T11:10:40Z</time>
      </trkpt>
      <trkpt lat="43.8678" lon="7.25639">
        <ele>1070</ele>
        <time>2010-12-05T11:10:45Z</time>
      </trkpt>
      <trkpt lat="43.86786" lon="7.2565">
        <ele>1070</ele>
        <time>2010-12-05T11:10:50Z</time>
      </trkpt>
      <trkpt lat="43.86791" lon="7.2566">
        <ele>1071</ele>
        <time>2010-12-05T11:10:56Z</time>
      </trkpt>
      <trkpt lat="43.86799" lon="7.25672">
        <ele>1072</ele>
        <time>2010-12-05T11:11:03Z</time>
      </trkpt>
      <trkpt lat="43.86805" lon="7.25682">
        <ele>1074</ele>
        <time>2010-12-05T11:11:08Z</time>
      </trkpt>
      <trkpt lat="43.86812" lon="7.25692">
        <ele>1076</ele>
        <time>2010-12-05T11:11:14Z</time>
      </trkpt>
      <trkpt lat="43.86818" lon="7.25702">
        <ele>1077</ele>
        <time>2010-12-05T11:11:20Z</time>
      </trkpt>
      <trkpt lat="43.86825" lon="7.25712">
        <ele>1079</ele>
        <time>2010-12-05T11:11:26Z</time>
      </trkpt>
      <trkpt lat="43.86828" lon="7.25717">
        <ele>1079</ele>
        <time>2010-12-05T11:11:29Z</time>
      </trkpt>
      <trkpt lat="43.86834" lon="7.25726">
        <ele>1081</ele>
        <time>2010-12-05T11:11:35Z</time>
      </trkpt>
      <trkpt lat="43.8684" lon="7.25736">
        <ele>1084</ele>
        <time>2010-12-05T11:11:41Z</time>
      </trkpt>
      <trkpt lat="43.86847" lon="7.25746">
        <ele>1085</ele>
        <time>2010-12-05T11:11:47Z</time>
      </trkpt>
      <trkpt lat="43.86854" lon="7.25755">
        <ele>1086</ele>
        <time>2010-12-05T11:11:52Z</time>
      </trkpt>
      <trkpt lat="43.8686" lon="7.25764">
        <ele>1088</ele>
        <time>2010-12-05T11:11:57Z</time>
      </trkpt>
      <trkpt lat="43.86867" lon="7.25774">
        <ele>1090</ele>
        <time>2010-12-05T11:12:02Z</time>
      </trkpt>
      <trkpt lat="43.86873" lon="7.25783">
        <ele>1091</ele>
        <time>2010-12-05T11:12:08Z</time>
      </trkpt>
      <trkpt lat="43.8688" lon="7.25794">
        <ele>1093</ele>
        <time>2010-12-05T11:12:13Z</time>
      </trkpt>
      <trkpt lat="43.86887" lon="7.25803">
        <ele>1095</ele>
        <time>2010-12-05T11:12:18Z</time>
      </trkpt>
      <trkpt lat="43.86894" lon="7.25811">
        <ele>1096</ele>
        <time>2010-12-05T11:12:23Z</time>
      </trkpt>
      <trkpt lat="43.869" lon="7.2582">
        <ele>1096</ele>
        <time>2010-12-05T11:12:28Z</time>
      </trkpt>
      <trkpt lat="43.86908" lon="7.25828">
        <ele>1098</ele>
        <time>2010-12-05T11:12:34Z</time>
      </trkpt>
      <trkpt lat="43.86915" lon="7.25837">
        <ele>1099</ele>
        <time>2010-12-05T11:12:39Z</time>
      </trkpt>
      <trkpt lat="43.86921" lon="7.25846">
        <ele>1099</ele>
        <time>2010-12-05T11:12:44Z</time>
      </trkpt>
      <trkpt lat="43.86928" lon="7.25854">
        <ele>1100</ele>
        <time>2010-12-05T11:12:50Z</time>
      </trkpt>
      <trkpt lat="43.86936" lon="7.25863">
        <ele>1102</ele>
        <time>2010-12-05T11:12:56Z</time>
      </trkpt>
      <trkpt lat="43.86942" lon="7.25872">
        <ele>1104</ele>
        <time>2010-12-05T11:13:02Z</time>
      </trkpt>
      <trkpt lat="43.86948" lon="7.25882">
        <ele>1105</ele>
        <time>2010-12-05T11:13:08Z</time>
      </trkpt>
      <trkpt lat="43.86955" lon="7.25891">
        <ele>1106</ele>
        <time>2010-12-05T11:13:13Z</time>
      </trkpt>
      <trkpt lat="43.86962" lon="7.259">
        <ele>1107</ele>
        <time>2010-12-05T11:13:19Z</time>
      </trkpt>
      <trkpt lat="43.8697" lon="7.2591">
        <ele>1108</ele>
        <time>2010-12-05T11:13:25Z</time>
      </trkpt>
      <trkpt lat="43.86977" lon="7.25918">
        <ele>1109</ele>
        <time>2010-12-05T11:13:30Z</time>
      </trkpt>
      <trkpt lat="43.86985" lon="7.25924">
        <ele>1110</ele>
        <time>2010-12-05T11:13:36Z</time>
      </trkpt>
      <trkpt lat="43.86993" lon="7.25932">
        <ele>1109</ele>
        <time>2010-12-05T11:13:42Z</time>
      </trkpt>
      <trkpt lat="43.86995" lon="7.25933">
        <ele>1110</ele>
        <time>2010-12-05T11:13:43Z</time>
      </trkpt>
      <trkpt lat="43.87003" lon="7.2594">
        <ele>1111</ele>
        <time>2010-12-05T11:13:47Z</time>
      </trkpt>
      <trkpt lat="43.87011" lon="7.25946">
        <ele>1112</ele>
        <time>2010-12-05T11:13:53Z</time>
      </trkpt>
      <trkpt lat="43.87019" lon="7.25953">
        <ele>1113</ele>
        <time>2010-12-05T11:13:59Z</time>
      </trkpt>
      <trkpt lat="43.87025" lon="7.25963">
        <ele>1115</ele>
        <time>2010-12-05T11:14:06Z</time>
      </trkpt>
      <trkpt lat="43.87027" lon="7.25975">
        <ele>1116</ele>
        <time>2010-12-05T11:14:14Z</time>
      </trkpt>
      <trkpt lat="43.87026" lon="7.25977">
        <ele>1116</ele>
        <time>2010-12-05T11:14:15Z</time>
      </trkpt>
      <trkpt lat="43.87017" lon="7.25981">
        <ele>1115</ele>
        <time>2010-12-05T11:14:25Z</time>
      </trkpt>
      <trkpt lat="43.87009" lon="7.25984">
        <ele>1115</ele>
        <time>2010-12-05T11:14:32Z</time>
      </trkpt>
      <trkpt lat="43.87" lon="7.25989">
        <ele>1117</ele>
        <time>2010-12-05T11:14:41Z</time>
      </trkpt>
      <trkpt lat="43.86991" lon="7.25991">
        <ele>1120</ele>
        <time>2010-12-05T11:14:47Z</time>
      </trkpt>
      <trkpt lat="43.86981" lon="7.25994">
        <ele>1125</ele>
        <time>2010-12-05T11:14:55Z</time>
      </trkpt>
      <trkpt lat="43.86972" lon="7.25998">
        <ele>1136</ele>
        <time>2010-12-05T11:15:11Z</time>
      </trkpt>
      <trkpt lat="43.86963" lon="7.25999">
        <ele>1139</ele>
        <time>2010-12-05T11:15:17Z</time>
      </trkpt>
      <trkpt lat="43.86954" lon="7.25999">
        <ele>1141</ele>
        <time>2010-12-05T11:15:21Z</time>
      </trkpt>
      <trkpt lat="43.86944" lon="7.26001">
        <ele>1143</ele>
        <time>2010-12-05T11:15:26Z</time>
      </trkpt>
      <trkpt lat="43.86935" lon="7.26002">
        <ele>1144</ele>
        <time>2010-12-05T11:15:30Z</time>
      </trkpt>
      <trkpt lat="43.86928" lon="7.26012">
        <ele>1144</ele>
        <time>2010-12-05T11:15:35Z</time>
      </trkpt>
      <trkpt lat="43.86927" lon="7.26024">
        <ele>1139</ele>
        <time>2010-12-05T11:15:38Z</time>
      </trkpt>
      <trkpt lat="43.8693" lon="7.26038">
        <ele>1135</ele>
        <time>2010-12-05T11:15:41Z</time>
      </trkpt>
      <trkpt lat="43.86935" lon="7.26051">
        <ele>1130</ele>
        <time>2010-12-05T11:15:44Z</time>
      </trkpt>
      <trkpt lat="43.86943" lon="7.2606">
        <ele>1126</ele>
        <time>2010-12-05T11:15:48Z</time>
      </trkpt>
      <trkpt lat="43.86952" lon="7.26062">
        <ele>1124</ele>
        <time>2010-12-05T11:15:55Z</time>
      </trkpt>
      <trkpt lat="43.86961" lon="7.26057">
        <ele>1125</ele>
        <time>2010-12-05T11:16:03Z</time>
      </trkpt>
      <trkpt lat="43.86969" lon="7.26054">
        <ele>1123</ele>
        <time>2010-12-05T11:16:11Z</time>
      </trkpt>
      <trkpt lat="43.8698" lon="7.26055">
        <ele>1122</ele>
        <time>2010-12-05T11:16:20Z</time>
      </trkpt>
      <trkpt lat="43.86985" lon="7.26056">
        <ele>1122</ele>
        <time>2010-12-05T11:16:26Z</time>
      </trkpt>
      <trkpt lat="43.86996" lon="7.26056">
        <ele>1125</ele>
        <time>2010-12-05T11:16:31Z</time>
      </trkpt>
      <trkpt lat="43.87005" lon="7.26054">
        <ele>1129</ele>
        <time>2010-12-05T11:16:37Z</time>
      </trkpt>
      <trkpt lat="43.87015" lon="7.26053">
        <ele>1133</ele>
        <time>2010-12-05T11:16:43Z</time>
      </trkpt>
      <trkpt lat="43.87024" lon="7.26049">
        <ele>1135</ele>
        <time>2010-12-05T11:16:49Z</time>
      </trkpt>
      <trkpt lat="43.87031" lon="7.26042">
        <ele>1139</ele>
        <time>2010-12-05T11:16:55Z</time>
      </trkpt>
      <trkpt lat="43.87038" lon="7.26031">
        <ele>1142</ele>
        <time>2010-12-05T11:17:01Z</time>
      </trkpt>
      <trkpt lat="43.87044" lon="7.26021">
        <ele>1146</ele>
        <time>2010-12-05T11:17:09Z</time>
      </trkpt>
      <trkpt lat="43.87052" lon="7.26014">
        <ele>1149</ele>
        <time>2010-12-05T11:17:16Z</time>
      </trkpt>
      <trkpt lat="43.87061" lon="7.26008">
        <ele>1149</ele>
        <time>2010-12-05T11:17:22Z</time>
      </trkpt>
      <trkpt lat="43.87069" lon="7.26002">
        <ele>1150</ele>
        <time>2010-12-05T11:17:28Z</time>
      </trkpt>
      <trkpt lat="43.87078" lon="7.25994">
        <ele>1152</ele>
        <time>2010-12-05T11:17:35Z</time>
      </trkpt>
      <trkpt lat="43.87084" lon="7.25989">
        <ele>1152</ele>
        <time>2010-12-05T11:17:38Z</time>
      </trkpt>
      <trkpt lat="43.87093" lon="7.25982">
        <ele>1152</ele>
        <time>2010-12-05T11:17:42Z</time>
      </trkpt>
      <trkpt lat="43.87102" lon="7.25977">
        <ele>1152</ele>
        <time>2010-12-05T11:17:47Z</time>
      </trkpt>
      <trkpt lat="43.87112" lon="7.25973">
        <ele>1151</ele>
        <time>2010-12-05T11:17:51Z</time>
      </trkpt>
      <trkpt lat="43.87122" lon="7.25971">
        <ele>1147</ele>
        <time>2010-12-05T11:17:55Z</time>
      </trkpt>
      <trkpt lat="43.87124" lon="7.25972">
        <ele>1146</ele>
        <time>2010-12-05T11:17:57Z</time>
      </trkpt>
      <trkpt lat="43.87133" lon="7.25974">
        <ele>1143</ele>
        <time>2010-12-05T11:18:05Z</time>
      </trkpt>
      <trkpt lat="43.87134" lon="7.25974">
        <ele>1142</ele>
        <time>2010-12-05T11:18:08Z</time>
      </trkpt>
      <trkpt lat="43.87146" lon="7.25983">
        <ele>1052</ele>
        <time>2010-12-05T11:24:11Z</time>
      </trkpt>
      <trkpt lat="43.87146" lon="7.25983">
        <ele>1052</ele>
        <time>2010-12-05T11:24:11Z</time>
      </trkpt>
      <trkpt lat="43.87146" lon="7.25983">
        <ele>1052</ele>
        <time>2010-12-05T11:24:22Z</time>
      </trkpt>
      <trkpt lat="43.87135" lon="7.25958">
        <ele>1091</ele>
        <time>2010-12-05T11:24:48Z</time>
      </trkpt>
      <trkpt lat="43.87137" lon="7.25962">
        <ele>1094</ele>
        <time>2010-12-05T11:24:54Z</time>
      </trkpt>
      <trkpt lat="43.87143" lon="7.25962">
        <ele>1107</ele>
        <time>2010-12-05T11:25:16Z</time>
      </trkpt>
      <trkpt lat="43.87142" lon="7.25975">
        <ele>1129</ele>
        <time>2010-12-05T11:26:43Z</time>
      </trkpt>
      <trkpt lat="43.87145" lon="7.25988">
        <ele>1135</ele>
        <time>2010-12-05T11:26:50Z</time>
      </trkpt>
      <trkpt lat="43.87147" lon="7.26">
        <ele>1139</ele>
        <time>2010-12-05T11:26:57Z</time>
      </trkpt>
      <trkpt lat="43.87147" lon="7.26013">
        <ele>1141</ele>
        <time>2010-12-05T11:27:03Z</time>
      </trkpt>
      <trkpt lat="43.87146" lon="7.26016">
        <ele>1141</ele>
        <time>2010-12-05T11:27:08Z</time>
      </trkpt>
      <trkpt lat="43.87143" lon="7.26028">
        <ele>1143</ele>
        <time>2010-12-05T11:27:16Z</time>
      </trkpt>
      <trkpt lat="43.87138" lon="7.26043">
        <ele>1146</ele>
        <time>2010-12-05T11:27:30Z</time>
      </trkpt>
      <trkpt lat="43.87135" lon="7.26054">
        <ele>1149</ele>
        <time>2010-12-05T11:27:42Z</time>
      </trkpt>
      <trkpt lat="43.87131" lon="7.26066">
        <ele>1152</ele>
        <time>2010-12-05T11:27:48Z</time>
      </trkpt>
      <trkpt lat="43.87126" lon="7.26076">
        <ele>1153</ele>
        <time>2010-12-05T11:27:55Z</time>
      </trkpt>
      <trkpt lat="43.87118" lon="7.26087">
        <ele>1156</ele>
        <time>2010-12-05T11:28:03Z</time>
      </trkpt>
      <trkpt lat="43.87108" lon="7.26101">
        <ele>1159</ele>
        <time>2010-12-05T11:28:12Z</time>
      </trkpt>
      <trkpt lat="43.87102" lon="7.26112">
        <ele>1160</ele>
        <time>2010-12-05T11:28:19Z</time>
      </trkpt>
      <trkpt lat="43.87095" lon="7.26122">
        <ele>1160</ele>
        <time>2010-12-05T11:28:24Z</time>
      </trkpt>
      <trkpt lat="43.87088" lon="7.2613">
        <ele>1161</ele>
        <time>2010-12-05T11:28:31Z</time>
      </trkpt>
      <trkpt lat="43.87082" lon="7.26146">
        <ele>1165</ele>
        <time>2010-12-05T11:28:40Z</time>
      </trkpt>
      <trkpt lat="43.87075" lon="7.2617">
        <ele>1170</ele>
        <time>2010-12-05T11:28:52Z</time>
      </trkpt>
      <trkpt lat="43.87074" lon="7.26182">
        <ele>1174</ele>
        <time>2010-12-05T11:28:57Z</time>
      </trkpt>
      <trkpt lat="43.87072" lon="7.26199">
        <ele>1178</ele>
        <time>2010-12-05T11:29:04Z</time>
      </trkpt>
      <trkpt lat="43.87073" lon="7.26212">
        <ele>1178</ele>
        <time>2010-12-05T11:29:09Z</time>
      </trkpt>
      <trkpt lat="43.87073" lon="7.26224">
        <ele>1178</ele>
        <time>2010-12-05T11:29:14Z</time>
      </trkpt>
      <trkpt lat="43.87075" lon="7.26245">
        <ele>1179</ele>
        <time>2010-12-05T11:29:23Z</time>
      </trkpt>
      <trkpt lat="43.87079" lon="7.26267">
        <ele>1183</ele>
        <time>2010-12-05T11:29:34Z</time>
      </trkpt>
      <trkpt lat="43.87084" lon="7.26294">
        <ele>1187</ele>
        <time>2010-12-05T11:29:43Z</time>
      </trkpt>
      <trkpt lat="43.87086" lon="7.26308">
        <ele>1190</ele>
        <time>2010-12-05T11:29:47Z</time>
      </trkpt>
      <trkpt lat="43.8709" lon="7.26336">
        <ele>1195</ele>
        <time>2010-12-05T11:29:57Z</time>
      </trkpt>
      <trkpt lat="43.87092" lon="7.26349">
        <ele>1198</ele>
        <time>2010-12-05T11:30:03Z</time>
      </trkpt>
      <trkpt lat="43.87094" lon="7.26367">
        <ele>1198</ele>
        <time>2010-12-05T11:30:11Z</time>
      </trkpt>
      <trkpt lat="43.87096" lon="7.26393">
        <ele>1195</ele>
        <time>2010-12-05T11:30:22Z</time>
      </trkpt>
      <trkpt lat="43.87098" lon="7.26417">
        <ele>1192</ele>
        <time>2010-12-05T11:30:26Z</time>
      </trkpt>
      <trkpt lat="43.87098" lon="7.2642">
        <ele>1191</ele>
        <time>2010-12-05T11:30:29Z</time>
      </trkpt>
      <trkpt lat="43.871" lon="7.26434">
        <ele>1190</ele>
        <time>2010-12-05T11:30:30Z</time>
      </trkpt>
      <trkpt lat="43.87103" lon="7.26448">
        <ele>1189</ele>
        <time>2010-12-05T11:30:33Z</time>
      </trkpt>
      <trkpt lat="43.87103" lon="7.26463">
        <ele>1189</ele>
        <time>2010-12-05T11:30:37Z</time>
      </trkpt>
      <trkpt lat="43.87104" lon="7.26478">
        <ele>1188</ele>
        <time>2010-12-05T11:30:42Z</time>
      </trkpt>
      <trkpt lat="43.87102" lon="7.26493">
        <ele>1187</ele>
        <time>2010-12-05T11:30:47Z</time>
      </trkpt>
      <trkpt lat="43.87099" lon="7.26506">
        <ele>1188</ele>
        <time>2010-12-05T11:30:52Z</time>
      </trkpt>
      <trkpt lat="43.87095" lon="7.26519">
        <ele>1188</ele>
        <time>2010-12-05T11:30:56Z</time>
      </trkpt>
      <trkpt lat="43.87089" lon="7.26529">
        <ele>1186</ele>
        <time>2010-12-05T11:31:06Z</time>
      </trkpt>
      <trkpt lat="43.87081" lon="7.26536">
        <ele>1177</ele>
        <time>2010-12-05T11:31:38Z</time>
      </trkpt>
      <trkpt lat="43.87081" lon="7.26536">
        <ele>1177</ele>
        <time>2010-12-05T11:31:39Z</time>
      </trkpt>
      <trkpt lat="43.87079" lon="7.26534">
        <ele>1172</ele>
        <time>2010-12-05T11:31:54Z</time>
      </trkpt>
      <trkpt lat="43.8707" lon="7.26533">
        <ele>1170</ele>
        <time>2010-12-05T11:35:53Z</time>
      </trkpt>
      <trkpt lat="43.87059" lon="7.26533">
        <ele>1170</ele>
        <time>2010-12-05T11:35:57Z</time>
      </trkpt>
      <trkpt lat="43.87049" lon="7.26531">
        <ele>1170</ele>
        <time>2010-12-05T11:36:01Z</time>
      </trkpt>
      <trkpt lat="43.8704" lon="7.2653">
        <ele>1170</ele>
        <time>2010-12-05T11:36:04Z</time>
      </trkpt>
      <trkpt lat="43.87029" lon="7.26532">
        <ele>1171</ele>
        <time>2010-12-05T11:36:08Z</time>
      </trkpt>
      <trkpt lat="43.8702" lon="7.26538">
        <ele>1171</ele>
        <time>2010-12-05T11:36:12Z</time>
      </trkpt>
      <trkpt lat="43.87012" lon="7.26545">
        <ele>1171</ele>
        <time>2010-12-05T11:36:15Z</time>
      </trkpt>
      <trkpt lat="43.87003" lon="7.26553">
        <ele>1171</ele>
        <time>2010-12-05T11:36:19Z</time>
      </trkpt>
      <trkpt lat="43.86993" lon="7.26558">
        <ele>1171</ele>
        <time>2010-12-05T11:36:22Z</time>
      </trkpt>
      <trkpt lat="43.86984" lon="7.26561">
        <ele>1171</ele>
        <time>2010-12-05T11:36:25Z</time>
      </trkpt>
      <trkpt lat="43.86975" lon="7.26561">
        <ele>1171</ele>
        <time>2010-12-05T11:36:27Z</time>
      </trkpt>
      <trkpt lat="43.86966" lon="7.2656">
        <ele>1170</ele>
        <time>2010-12-05T11:36:29Z</time>
      </trkpt>
      <trkpt lat="43.86956" lon="7.26559">
        <ele>1170</ele>
        <time>2010-12-05T11:36:31Z</time>
      </trkpt>
      <trkpt lat="43.86947" lon="7.26557">
        <ele>1170</ele>
        <time>2010-12-05T11:36:34Z</time>
      </trkpt>
      <trkpt lat="43.86936" lon="7.26555">
        <ele>1170</ele>
        <time>2010-12-05T11:36:37Z</time>
      </trkpt>
      <trkpt lat="43.86926" lon="7.26554">
        <ele>1170</ele>
        <time>2010-12-05T11:36:40Z</time>
      </trkpt>
      <trkpt lat="43.86916" lon="7.2656">
        <ele>1171</ele>
        <time>2010-12-05T11:36:43Z</time>
      </trkpt>
      <trkpt lat="43.8691" lon="7.26571">
        <ele>1171</ele>
        <time>2010-12-05T11:36:45Z</time>
      </trkpt>
      <trkpt lat="43.86905" lon="7.26585">
        <ele>1171</ele>
        <time>2010-12-05T11:36:48Z</time>
      </trkpt>
      <trkpt lat="43.86899" lon="7.26598">
        <ele>1171</ele>
        <time>2010-12-05T11:36:51Z</time>
      </trkpt>
      <trkpt lat="43.86893" lon="7.26609">
        <ele>1170</ele>
        <time>2010-12-05T11:36:54Z</time>
      </trkpt>
      <trkpt lat="43.86886" lon="7.26621">
        <ele>1169</ele>
        <time>2010-12-05T11:36:57Z</time>
      </trkpt>
      <trkpt lat="43.86879" lon="7.26631">
        <ele>1169</ele>
        <time>2010-12-05T11:37:02Z</time>
      </trkpt>
      <trkpt lat="43.86872" lon="7.2664">
        <ele>1168</ele>
        <time>2010-12-05T11:37:08Z</time>
      </trkpt>
      <trkpt lat="43.86867" lon="7.26645">
        <ele>1167</ele>
        <time>2010-12-05T11:37:25Z</time>
      </trkpt>
      <trkpt lat="43.86858" lon="7.26651">
        <ele>1164</ele>
        <time>2010-12-05T11:37:33Z</time>
      </trkpt>
      <trkpt lat="43.86848" lon="7.26654">
        <ele>1163</ele>
        <time>2010-12-05T11:37:38Z</time>
      </trkpt>
      <trkpt lat="43.86839" lon="7.26656">
        <ele>1163</ele>
        <time>2010-12-05T11:37:42Z</time>
      </trkpt>
      <trkpt lat="43.86829" lon="7.26656">
        <ele>1162</ele>
        <time>2010-12-05T11:37:46Z</time>
      </trkpt>
      <trkpt lat="43.8682" lon="7.26651">
        <ele>1160</ele>
        <time>2010-12-05T11:38:04Z</time>
      </trkpt>
      <trkpt lat="43.86818" lon="7.26651">
        <ele>1160</ele>
        <time>2010-12-05T11:38:05Z</time>
      </trkpt>
      <trkpt lat="43.8681" lon="7.26647">
        <ele>1160</ele>
        <time>2010-12-05T11:38:14Z</time>
      </trkpt>
      <trkpt lat="43.86809" lon="7.26647">
        <ele>1160</ele>
        <time>2010-12-05T11:38:19Z</time>
      </trkpt>
      <trkpt lat="43.86799" lon="7.2664">
        <ele>1161</ele>
        <time>2010-12-05T11:38:28Z</time>
      </trkpt>
      <trkpt lat="43.8679" lon="7.26636">
        <ele>1156</ele>
        <time>2010-12-05T11:38:56Z</time>
      </trkpt>
      <trkpt lat="43.8678" lon="7.26629">
        <ele>1149</ele>
        <time>2010-12-05T11:39:53Z</time>
      </trkpt>
      <trkpt lat="43.8678" lon="7.26629">
        <ele>1149</ele>
        <time>2010-12-05T11:39:53Z</time>
      </trkpt>
      <trkpt lat="43.8678" lon="7.26627">
        <ele>1156</ele>
        <time>2010-12-05T11:40:00Z</time>
      </trkpt>
      <trkpt lat="43.8678" lon="7.26627">
        <ele>1156</ele>
        <time>2010-12-05T11:40:05Z</time>
      </trkpt>
      <trkpt lat="43.86771" lon="7.26621">
        <ele>1156</ele>
        <time>2010-12-05T11:41:06Z</time>
      </trkpt>
      <trkpt lat="43.8676" lon="7.26619">
        <ele>1156</ele>
        <time>2010-12-05T11:41:10Z</time>
      </trkpt>
      <trkpt lat="43.86749" lon="7.26618">
        <ele>1156</ele>
        <time>2010-12-05T11:41:13Z</time>
      </trkpt>
      <trkpt lat="43.86738" lon="7.26618">
        <ele>1155</ele>
        <time>2010-12-05T11:41:16Z</time>
      </trkpt>
      <trkpt lat="43.86728" lon="7.26619">
        <ele>1154</ele>
        <time>2010-12-05T11:41:19Z</time>
      </trkpt>
      <trkpt lat="43.86717" lon="7.26621">
        <ele>1153</ele>
        <time>2010-12-05T11:41:22Z</time>
      </trkpt>
      <trkpt lat="43.86707" lon="7.26626">
        <ele>1152</ele>
        <time>2010-12-05T11:41:25Z</time>
      </trkpt>
      <trkpt lat="43.86696" lon="7.26633">
        <ele>1150</ele>
        <time>2010-12-05T11:41:28Z</time>
      </trkpt>
      <trkpt lat="43.86687" lon="7.2664">
        <ele>1150</ele>
        <time>2010-12-05T11:41:31Z</time>
      </trkpt>
      <trkpt lat="43.86677" lon="7.26647">
        <ele>1149</ele>
        <time>2010-12-05T11:41:34Z</time>
      </trkpt>
      <trkpt lat="43.86667" lon="7.26652">
        <ele>1148</ele>
        <time>2010-12-05T11:41:39Z</time>
      </trkpt>
      <trkpt lat="43.86658" lon="7.26656">
        <ele>1148</ele>
        <time>2010-12-05T11:41:43Z</time>
      </trkpt>
      <trkpt lat="43.86656" lon="7.26658">
        <ele>1148</ele>
        <time>2010-12-05T11:41:43Z</time>
      </trkpt>
      <trkpt lat="43.86646" lon="7.26664">
        <ele>1148</ele>
        <time>2010-12-05T11:41:47Z</time>
      </trkpt>
      <trkpt lat="43.86635" lon="7.26668">
        <ele>1148</ele>
        <time>2010-12-05T11:41:51Z</time>
      </trkpt>
      <trkpt lat="43.86624" lon="7.26668">
        <ele>1148</ele>
        <time>2010-12-05T11:41:55Z</time>
      </trkpt>
      <trkpt lat="43.86613" lon="7.26667">
        <ele>1147</ele>
        <time>2010-12-05T11:41:59Z</time>
      </trkpt>
      <trkpt lat="43.86602" lon="7.26667">
        <ele>1146</ele>
        <time>2010-12-05T11:42:02Z</time>
      </trkpt>
      <trkpt lat="43.86592" lon="7.26668">
        <ele>1146</ele>
        <time>2010-12-05T11:42:06Z</time>
      </trkpt>
      <trkpt lat="43.86582" lon="7.26669">
        <ele>1146</ele>
        <time>2010-12-05T11:42:12Z</time>
      </trkpt>
      <trkpt lat="43.86573" lon="7.26669">
        <ele>1146</ele>
        <time>2010-12-05T11:42:17Z</time>
      </trkpt>
      <trkpt lat="43.86563" lon="7.26668">
        <ele>1146</ele>
        <time>2010-12-05T11:42:21Z</time>
      </trkpt>
      <trkpt lat="43.86553" lon="7.26665">
        <ele>1146</ele>
        <time>2010-12-05T11:42:24Z</time>
      </trkpt>
      <trkpt lat="43.86544" lon="7.26663">
        <ele>1146</ele>
        <time>2010-12-05T11:42:27Z</time>
      </trkpt>
      <trkpt lat="43.86535" lon="7.26659">
        <ele>1146</ele>
        <time>2010-12-05T11:42:30Z</time>
      </trkpt>
      <trkpt lat="43.86526" lon="7.26655">
        <ele>1145</ele>
        <time>2010-12-05T11:42:33Z</time>
      </trkpt>
      <trkpt lat="43.86517" lon="7.2665">
        <ele>1145</ele>
        <time>2010-12-05T11:42:37Z</time>
      </trkpt>
      <trkpt lat="43.86509" lon="7.26646">
        <ele>1145</ele>
        <time>2010-12-05T11:42:40Z</time>
      </trkpt>
      <trkpt lat="43.865" lon="7.26642">
        <ele>1146</ele>
        <time>2010-12-05T11:42:44Z</time>
      </trkpt>
      <trkpt lat="43.8649" lon="7.26637">
        <ele>1146</ele>
        <time>2010-12-05T11:42:49Z</time>
      </trkpt>
      <trkpt lat="43.86479" lon="7.26634">
        <ele>1146</ele>
        <time>2010-12-05T11:42:54Z</time>
      </trkpt>
      <trkpt lat="43.86472" lon="7.26631">
        <ele>1145</ele>
        <time>2010-12-05T11:42:59Z</time>
      </trkpt>
      <trkpt lat="43.86463" lon="7.26629">
        <ele>1144</ele>
        <time>2010-12-05T11:43:08Z</time>
      </trkpt>
      <trkpt lat="43.86456" lon="7.26621">
        <ele>1144</ele>
        <time>2010-12-05T11:43:25Z</time>
      </trkpt>
      <trkpt lat="43.86447" lon="7.26617">
        <ele>1144</ele>
        <time>2010-12-05T11:43:48Z</time>
      </trkpt>
      <trkpt lat="43.86437" lon="7.26616">
        <ele>1144</ele>
        <time>2010-12-05T11:43:54Z</time>
      </trkpt>
      <trkpt lat="43.86427" lon="7.26617">
        <ele>1145</ele>
        <time>2010-12-05T11:43:58Z</time>
      </trkpt>
      <trkpt lat="43.86416" lon="7.26617">
        <ele>1145</ele>
        <time>2010-12-05T11:44:02Z</time>
      </trkpt>
      <trkpt lat="43.86406" lon="7.26617">
        <ele>1143</ele>
        <time>2010-12-05T11:44:10Z</time>
      </trkpt>
      <trkpt lat="43.86397" lon="7.26619">
        <ele>1144</ele>
        <time>2010-12-05T11:44:16Z</time>
      </trkpt>
      <trkpt lat="43.86388" lon="7.26621">
        <ele>1143</ele>
        <time>2010-12-05T11:44:20Z</time>
      </trkpt>
      <trkpt lat="43.86379" lon="7.26623">
        <ele>1144</ele>
        <time>2010-12-05T11:44:24Z</time>
      </trkpt>
      <trkpt lat="43.86369" lon="7.26627">
        <ele>1144</ele>
        <time>2010-12-05T11:44:28Z</time>
      </trkpt>
      <trkpt lat="43.8636" lon="7.26632">
        <ele>1144</ele>
        <time>2010-12-05T11:44:31Z</time>
      </trkpt>
      <trkpt lat="43.86358" lon="7.26632">
        <ele>1144</ele>
        <time>2010-12-05T11:44:32Z</time>
      </trkpt>
      <trkpt lat="43.86349" lon="7.26636">
        <ele>1144</ele>
        <time>2010-12-05T11:44:35Z</time>
      </trkpt>
      <trkpt lat="43.86338" lon="7.2664">
        <ele>1144</ele>
        <time>2010-12-05T11:44:38Z</time>
      </trkpt>
      <trkpt lat="43.86326" lon="7.26644">
        <ele>1144</ele>
        <time>2010-12-05T11:44:41Z</time>
      </trkpt>
      <trkpt lat="43.86316" lon="7.26649">
        <ele>1144</ele>
        <time>2010-12-05T11:44:44Z</time>
      </trkpt>
      <trkpt lat="43.86306" lon="7.26654">
        <ele>1144</ele>
        <time>2010-12-05T11:44:47Z</time>
      </trkpt>
      <trkpt lat="43.86297" lon="7.26658">
        <ele>1144</ele>
        <time>2010-12-05T11:44:51Z</time>
      </trkpt>
      <trkpt lat="43.86286" lon="7.26662">
        <ele>1143</ele>
        <time>2010-12-05T11:44:55Z</time>
      </trkpt>
      <trkpt lat="43.86276" lon="7.26664">
        <ele>1143</ele>
        <time>2010-12-05T11:44:58Z</time>
      </trkpt>
      <trkpt lat="43.86267" lon="7.26666">
        <ele>1142</ele>
        <time>2010-12-05T11:45:01Z</time>
      </trkpt>
      <trkpt lat="43.86257" lon="7.26668">
        <ele>1141</ele>
        <time>2010-12-05T11:45:04Z</time>
      </trkpt>
      <trkpt lat="43.86255" lon="7.26668">
        <ele>1141</ele>
        <time>2010-12-05T11:45:04Z</time>
      </trkpt>
      <trkpt lat="43.86246" lon="7.26672">
        <ele>1140</ele>
        <time>2010-12-05T11:45:07Z</time>
      </trkpt>
      <trkpt lat="43.86236" lon="7.26676">
        <ele>1138</ele>
        <time>2010-12-05T11:45:10Z</time>
      </trkpt>
      <trkpt lat="43.86227" lon="7.26679">
        <ele>1137</ele>
        <time>2010-12-05T11:45:14Z</time>
      </trkpt>
      <trkpt lat="43.86227" lon="7.2668">
        <ele>1137</ele>
        <time>2010-12-05T11:45:15Z</time>
      </trkpt>
      <trkpt lat="43.86219" lon="7.26673">
        <ele>1128</ele>
        <time>2010-12-05T11:46:11Z</time>
      </trkpt>
      <trkpt lat="43.86222" lon="7.26661">
        <ele>1128</ele>
        <time>2010-12-05T11:46:41Z</time>
      </trkpt>
      <trkpt lat="43.86228" lon="7.26651">
        <ele>1127</ele>
        <time>2010-12-05T11:46:53Z</time>
      </trkpt>
      <trkpt lat="43.86234" lon="7.26641">
        <ele>1125</ele>
        <time>2010-12-05T11:47:02Z</time>
      </trkpt>
      <trkpt lat="43.86235" lon="7.2664">
        <ele>1124</ele>
        <time>2010-12-05T11:47:03Z</time>
      </trkpt>
      <trkpt lat="43.86242" lon="7.26631">
        <ele>1123</ele>
        <time>2010-12-05T11:47:11Z</time>
      </trkpt>
      <trkpt lat="43.86247" lon="7.2662">
        <ele>1119</ele>
        <time>2010-12-05T11:47:21Z</time>
      </trkpt>
      <trkpt lat="43.8625" lon="7.26608">
        <ele>1119</ele>
        <time>2010-12-05T11:47:33Z</time>
      </trkpt>
      <trkpt lat="43.86258" lon="7.26602">
        <ele>1117</ele>
        <time>2010-12-05T11:47:37Z</time>
      </trkpt>
      <trkpt lat="43.86267" lon="7.26596">
        <ele>1116</ele>
        <time>2010-12-05T11:47:42Z</time>
      </trkpt>
      <trkpt lat="43.86275" lon="7.26588">
        <ele>1114</ele>
        <time>2010-12-05T11:47:50Z</time>
      </trkpt>
      <trkpt lat="43.86279" lon="7.2658">
        <ele>1107</ele>
        <time>2010-12-05T11:48:54Z</time>
      </trkpt>
      <trkpt lat="43.86279" lon="7.26584">
        <ele>1109</ele>
        <time>2010-12-05T11:49:01Z</time>
      </trkpt>
      <trkpt lat="43.86279" lon="7.26584">
        <ele>1109</ele>
        <time>2010-12-05T11:49:01Z</time>
      </trkpt>
      <trkpt lat="43.86279" lon="7.26584">
        <ele>1108</ele>
        <time>2010-12-05T11:49:02Z</time>
      </trkpt>
      <trkpt lat="43.8628" lon="7.2659">
        <ele>1112</ele>
        <time>2010-12-05T11:49:11Z</time>
      </trkpt>
      <trkpt lat="43.8629" lon="7.26588">
        <ele>1111</ele>
        <time>2010-12-05T11:49:34Z</time>
      </trkpt>
      <trkpt lat="43.86298" lon="7.2658">
        <ele>1110</ele>
        <time>2010-12-05T11:49:39Z</time>
      </trkpt>
      <trkpt lat="43.86304" lon="7.26569">
        <ele>1109</ele>
        <time>2010-12-05T11:49:45Z</time>
      </trkpt>
      <trkpt lat="43.8631" lon="7.26558">
        <ele>1108</ele>
        <time>2010-12-05T11:49:49Z</time>
      </trkpt>
      <trkpt lat="43.86316" lon="7.26547">
        <ele>1106</ele>
        <time>2010-12-05T11:49:54Z</time>
      </trkpt>
      <trkpt lat="43.86323" lon="7.26539">
        <ele>1104</ele>
        <time>2010-12-05T11:49:58Z</time>
      </trkpt>
      <trkpt lat="43.8633" lon="7.26532">
        <ele>1103</ele>
        <time>2010-12-05T11:50:02Z</time>
      </trkpt>
      <trkpt lat="43.86337" lon="7.26523">
        <ele>1101</ele>
        <time>2010-12-05T11:50:06Z</time>
      </trkpt>
      <trkpt lat="43.86339" lon="7.26521">
        <ele>1100</ele>
        <time>2010-12-05T11:50:08Z</time>
      </trkpt>
      <trkpt lat="43.86348" lon="7.26515">
        <ele>1100</ele>
        <time>2010-12-05T11:50:12Z</time>
      </trkpt>
      <trkpt lat="43.86355" lon="7.26507">
        <ele>1098</ele>
        <time>2010-12-05T11:50:17Z</time>
      </trkpt>
      <trkpt lat="43.86361" lon="7.26496">
        <ele>1096</ele>
        <time>2010-12-05T11:50:22Z</time>
      </trkpt>
      <trkpt lat="43.86362" lon="7.26489">
        <ele>1096</ele>
        <time>2010-12-05T11:50:24Z</time>
      </trkpt>
      <trkpt lat="43.86362" lon="7.26476">
        <ele>1095</ele>
        <time>2010-12-05T11:50:30Z</time>
      </trkpt>
      <trkpt lat="43.86359" lon="7.26463">
        <ele>1094</ele>
        <time>2010-12-05T11:50:33Z</time>
      </trkpt>
      <trkpt lat="43.86356" lon="7.26451">
        <ele>1093</ele>
        <time>2010-12-05T11:50:37Z</time>
      </trkpt>
      <trkpt lat="43.86351" lon="7.2644">
        <ele>1092</ele>
        <time>2010-12-05T11:50:40Z</time>
      </trkpt>
      <trkpt lat="43.86348" lon="7.26427">
        <ele>1092</ele>
        <time>2010-12-05T11:50:44Z</time>
      </trkpt>
      <trkpt lat="43.86348" lon="7.26412">
        <ele>1091</ele>
        <time>2010-12-05T11:50:49Z</time>
      </trkpt>
      <trkpt lat="43.86346" lon="7.26398">
        <ele>1089</ele>
        <time>2010-12-05T11:50:53Z</time>
      </trkpt>
      <trkpt lat="43.86339" lon="7.26387">
        <ele>1088</ele>
        <time>2010-12-05T11:50:57Z</time>
      </trkpt>
      <trkpt lat="43.86332" lon="7.26378">
        <ele>1087</ele>
        <time>2010-12-05T11:51:01Z</time>
      </trkpt>
      <trkpt lat="43.86325" lon="7.26369">
        <ele>1086</ele>
        <time>2010-12-05T11:51:04Z</time>
      </trkpt>
      <trkpt lat="43.86315" lon="7.2636">
        <ele>1085</ele>
        <time>2010-12-05T11:51:08Z</time>
      </trkpt>
      <trkpt lat="43.86306" lon="7.26353">
        <ele>1084</ele>
        <time>2010-12-05T11:51:10Z</time>
      </trkpt>
      <trkpt lat="43.86301" lon="7.26348">
        <ele>1083</ele>
        <time>2010-12-05T11:51:11Z</time>
      </trkpt>
      <trkpt lat="43.86293" lon="7.26342">
        <ele>1083</ele>
        <time>2010-12-05T11:51:14Z</time>
      </trkpt>
      <trkpt lat="43.86284" lon="7.26338">
        <ele>1082</ele>
        <time>2010-12-05T11:51:16Z</time>
      </trkpt>
      <trkpt lat="43.86275" lon="7.26337">
        <ele>1082</ele>
        <time>2010-12-05T11:51:18Z</time>
      </trkpt>
      <trkpt lat="43.86266" lon="7.26334">
        <ele>1081</ele>
        <time>2010-12-05T11:51:21Z</time>
      </trkpt>
      <trkpt lat="43.86257" lon="7.26327">
        <ele>1080</ele>
        <time>2010-12-05T11:51:23Z</time>
      </trkpt>
      <trkpt lat="43.86249" lon="7.26316">
        <ele>1079</ele>
        <time>2010-12-05T11:51:25Z</time>
      </trkpt>
      <trkpt lat="43.86242" lon="7.26303">
        <ele>1078</ele>
        <time>2010-12-05T11:51:28Z</time>
      </trkpt>
      <trkpt lat="43.86234" lon="7.26291">
        <ele>1078</ele>
        <time>2010-12-05T11:51:30Z</time>
      </trkpt>
      <trkpt lat="43.86224" lon="7.26281">
        <ele>1077</ele>
        <time>2010-12-05T11:51:32Z</time>
      </trkpt>
      <trkpt lat="43.86217" lon="7.26273">
        <ele>1077</ele>
        <time>2010-12-05T11:51:34Z</time>
      </trkpt>
      <trkpt lat="43.86209" lon="7.26266">
        <ele>1077</ele>
        <time>2010-12-05T11:51:36Z</time>
      </trkpt>
      <trkpt lat="43.86198" lon="7.26256">
        <ele>1076</ele>
        <time>2010-12-05T11:51:38Z</time>
      </trkpt>
      <trkpt lat="43.86188" lon="7.26245">
        <ele>1075</ele>
        <time>2010-12-05T11:51:40Z</time>
      </trkpt>
      <trkpt lat="43.86178" lon="7.26234">
        <ele>1073</ele>
        <time>2010-12-05T11:51:43Z</time>
      </trkpt>
      <trkpt lat="43.86168" lon="7.26223">
        <ele>1072</ele>
        <time>2010-12-05T11:51:45Z</time>
      </trkpt>
      <trkpt lat="43.86161" lon="7.26215">
        <ele>1070</ele>
        <time>2010-12-05T11:51:48Z</time>
      </trkpt>
      <trkpt lat="43.86153" lon="7.26203">
        <ele>1066</ele>
        <time>2010-12-05T11:51:53Z</time>
      </trkpt>
      <trkpt lat="43.86143" lon="7.26198">
        <ele>1064</ele>
        <time>2010-12-05T11:51:56Z</time>
      </trkpt>
      <trkpt lat="43.86133" lon="7.26198">
        <ele>1062</ele>
        <time>2010-12-05T11:51:59Z</time>
      </trkpt>
      <trkpt lat="43.86121" lon="7.26193">
        <ele>1060</ele>
        <time>2010-12-05T11:52:03Z</time>
      </trkpt>
      <trkpt lat="43.8611" lon="7.26187">
        <ele>1057</ele>
        <time>2010-12-05T11:52:06Z</time>
      </trkpt>
      <trkpt lat="43.86102" lon="7.26178">
        <ele>1055</ele>
        <time>2010-12-05T11:52:09Z</time>
      </trkpt>
      <trkpt lat="43.86095" lon="7.26167">
        <ele>1053</ele>
        <time>2010-12-05T11:52:13Z</time>
      </trkpt>
      <trkpt lat="43.86089" lon="7.26156">
        <ele>1050</ele>
        <time>2010-12-05T11:52:17Z</time>
      </trkpt>
      <trkpt lat="43.86085" lon="7.26144">
        <ele>1047</ele>
        <time>2010-12-05T11:52:22Z</time>
      </trkpt>
      <trkpt lat="43.86075" lon="7.26146">
        <ele>1044</ele>
        <time>2010-12-05T11:52:27Z</time>
      </trkpt>
      <trkpt lat="43.86065" lon="7.26147">
        <ele>1041</ele>
        <time>2010-12-05T11:52:32Z</time>
      </trkpt>
      <trkpt lat="43.86061" lon="7.26134">
        <ele>1037</ele>
        <time>2010-12-05T11:52:39Z</time>
      </trkpt>
      <trkpt lat="43.86067" lon="7.26121">
        <ele>1035</ele>
        <time>2010-12-05T11:52:42Z</time>
      </trkpt>
      <trkpt lat="43.86072" lon="7.26109">
        <ele>1034</ele>
        <time>2010-12-05T11:52:46Z</time>
      </trkpt>
      <trkpt lat="43.86078" lon="7.26098">
        <ele>1033</ele>
        <time>2010-12-05T11:52:49Z</time>
      </trkpt>
      <trkpt lat="43.86083" lon="7.26087">
        <ele>1033</ele>
        <time>2010-12-05T11:52:52Z</time>
      </trkpt>
      <trkpt lat="43.86088" lon="7.26076">
        <ele>1033</ele>
        <time>2010-12-05T11:52:55Z</time>
      </trkpt>
      <trkpt lat="43.86094" lon="7.26065">
        <ele>1029</ele>
        <time>2010-12-05T11:53:05Z</time>
      </trkpt>
      <trkpt lat="43.86096" lon="7.2605">
        <ele>1028</ele>
        <time>2010-12-05T11:53:11Z</time>
      </trkpt>
      <trkpt lat="43.86098" lon="7.26037">
        <ele>1026</ele>
        <time>2010-12-05T11:53:15Z</time>
      </trkpt>
      <trkpt lat="43.86099" lon="7.26024">
        <ele>1024</ele>
        <time>2010-12-05T11:53:19Z</time>
      </trkpt>
      <trkpt lat="43.86097" lon="7.26009">
        <ele>1022</ele>
        <time>2010-12-05T11:53:23Z</time>
      </trkpt>
      <trkpt lat="43.86093" lon="7.25996">
        <ele>1020</ele>
        <time>2010-12-05T11:53:27Z</time>
      </trkpt>
      <trkpt lat="43.86086" lon="7.25985">
        <ele>1017</ele>
        <time>2010-12-05T11:53:30Z</time>
      </trkpt>
      <trkpt lat="43.86076" lon="7.25979">
        <ele>1015</ele>
        <time>2010-12-05T11:53:32Z</time>
      </trkpt>
      <trkpt lat="43.86065" lon="7.25975">
        <ele>1012</ele>
        <time>2010-12-05T11:53:35Z</time>
      </trkpt>
      <trkpt lat="43.86055" lon="7.2597">
        <ele>1009</ele>
        <time>2010-12-05T11:53:37Z</time>
      </trkpt>
      <trkpt lat="43.86051" lon="7.25969">
        <ele>1005</ele>
        <time>2010-12-05T11:53:46Z</time>
      </trkpt>
      <trkpt lat="43.86057" lon="7.25979">
        <ele>982</ele>
        <time>2010-12-05T11:54:15Z</time>
      </trkpt>
      <trkpt lat="43.86057" lon="7.25979">
        <ele>982</ele>
        <time>2010-12-05T11:55:41Z</time>
      </trkpt>
      <trkpt lat="43.86057" lon="7.25979">
        <ele>982</ele>
        <time>2010-12-05T11:55:41Z</time>
      </trkpt>
      <trkpt lat="43.86057" lon="7.25979">
        <ele>982</ele>
        <time>2010-12-05T11:55:42Z</time>
      </trkpt>
      <trkpt lat="43.86057" lon="7.25979">
        <ele>982</ele>
        <time>2010-12-05T11:55:45Z</time>
      </trkpt>
      <trkpt lat="43.86054" lon="7.25965">
        <ele>972</ele>
        <time>2010-12-05T12:01:34Z</time>
      </trkpt>
      <trkpt lat="43.86052" lon="7.25951">
        <ele>974</ele>
        <time>2010-12-05T12:01:39Z</time>
      </trkpt>
      <trkpt lat="43.86049" lon="7.25938">
        <ele>975</ele>
        <time>2010-12-05T12:01:45Z</time>
      </trkpt>
      <trkpt lat="43.86044" lon="7.25925">
        <ele>976</ele>
        <time>2010-12-05T12:01:49Z</time>
      </trkpt>
      <trkpt lat="43.86038" lon="7.25914">
        <ele>976</ele>
        <time>2010-12-05T12:01:52Z</time>
      </trkpt>
      <trkpt lat="43.86031" lon="7.25903">
        <ele>976</ele>
        <time>2010-12-05T12:01:56Z</time>
      </trkpt>
      <trkpt lat="43.86025" lon="7.25892">
        <ele>975</ele>
        <time>2010-12-05T12:02:00Z</time>
      </trkpt>
      <trkpt lat="43.86019" lon="7.25882">
        <ele>974</ele>
        <time>2010-12-05T12:02:04Z</time>
      </trkpt>
      <trkpt lat="43.86017" lon="7.25879">
        <ele>974</ele>
        <time>2010-12-05T12:02:05Z</time>
      </trkpt>
      <trkpt lat="43.86011" lon="7.25867">
        <ele>972</ele>
        <time>2010-12-05T12:02:13Z</time>
      </trkpt>
      <trkpt lat="43.86003" lon="7.25855">
        <ele>971</ele>
        <time>2010-12-05T12:02:17Z</time>
      </trkpt>
      <trkpt lat="43.85994" lon="7.25845">
        <ele>971</ele>
        <time>2010-12-05T12:02:20Z</time>
      </trkpt>
      <trkpt lat="43.85986" lon="7.25839">
        <ele>970</ele>
        <time>2010-12-05T12:02:22Z</time>
      </trkpt>
      <trkpt lat="43.85977" lon="7.25834">
        <ele>970</ele>
        <time>2010-12-05T12:02:24Z</time>
      </trkpt>
      <trkpt lat="43.85968" lon="7.2583">
        <ele>968</ele>
        <time>2010-12-05T12:02:27Z</time>
      </trkpt>
      <trkpt lat="43.8596" lon="7.25823">
        <ele>966</ele>
        <time>2010-12-05T12:02:31Z</time>
      </trkpt>
      <trkpt lat="43.85952" lon="7.25814">
        <ele>964</ele>
        <time>2010-12-05T12:02:35Z</time>
      </trkpt>
      <trkpt lat="43.85944" lon="7.25808">
        <ele>962</ele>
        <time>2010-12-05T12:02:39Z</time>
      </trkpt>
      <trkpt lat="43.85936" lon="7.25803">
        <ele>957</ele>
        <time>2010-12-05T12:02:53Z</time>
      </trkpt>
      <trkpt lat="43.85928" lon="7.25793">
        <ele>956</ele>
        <time>2010-12-05T12:03:03Z</time>
      </trkpt>
      <trkpt lat="43.85921" lon="7.25782">
        <ele>955</ele>
        <time>2010-12-05T12:03:08Z</time>
      </trkpt>
      <trkpt lat="43.85914" lon="7.25773">
        <ele>954</ele>
        <time>2010-12-05T12:03:13Z</time>
      </trkpt>
      <trkpt lat="43.85908" lon="7.25762">
        <ele>952</ele>
        <time>2010-12-05T12:03:18Z</time>
      </trkpt>
      <trkpt lat="43.85901" lon="7.25751">
        <ele>950</ele>
        <time>2010-12-05T12:03:22Z</time>
      </trkpt>
      <trkpt lat="43.85895" lon="7.2574">
        <ele>949</ele>
        <time>2010-12-05T12:03:26Z</time>
      </trkpt>
      <trkpt lat="43.85888" lon="7.2573">
        <ele>946</ele>
        <time>2010-12-05T12:03:30Z</time>
      </trkpt>
      <trkpt lat="43.85883" lon="7.25721">
        <ele>944</ele>
        <time>2010-12-05T12:03:33Z</time>
      </trkpt>
      <trkpt lat="43.85876" lon="7.2571">
        <ele>942</ele>
        <time>2010-12-05T12:03:36Z</time>
      </trkpt>
      <trkpt lat="43.8587" lon="7.25701">
        <ele>934</ele>
        <time>2010-12-05T12:03:57Z</time>
      </trkpt>
      <trkpt lat="43.85869" lon="7.25699">
        <ele>932</ele>
        <time>2010-12-05T12:04:01Z</time>
      </trkpt>
      <trkpt lat="43.85868" lon="7.25686">
        <ele>926</ele>
        <time>2010-12-05T12:04:17Z</time>
      </trkpt>
      <trkpt lat="43.85861" lon="7.25675">
        <ele>925</ele>
        <time>2010-12-05T12:04:23Z</time>
      </trkpt>
      <trkpt lat="43.85858" lon="7.25661">
        <ele>923</ele>
        <time>2010-12-05T12:04:28Z</time>
      </trkpt>
      <trkpt lat="43.85858" lon="7.25647">
        <ele>922</ele>
        <time>2010-12-05T12:04:31Z</time>
      </trkpt>
      <trkpt lat="43.85854" lon="7.25634">
        <ele>921</ele>
        <time>2010-12-05T12:04:34Z</time>
      </trkpt>
      <trkpt lat="43.85849" lon="7.25626">
        <ele>920</ele>
        <time>2010-12-05T12:04:36Z</time>
      </trkpt>
      <trkpt lat="43.8584" lon="7.25621">
        <ele>919</ele>
        <time>2010-12-05T12:04:39Z</time>
      </trkpt>
      <trkpt lat="43.85831" lon="7.25617">
        <ele>918</ele>
        <time>2010-12-05T12:04:41Z</time>
      </trkpt>
      <trkpt lat="43.85822" lon="7.25614">
        <ele>916</ele>
        <time>2010-12-05T12:04:43Z</time>
      </trkpt>
      <trkpt lat="43.85813" lon="7.2561">
        <ele>915</ele>
        <time>2010-12-05T12:04:46Z</time>
      </trkpt>
      <trkpt lat="43.85805" lon="7.25605">
        <ele>915</ele>
        <time>2010-12-05T12:04:48Z</time>
      </trkpt>
      <trkpt lat="43.85795" lon="7.25598">
        <ele>913</ele>
        <time>2010-12-05T12:04:51Z</time>
      </trkpt>
      <trkpt lat="43.85787" lon="7.25593">
        <ele>912</ele>
        <time>2010-12-05T12:04:58Z</time>
      </trkpt>
      <trkpt lat="43.85777" lon="7.25591">
        <ele>903</ele>
        <time>2010-12-05T12:05:36Z</time>
      </trkpt>
      <trkpt lat="43.85776" lon="7.2559">
        <ele>903</ele>
        <time>2010-12-05T12:05:37Z</time>
      </trkpt>
      <trkpt lat="43.85768" lon="7.25584">
        <ele>902</ele>
        <time>2010-12-05T12:05:43Z</time>
      </trkpt>
      <trkpt lat="43.85759" lon="7.25579">
        <ele>902</ele>
        <time>2010-12-05T12:05:47Z</time>
      </trkpt>
      <trkpt lat="43.85749" lon="7.25573">
        <ele>902</ele>
        <time>2010-12-05T12:05:51Z</time>
      </trkpt>
      <trkpt lat="43.85741" lon="7.25567">
        <ele>900</ele>
        <time>2010-12-05T12:05:54Z</time>
      </trkpt>
      <trkpt lat="43.85732" lon="7.25563">
        <ele>900</ele>
        <time>2010-12-05T12:05:57Z</time>
      </trkpt>
      <trkpt lat="43.85722" lon="7.25559">
        <ele>899</ele>
        <time>2010-12-05T12:06:00Z</time>
      </trkpt>
      <trkpt lat="43.85713" lon="7.25556">
        <ele>898</ele>
        <time>2010-12-05T12:06:04Z</time>
      </trkpt>
      <trkpt lat="43.85704" lon="7.25552">
        <ele>898</ele>
        <time>2010-12-05T12:06:07Z</time>
      </trkpt>
      <trkpt lat="43.85695" lon="7.25548">
        <ele>899</ele>
        <time>2010-12-05T12:06:09Z</time>
      </trkpt>
      <trkpt lat="43.85685" lon="7.25549">
        <ele>900</ele>
        <time>2010-12-05T12:06:14Z</time>
      </trkpt>
      <trkpt lat="43.85675" lon="7.25549">
        <ele>900</ele>
        <time>2010-12-05T12:06:17Z</time>
      </trkpt>
      <trkpt lat="43.85664" lon="7.2555">
        <ele>900</ele>
        <time>2010-12-05T12:06:20Z</time>
      </trkpt>
      <trkpt lat="43.85653" lon="7.25547">
        <ele>900</ele>
        <time>2010-12-05T12:06:23Z</time>
      </trkpt>
      <trkpt lat="43.85644" lon="7.2554">
        <ele>900</ele>
        <time>2010-12-05T12:06:26Z</time>
      </trkpt>
      <trkpt lat="43.85634" lon="7.25534">
        <ele>900</ele>
        <time>2010-12-05T12:06:28Z</time>
      </trkpt>
      <trkpt lat="43.85624" lon="7.25527">
        <ele>900</ele>
        <time>2010-12-05T12:06:30Z</time>
      </trkpt>
      <trkpt lat="43.85614" lon="7.25523">
        <ele>899</ele>
        <time>2010-12-05T12:06:33Z</time>
      </trkpt>
      <trkpt lat="43.85604" lon="7.25518">
        <ele>899</ele>
        <time>2010-12-05T12:06:35Z</time>
      </trkpt>
      <trkpt lat="43.85595" lon="7.25514">
        <ele>899</ele>
        <time>2010-12-05T12:06:37Z</time>
      </trkpt>
      <trkpt lat="43.85585" lon="7.25509">
        <ele>899</ele>
        <time>2010-12-05T12:06:40Z</time>
      </trkpt>
      <trkpt lat="43.85576" lon="7.25502">
        <ele>899</ele>
        <time>2010-12-05T12:06:42Z</time>
      </trkpt>
      <trkpt lat="43.85567" lon="7.25496">
        <ele>899</ele>
        <time>2010-12-05T12:06:44Z</time>
      </trkpt>
      <trkpt lat="43.85557" lon="7.25488">
        <ele>899</ele>
        <time>2010-12-05T12:06:46Z</time>
      </trkpt>
      <trkpt lat="43.85547" lon="7.2548">
        <ele>899</ele>
        <time>2010-12-05T12:06:49Z</time>
      </trkpt>
      <trkpt lat="43.85539" lon="7.25474">
        <ele>898</ele>
        <time>2010-12-05T12:06:51Z</time>
      </trkpt>
      <trkpt lat="43.8553" lon="7.25468">
        <ele>897</ele>
        <time>2010-12-05T12:06:53Z</time>
      </trkpt>
      <trkpt lat="43.85521" lon="7.25463">
        <ele>896</ele>
        <time>2010-12-05T12:06:55Z</time>
      </trkpt>
      <trkpt lat="43.85512" lon="7.25456">
        <ele>894</ele>
        <time>2010-12-05T12:06:58Z</time>
      </trkpt>
      <trkpt lat="43.85502" lon="7.25449">
        <ele>892</ele>
        <time>2010-12-05T12:07:00Z</time>
      </trkpt>
      <trkpt lat="43.85493" lon="7.25444">
        <ele>891</ele>
        <time>2010-12-05T12:07:02Z</time>
      </trkpt>
      <trkpt lat="43.85484" lon="7.2544">
        <ele>889</ele>
        <time>2010-12-05T12:07:05Z</time>
      </trkpt>
      <trkpt lat="43.85481" lon="7.25438">
        <ele>888</ele>
        <time>2010-12-05T12:07:06Z</time>
      </trkpt>
      <trkpt lat="43.85471" lon="7.25432">
        <ele>885</ele>
        <time>2010-12-05T12:07:10Z</time>
      </trkpt>
      <trkpt lat="43.85462" lon="7.25426">
        <ele>883</ele>
        <time>2010-12-05T12:07:13Z</time>
      </trkpt>
      <trkpt lat="43.85452" lon="7.25419">
        <ele>881</ele>
        <time>2010-12-05T12:07:16Z</time>
      </trkpt>
      <trkpt lat="43.85446" lon="7.25415">
        <ele>881</ele>
        <time>2010-12-05T12:07:17Z</time>
      </trkpt>
      <trkpt lat="43.85438" lon="7.2541">
        <ele>879</ele>
        <time>2010-12-05T12:07:19Z</time>
      </trkpt>
      <trkpt lat="43.85428" lon="7.25403">
        <ele>877</ele>
        <time>2010-12-05T12:07:22Z</time>
      </trkpt>
      <trkpt lat="43.85417" lon="7.25397">
        <ele>875</ele>
        <time>2010-12-05T12:07:26Z</time>
      </trkpt>
      <trkpt lat="43.85408" lon="7.25392">
        <ele>872</ele>
        <time>2010-12-05T12:07:29Z</time>
      </trkpt>
      <trkpt lat="43.85399" lon="7.25387">
        <ele>869</ele>
        <time>2010-12-05T12:07:32Z</time>
      </trkpt>
      <trkpt lat="43.85392" lon="7.25382">
        <ele>867</ele>
        <time>2010-12-05T12:07:35Z</time>
      </trkpt>
      <trkpt lat="43.85383" lon="7.25376">
        <ele>863</ele>
        <time>2010-12-05T12:07:38Z</time>
      </trkpt>
      <trkpt lat="43.85372" lon="7.2537">
        <ele>860</ele>
        <time>2010-12-05T12:07:41Z</time>
      </trkpt>
      <trkpt lat="43.85362" lon="7.25364">
        <ele>857</ele>
        <time>2010-12-05T12:07:44Z</time>
      </trkpt>
      <trkpt lat="43.85359" lon="7.25362">
        <ele>856</ele>
        <time>2010-12-05T12:07:45Z</time>
      </trkpt>
      <trkpt lat="43.85348" lon="7.25356">
        <ele>854</ele>
        <time>2010-12-05T12:07:48Z</time>
      </trkpt>
      <trkpt lat="43.8534" lon="7.25351">
        <ele>853</ele>
        <time>2010-12-05T12:07:51Z</time>
      </trkpt>
      <trkpt lat="43.85327" lon="7.25344">
        <ele>838</ele>
        <time>2010-12-05T12:08:12Z</time>
      </trkpt>
      <trkpt lat="43.85327" lon="7.25344">
        <ele>838</ele>
        <time>2010-12-05T12:08:21Z</time>
      </trkpt>
      <trkpt lat="43.85316" lon="7.25343">
        <ele>832</ele>
        <time>2010-12-05T12:08:35Z</time>
      </trkpt>
      <trkpt lat="43.85305" lon="7.25338">
        <ele>831</ele>
        <time>2010-12-05T12:08:38Z</time>
      </trkpt>
      <trkpt lat="43.85296" lon="7.25334">
        <ele>831</ele>
        <time>2010-12-05T12:08:41Z</time>
      </trkpt>
      <trkpt lat="43.85285" lon="7.25333">
        <ele>829</ele>
        <time>2010-12-05T12:08:44Z</time>
      </trkpt>
      <trkpt lat="43.85273" lon="7.2533">
        <ele>828</ele>
        <time>2010-12-05T12:08:47Z</time>
      </trkpt>
      <trkpt lat="43.85262" lon="7.25329">
        <ele>825</ele>
        <time>2010-12-05T12:08:50Z</time>
      </trkpt>
      <trkpt lat="43.85255" lon="7.25328">
        <ele>824</ele>
        <time>2010-12-05T12:08:52Z</time>
      </trkpt>
      <trkpt lat="43.85245" lon="7.25327">
        <ele>823</ele>
        <time>2010-12-05T12:08:53Z</time>
      </trkpt>
      <trkpt lat="43.85235" lon="7.25327">
        <ele>822</ele>
        <time>2010-12-05T12:08:55Z</time>
      </trkpt>
      <trkpt lat="43.85224" lon="7.25328">
        <ele>822</ele>
        <time>2010-12-05T12:08:56Z</time>
      </trkpt>
      <trkpt lat="43.85212" lon="7.2533">
        <ele>822</ele>
        <time>2010-12-05T12:08:59Z</time>
      </trkpt>
      <trkpt lat="43.8521" lon="7.25331">
        <ele>822</ele>
        <time>2010-12-05T12:08:59Z</time>
      </trkpt>
      <trkpt lat="43.852" lon="7.25333">
        <ele>821</ele>
        <time>2010-12-05T12:09:03Z</time>
      </trkpt>
      <trkpt lat="43.85201" lon="7.25338">
        <ele>812</ele>
        <time>2010-12-05T12:10:16Z</time>
      </trkpt>
      <trkpt lat="43.85201" lon="7.25338">
        <ele>812</ele>
        <time>2010-12-05T12:10:16Z</time>
      </trkpt>
      <trkpt lat="43.85204" lon="7.25343">
        <ele>805</ele>
        <time>2010-12-05T12:10:23Z</time>
      </trkpt>
      <trkpt lat="43.85193" lon="7.25344">
        <ele>802</ele>
        <time>2010-12-05T12:10:51Z</time>
      </trkpt>
      <trkpt lat="43.85182" lon="7.25338">
        <ele>801</ele>
        <time>2010-12-05T12:10:53Z</time>
      </trkpt>
      <trkpt lat="43.85172" lon="7.25334">
        <ele>802</ele>
        <time>2010-12-05T12:10:54Z</time>
      </trkpt>
      <trkpt lat="43.85161" lon="7.2533">
        <ele>802</ele>
        <time>2010-12-05T12:10:56Z</time>
      </trkpt>
      <trkpt lat="43.8516" lon="7.2533">
        <ele>802</ele>
        <time>2010-12-05T12:10:57Z</time>
      </trkpt>
      <trkpt lat="43.85147" lon="7.25333">
        <ele>801</ele>
        <time>2010-12-05T12:11:15Z</time>
      </trkpt>
      <trkpt lat="43.85143" lon="7.25333">
        <ele>802</ele>
        <time>2010-12-05T12:11:18Z</time>
      </trkpt>
      <trkpt lat="43.85132" lon="7.25337">
        <ele>811</ele>
        <time>2010-12-05T12:11:35Z</time>
      </trkpt>
      <trkpt lat="43.85123" lon="7.2534">
        <ele>818</ele>
        <time>2010-12-05T12:11:50Z</time>
      </trkpt>
      <trkpt lat="43.85114" lon="7.25344">
        <ele>821</ele>
        <time>2010-12-05T12:12:01Z</time>
      </trkpt>
      <trkpt lat="43.851" lon="7.25347">
        <ele>826</ele>
        <time>2010-12-05T12:12:17Z</time>
      </trkpt>
      <trkpt lat="43.85097" lon="7.25346">
        <ele>827</ele>
        <time>2010-12-05T12:12:20Z</time>
      </trkpt>
      <trkpt lat="43.85087" lon="7.25345">
        <ele>828</ele>
        <time>2010-12-05T12:12:27Z</time>
      </trkpt>
      <trkpt lat="43.85077" lon="7.25343">
        <ele>828</ele>
        <time>2010-12-05T12:12:29Z</time>
      </trkpt>
      <trkpt lat="43.85064" lon="7.2534">
        <ele>828</ele>
        <time>2010-12-05T12:12:32Z</time>
      </trkpt>
      <trkpt lat="43.85051" lon="7.25336">
        <ele>828</ele>
        <time>2010-12-05T12:12:34Z</time>
      </trkpt>
      <trkpt lat="43.85042" lon="7.25333">
        <ele>829</ele>
        <time>2010-12-05T12:12:36Z</time>
      </trkpt>
      <trkpt lat="43.85031" lon="7.2533">
        <ele>828</ele>
        <time>2010-12-05T12:12:37Z</time>
      </trkpt>
      <trkpt lat="43.8502" lon="7.25327">
        <ele>829</ele>
        <time>2010-12-05T12:12:39Z</time>
      </trkpt>
      <trkpt lat="43.8501" lon="7.25324">
        <ele>829</ele>
        <time>2010-12-05T12:12:40Z</time>
      </trkpt>
      <trkpt lat="43.85" lon="7.25322">
        <ele>829</ele>
        <time>2010-12-05T12:12:42Z</time>
      </trkpt>
      <trkpt lat="43.84987" lon="7.25318">
        <ele>829</ele>
        <time>2010-12-05T12:12:44Z</time>
      </trkpt>
      <trkpt lat="43.84976" lon="7.25317">
        <ele>828</ele>
        <time>2010-12-05T12:12:46Z</time>
      </trkpt>
      <trkpt lat="43.84965" lon="7.25317">
        <ele>828</ele>
        <time>2010-12-05T12:12:49Z</time>
      </trkpt>
      <trkpt lat="43.84956" lon="7.25318">
        <ele>827</ele>
        <time>2010-12-05T12:12:52Z</time>
      </trkpt>
      <trkpt lat="43.84953" lon="7.25317">
        <ele>827</ele>
        <time>2010-12-05T12:12:53Z</time>
      </trkpt>
      <trkpt lat="43.84943" lon="7.25312">
        <ele>826</ele>
        <time>2010-12-05T12:12:56Z</time>
      </trkpt>
      <trkpt lat="43.84934" lon="7.25309">
        <ele>826</ele>
        <time>2010-12-05T12:12:59Z</time>
      </trkpt>
      <trkpt lat="43.84923" lon="7.25307">
        <ele>826</ele>
        <time>2010-12-05T12:13:02Z</time>
      </trkpt>
      <trkpt lat="43.84898" lon="7.25286">
        <ele>815</ele>
        <time>2010-12-05T12:13:09Z</time>
      </trkpt>
      <trkpt lat="43.84885" lon="7.25285">
        <ele>818</ele>
        <time>2010-12-05T12:13:13Z</time>
      </trkpt>
      <trkpt lat="43.84872" lon="7.25284">
        <ele>815</ele>
        <time>2010-12-05T12:13:15Z</time>
      </trkpt>
      <trkpt lat="43.8486" lon="7.2528">
        <ele>812</ele>
        <time>2010-12-05T12:13:16Z</time>
      </trkpt>
      <trkpt lat="43.84856" lon="7.25278">
        <ele>811</ele>
        <time>2010-12-05T12:13:17Z</time>
      </trkpt>
      <trkpt lat="43.84847" lon="7.25272">
        <ele>808</ele>
        <time>2010-12-05T12:13:19Z</time>
      </trkpt>
      <trkpt lat="43.84835" lon="7.25264">
        <ele>804</ele>
        <time>2010-12-05T12:13:21Z</time>
      </trkpt>
      <trkpt lat="43.84823" lon="7.25258">
        <ele>800</ele>
        <time>2010-12-05T12:13:23Z</time>
      </trkpt>
      <trkpt lat="43.84811" lon="7.25255">
        <ele>797</ele>
        <time>2010-12-05T12:13:26Z</time>
      </trkpt>
      <trkpt lat="43.84807" lon="7.25256">
        <ele>795</ele>
        <time>2010-12-05T12:13:26Z</time>
      </trkpt>
      <trkpt lat="43.84795" lon="7.25261">
        <ele>791</ele>
        <time>2010-12-05T12:13:29Z</time>
      </trkpt>
      <trkpt lat="43.84782" lon="7.25263">
        <ele>788</ele>
        <time>2010-12-05T12:13:31Z</time>
      </trkpt>
      <trkpt lat="43.84771" lon="7.25265">
        <ele>785</ele>
        <time>2010-12-05T12:13:33Z</time>
      </trkpt>
      <trkpt lat="43.8476" lon="7.25267">
        <ele>783</ele>
        <time>2010-12-05T12:13:36Z</time>
      </trkpt>
      <trkpt lat="43.84747" lon="7.25267">
        <ele>781</ele>
        <time>2010-12-05T12:13:38Z</time>
      </trkpt>
      <trkpt lat="43.84734" lon="7.25267">
        <ele>779</ele>
        <time>2010-12-05T12:13:40Z</time>
      </trkpt>
      <trkpt lat="43.84724" lon="7.25264">
        <ele>778</ele>
        <time>2010-12-05T12:13:42Z</time>
      </trkpt>
      <trkpt lat="43.84715" lon="7.25261">
        <ele>778</ele>
        <time>2010-12-05T12:13:43Z</time>
      </trkpt>
      <trkpt lat="43.84705" lon="7.25262">
        <ele>775</ele>
        <time>2010-12-05T12:13:46Z</time>
      </trkpt>
      <trkpt lat="43.84708" lon="7.25274">
        <ele>770</ele>
        <time>2010-12-05T12:14:03Z</time>
      </trkpt>
      <trkpt lat="43.84717" lon="7.2528">
        <ele>769</ele>
        <time>2010-12-05T12:14:09Z</time>
      </trkpt>
      <trkpt lat="43.84726" lon="7.25286">
        <ele>769</ele>
        <time>2010-12-05T12:14:15Z</time>
      </trkpt>
      <trkpt lat="43.84736" lon="7.25294">
        <ele>769</ele>
        <time>2010-12-05T12:14:19Z</time>
      </trkpt>
      <trkpt lat="43.84741" lon="7.25297">
        <ele>769</ele>
        <time>2010-12-05T12:14:20Z</time>
      </trkpt>
      <trkpt lat="43.84751" lon="7.25304">
        <ele>770</ele>
        <time>2010-12-05T12:14:23Z</time>
      </trkpt>
      <trkpt lat="43.84762" lon="7.25311">
        <ele>770</ele>
        <time>2010-12-05T12:14:26Z</time>
      </trkpt>
      <trkpt lat="43.84771" lon="7.25319">
        <ele>770</ele>
        <time>2010-12-05T12:14:29Z</time>
      </trkpt>
      <trkpt lat="43.84781" lon="7.25329">
        <ele>770</ele>
        <time>2010-12-05T12:14:31Z</time>
      </trkpt>
      <trkpt lat="43.84792" lon="7.25338">
        <ele>770</ele>
        <time>2010-12-05T12:14:33Z</time>
      </trkpt>
      <trkpt lat="43.84803" lon="7.25348">
        <ele>770</ele>
        <time>2010-12-05T12:14:35Z</time>
      </trkpt>
      <trkpt lat="43.84811" lon="7.25354">
        <ele>770</ele>
        <time>2010-12-05T12:14:37Z</time>
      </trkpt>
      <trkpt lat="43.84819" lon="7.25361">
        <ele>770</ele>
        <time>2010-12-05T12:14:38Z</time>
      </trkpt>
      <trkpt lat="43.84827" lon="7.25368">
        <ele>769</ele>
        <time>2010-12-05T12:14:40Z</time>
      </trkpt>
      <trkpt lat="43.84834" lon="7.25376">
        <ele>769</ele>
        <time>2010-12-05T12:14:42Z</time>
      </trkpt>
      <trkpt lat="43.84842" lon="7.25383">
        <ele>769</ele>
        <time>2010-12-05T12:14:43Z</time>
      </trkpt>
      <trkpt lat="43.8485" lon="7.2539">
        <ele>769</ele>
        <time>2010-12-05T12:14:45Z</time>
      </trkpt>
      <trkpt lat="43.84857" lon="7.25397">
        <ele>768</ele>
        <time>2010-12-05T12:14:46Z</time>
      </trkpt>
      <trkpt lat="43.84865" lon="7.25404">
        <ele>768</ele>
        <time>2010-12-05T12:14:48Z</time>
      </trkpt>
      <trkpt lat="43.84876" lon="7.25413">
        <ele>767</ele>
        <time>2010-12-05T12:14:50Z</time>
      </trkpt>
      <trkpt lat="43.84887" lon="7.25422">
        <ele>767</ele>
        <time>2010-12-05T12:14:52Z</time>
      </trkpt>
      <trkpt lat="43.84899" lon="7.2543">
        <ele>766</ele>
        <time>2010-12-05T12:14:54Z</time>
      </trkpt>
      <trkpt lat="43.84911" lon="7.25436">
        <ele>766</ele>
        <time>2010-12-05T12:14:57Z</time>
      </trkpt>
      <trkpt lat="43.84923" lon="7.2544">
        <ele>766</ele>
        <time>2010-12-05T12:14:59Z</time>
      </trkpt>
      <trkpt lat="43.84935" lon="7.25446">
        <ele>765</ele>
        <time>2010-12-05T12:15:01Z</time>
      </trkpt>
      <trkpt lat="43.84947" lon="7.25452">
        <ele>765</ele>
        <time>2010-12-05T12:15:04Z</time>
      </trkpt>
      <trkpt lat="43.84959" lon="7.25457">
        <ele>764</ele>
        <time>2010-12-05T12:15:06Z</time>
      </trkpt>
      <trkpt lat="43.84971" lon="7.25464">
        <ele>763</ele>
        <time>2010-12-05T12:15:08Z</time>
      </trkpt>
      <trkpt lat="43.84979" lon="7.25471">
        <ele>762</ele>
        <time>2010-12-05T12:15:10Z</time>
      </trkpt>
      <trkpt lat="43.84986" lon="7.25479">
        <ele>762</ele>
        <time>2010-12-05T12:15:11Z</time>
      </trkpt>
      <trkpt lat="43.84994" lon="7.25487">
        <ele>762</ele>
        <time>2010-12-05T12:15:13Z</time>
      </trkpt>
      <trkpt lat="43.85002" lon="7.25494">
        <ele>761</ele>
        <time>2010-12-05T12:15:14Z</time>
      </trkpt>
      <trkpt lat="43.8501" lon="7.25502">
        <ele>761</ele>
        <time>2010-12-05T12:15:16Z</time>
      </trkpt>
      <trkpt lat="43.85017" lon="7.2551">
        <ele>760</ele>
        <time>2010-12-05T12:15:17Z</time>
      </trkpt>
      <trkpt lat="43.85024" lon="7.25519">
        <ele>759</ele>
        <time>2010-12-05T12:15:19Z</time>
      </trkpt>
      <trkpt lat="43.85031" lon="7.25527">
        <ele>759</ele>
        <time>2010-12-05T12:15:20Z</time>
      </trkpt>
      <trkpt lat="43.85042" lon="7.25536">
        <ele>758</ele>
        <time>2010-12-05T12:15:23Z</time>
      </trkpt>
      <trkpt lat="43.85052" lon="7.25545">
        <ele>757</ele>
        <time>2010-12-05T12:15:25Z</time>
      </trkpt>
      <trkpt lat="43.85059" lon="7.25553">
        <ele>754</ele>
        <time>2010-12-05T12:15:29Z</time>
      </trkpt>
      <trkpt lat="43.85065" lon="7.25564">
        <ele>750</ele>
        <time>2010-12-05T12:15:38Z</time>
      </trkpt>
      <trkpt lat="43.85065" lon="7.25578">
        <ele>749</ele>
        <time>2010-12-05T12:15:43Z</time>
      </trkpt>
      <trkpt lat="43.85059" lon="7.25592">
        <ele>748</ele>
        <time>2010-12-05T12:15:47Z</time>
      </trkpt>
      <trkpt lat="43.85054" lon="7.25607">
        <ele>748</ele>
        <time>2010-12-05T12:15:50Z</time>
      </trkpt>
      <trkpt lat="43.85049" lon="7.25621">
        <ele>748</ele>
        <time>2010-12-05T12:15:53Z</time>
      </trkpt>
      <trkpt lat="43.85051" lon="7.25634">
        <ele>748</ele>
        <time>2010-12-05T12:15:56Z</time>
      </trkpt>
      <trkpt lat="43.85053" lon="7.25648">
        <ele>748</ele>
        <time>2010-12-05T12:16:00Z</time>
      </trkpt>
      <trkpt lat="43.85056" lon="7.25661">
        <ele>749</ele>
        <time>2010-12-05T12:16:03Z</time>
      </trkpt>
      <trkpt lat="43.85058" lon="7.25676">
        <ele>749</ele>
        <time>2010-12-05T12:16:06Z</time>
      </trkpt>
      <trkpt lat="43.85061" lon="7.25694">
        <ele>749</ele>
        <time>2010-12-05T12:16:08Z</time>
      </trkpt>
      <trkpt lat="43.85062" lon="7.25707">
        <ele>749</ele>
        <time>2010-12-05T12:16:10Z</time>
      </trkpt>
      <trkpt lat="43.85065" lon="7.25722">
        <ele>748</ele>
        <time>2010-12-05T12:16:12Z</time>
      </trkpt>
      <trkpt lat="43.85068" lon="7.25736">
        <ele>747</ele>
        <time>2010-12-05T12:16:14Z</time>
      </trkpt>
      <trkpt lat="43.85071" lon="7.25748">
        <ele>746</ele>
        <time>2010-12-05T12:16:16Z</time>
      </trkpt>
      <trkpt lat="43.85073" lon="7.25762">
        <ele>745</ele>
        <time>2010-12-05T12:16:20Z</time>
      </trkpt>
      <trkpt lat="43.85071" lon="7.25775">
        <ele>742</ele>
        <time>2010-12-05T12:16:24Z</time>
      </trkpt>
      <trkpt lat="43.8507" lon="7.25787">
        <ele>742</ele>
        <time>2010-12-05T12:16:28Z</time>
      </trkpt>
      <trkpt lat="43.85071" lon="7.25802">
        <ele>740</ele>
        <time>2010-12-05T12:16:31Z</time>
      </trkpt>
      <trkpt lat="43.85076" lon="7.25815">
        <ele>740</ele>
        <time>2010-12-05T12:16:33Z</time>
      </trkpt>
      <trkpt lat="43.85081" lon="7.25827">
        <ele>739</ele>
        <time>2010-12-05T12:16:36Z</time>
      </trkpt>
      <trkpt lat="43.85086" lon="7.25839">
        <ele>738</ele>
        <time>2010-12-05T12:16:39Z</time>
      </trkpt>
      <trkpt lat="43.8509" lon="7.25852">
        <ele>739</ele>
        <time>2010-12-05T12:16:41Z</time>
      </trkpt>
      <trkpt lat="43.85085" lon="7.25859">
        <ele>739</ele>
        <time>2010-12-05T12:16:46Z</time>
      </trkpt>
      <trkpt lat="43.85075" lon="7.25863">
        <ele>740</ele>
        <time>2010-12-05T12:16:51Z</time>
      </trkpt>
      <trkpt lat="43.85067" lon="7.2587">
        <ele>741</ele>
        <time>2010-12-05T12:16:57Z</time>
      </trkpt>
      <trkpt lat="43.85057" lon="7.25873">
        <ele>743</ele>
        <time>2010-12-05T12:17:06Z</time>
      </trkpt>
      <trkpt lat="43.85048" lon="7.25869">
        <ele>745</ele>
        <time>2010-12-05T12:17:14Z</time>
      </trkpt>
      <trkpt lat="43.85039" lon="7.25864">
        <ele>749</ele>
        <time>2010-12-05T12:17:22Z</time>
      </trkpt>
      <trkpt lat="43.85033" lon="7.25855">
        <ele>751</ele>
        <time>2010-12-05T12:17:29Z</time>
      </trkpt>
      <trkpt lat="43.85025" lon="7.25848">
        <ele>752</ele>
        <time>2010-12-05T12:17:38Z</time>
      </trkpt>
      <trkpt lat="43.85016" lon="7.25857">
        <ele>755</ele>
        <time>2010-12-05T12:17:49Z</time>
      </trkpt>
      <trkpt lat="43.85012" lon="7.2587">
        <ele>757</ele>
        <time>2010-12-05T12:18:08Z</time>
      </trkpt>
      <trkpt lat="43.85012" lon="7.2587">
        <ele>757</ele>
        <time>2010-12-05T12:18:14Z</time>
      </trkpt>
      <trkpt lat="43.85004" lon="7.25876">
        <ele>765</ele>
        <time>2010-12-05T12:18:48Z</time>
      </trkpt>
      <trkpt lat="43.85003" lon="7.25877">
        <ele>765</ele>
        <time>2010-12-05T12:18:51Z</time>
      </trkpt>
      <trkpt lat="43.84995" lon="7.25884">
        <ele>771</ele>
        <time>2010-12-05T12:19:04Z</time>
      </trkpt>
      <trkpt lat="43.84989" lon="7.25895">
        <ele>777</ele>
        <time>2010-12-05T12:19:18Z</time>
      </trkpt>
      <trkpt lat="43.84977" lon="7.25889">
        <ele>766</ele>
        <time>2010-12-05T12:19:58Z</time>
      </trkpt>
      <trkpt lat="43.84971" lon="7.2588">
        <ele>763</ele>
        <time>2010-12-05T12:20:10Z</time>
      </trkpt>
      <trkpt lat="43.8496" lon="7.25875">
        <ele>771</ele>
        <time>2010-12-05T12:20:37Z</time>
      </trkpt>
      <trkpt lat="43.8495" lon="7.25885">
        <ele>779</ele>
        <time>2010-12-05T12:21:08Z</time>
      </trkpt>
      <trkpt lat="43.84937" lon="7.2589">
        <ele>785</ele>
        <time>2010-12-05T12:21:35Z</time>
      </trkpt>
      <trkpt lat="43.84927" lon="7.25892">
        <ele>788</ele>
        <time>2010-12-05T12:21:48Z</time>
      </trkpt>
      <trkpt lat="43.84918" lon="7.25895">
        <ele>789</ele>
        <time>2010-12-05T12:21:59Z</time>
      </trkpt>
      <trkpt lat="43.84908" lon="7.25902">
        <ele>788</ele>
        <time>2010-12-05T12:22:18Z</time>
      </trkpt>
      <trkpt lat="43.84907" lon="7.25902">
        <ele>788</ele>
        <time>2010-12-05T12:22:20Z</time>
      </trkpt>
      <trkpt lat="43.84901" lon="7.25912">
        <ele>777</ele>
        <time>2010-12-05T12:26:23Z</time>
      </trkpt>
      <trkpt lat="43.84893" lon="7.25919">
        <ele>778</ele>
        <time>2010-12-05T12:26:29Z</time>
      </trkpt>
      <trkpt lat="43.84887" lon="7.25923">
        <ele>782</ele>
        <time>2010-12-05T12:26:34Z</time>
      </trkpt>
      <trkpt lat="43.84889" lon="7.25922">
        <ele>776</ele>
        <time>2010-12-05T12:27:26Z</time>
      </trkpt>
      <trkpt lat="43.84881" lon="7.2593">
        <ele>769</ele>
        <time>2010-12-05T12:41:46Z</time>
      </trkpt>
      <trkpt lat="43.84874" lon="7.2594">
        <ele>770</ele>
        <time>2010-12-05T12:41:51Z</time>
      </trkpt>
      <trkpt lat="43.84869" lon="7.25951">
        <ele>772</ele>
        <time>2010-12-05T12:41:57Z</time>
      </trkpt>
      <trkpt lat="43.84865" lon="7.25964">
        <ele>772</ele>
        <time>2010-12-05T12:42:04Z</time>
      </trkpt>
      <trkpt lat="43.8486" lon="7.25975">
        <ele>774</ele>
        <time>2010-12-05T12:42:12Z</time>
      </trkpt>
      <trkpt lat="43.84855" lon="7.25985">
        <ele>776</ele>
        <time>2010-12-05T12:42:18Z</time>
      </trkpt>
      <trkpt lat="43.84848" lon="7.25996">
        <ele>778</ele>
        <time>2010-12-05T12:42:25Z</time>
      </trkpt>
      <trkpt lat="43.84843" lon="7.26007">
        <ele>778</ele>
        <time>2010-12-05T12:42:36Z</time>
      </trkpt>
      <trkpt lat="43.84843" lon="7.26009">
        <ele>778</ele>
        <time>2010-12-05T12:42:39Z</time>
      </trkpt>
      <trkpt lat="43.84839" lon="7.26021">
        <ele>782</ele>
        <time>2010-12-05T12:42:55Z</time>
      </trkpt>
      <trkpt lat="43.8483" lon="7.26023">
        <ele>790</ele>
        <time>2010-12-05T12:43:17Z</time>
      </trkpt>
      <trkpt lat="43.84821" lon="7.26024">
        <ele>789</ele>
        <time>2010-12-05T12:44:12Z</time>
      </trkpt>
      <trkpt lat="43.84812" lon="7.26024">
        <ele>792</ele>
        <time>2010-12-05T12:44:23Z</time>
      </trkpt>
      <trkpt lat="43.84802" lon="7.26027">
        <ele>794</ele>
        <time>2010-12-05T12:44:31Z</time>
      </trkpt>
      <trkpt lat="43.84793" lon="7.26031">
        <ele>793</ele>
        <time>2010-12-05T12:44:41Z</time>
      </trkpt>
      <trkpt lat="43.84787" lon="7.26037">
        <ele>794</ele>
        <time>2010-12-05T12:44:46Z</time>
      </trkpt>
      <trkpt lat="43.84778" lon="7.26044">
        <ele>794</ele>
        <time>2010-12-05T12:44:51Z</time>
      </trkpt>
      <trkpt lat="43.84775" lon="7.26046">
        <ele>794</ele>
        <time>2010-12-05T12:44:53Z</time>
      </trkpt>
      <trkpt lat="43.84766" lon="7.26051">
        <ele>794</ele>
        <time>2010-12-05T12:45:00Z</time>
      </trkpt>
      <trkpt lat="43.84764" lon="7.26053">
        <ele>794</ele>
        <time>2010-12-05T12:45:02Z</time>
      </trkpt>
      <trkpt lat="43.84758" lon="7.26061">
        <ele>794</ele>
        <time>2010-12-05T12:45:14Z</time>
      </trkpt>
      <trkpt lat="43.84749" lon="7.26068">
        <ele>795</ele>
        <time>2010-12-05T12:45:25Z</time>
      </trkpt>
      <trkpt lat="43.8474" lon="7.26071">
        <ele>796</ele>
        <time>2010-12-05T12:45:31Z</time>
      </trkpt>
      <trkpt lat="43.84732" lon="7.26077">
        <ele>795</ele>
        <time>2010-12-05T12:45:37Z</time>
      </trkpt>
      <trkpt lat="43.84724" lon="7.26085">
        <ele>795</ele>
        <time>2010-12-05T12:45:43Z</time>
      </trkpt>
      <trkpt lat="43.84723" lon="7.26086">
        <ele>795</ele>
        <time>2010-12-05T12:45:44Z</time>
      </trkpt>
      <trkpt lat="43.84715" lon="7.26094">
        <ele>795</ele>
        <time>2010-12-05T12:45:50Z</time>
      </trkpt>
      <trkpt lat="43.84707" lon="7.26101">
        <ele>796</ele>
        <time>2010-12-05T12:45:56Z</time>
      </trkpt>
      <trkpt lat="43.84698" lon="7.26106">
        <ele>796</ele>
        <time>2010-12-05T12:46:02Z</time>
      </trkpt>
      <trkpt lat="43.84689" lon="7.26112">
        <ele>796</ele>
        <time>2010-12-05T12:46:08Z</time>
      </trkpt>
      <trkpt lat="43.84683" lon="7.2612">
        <ele>798</ele>
        <time>2010-12-05T12:46:13Z</time>
      </trkpt>
      <trkpt lat="43.84677" lon="7.2613">
        <ele>798</ele>
        <time>2010-12-05T12:46:21Z</time>
      </trkpt>
      <trkpt lat="43.8467" lon="7.26138">
        <ele>804</ele>
        <time>2010-12-05T12:47:04Z</time>
      </trkpt>
      <trkpt lat="43.84663" lon="7.26146">
        <ele>807</ele>
        <time>2010-12-05T12:47:21Z</time>
      </trkpt>
      <trkpt lat="43.84655" lon="7.26152">
        <ele>812</ele>
        <time>2010-12-05T12:47:37Z</time>
      </trkpt>
      <trkpt lat="43.84645" lon="7.26152">
        <ele>815</ele>
        <time>2010-12-05T12:47:47Z</time>
      </trkpt>
      <trkpt lat="43.84636" lon="7.26153">
        <ele>818</ele>
        <time>2010-12-05T12:47:55Z</time>
      </trkpt>
      <trkpt lat="43.84627" lon="7.26155">
        <ele>818</ele>
        <time>2010-12-05T12:48:03Z</time>
      </trkpt>
      <trkpt lat="43.84618" lon="7.26155">
        <ele>820</ele>
        <time>2010-12-05T12:48:13Z</time>
      </trkpt>
      <trkpt lat="43.84607" lon="7.26152">
        <ele>812</ele>
        <time>2010-12-05T12:50:24Z</time>
      </trkpt>
      <trkpt lat="43.84607" lon="7.26152">
        <ele>812</ele>
        <time>2010-12-05T12:50:24Z</time>
      </trkpt>
      <trkpt lat="43.84607" lon="7.26152">
        <ele>812</ele>
        <time>2010-12-05T12:50:25Z</time>
      </trkpt>
      <trkpt lat="43.84607" lon="7.26154">
        <ele>813</ele>
        <time>2010-12-05T12:50:50Z</time>
      </trkpt>
      <trkpt lat="43.84599" lon="7.26148">
        <ele>817</ele>
        <time>2010-12-05T13:04:07Z</time>
      </trkpt>
      <trkpt lat="43.84597" lon="7.26136">
        <ele>815</ele>
        <time>2010-12-05T13:04:16Z</time>
      </trkpt>
      <trkpt lat="43.84593" lon="7.26126">
        <ele>815</ele>
        <time>2010-12-05T13:04:23Z</time>
      </trkpt>
      <trkpt lat="43.84585" lon="7.26118">
        <ele>816</ele>
        <time>2010-12-05T13:04:29Z</time>
      </trkpt>
      <trkpt lat="43.84575" lon="7.26114">
        <ele>817</ele>
        <time>2010-12-05T13:04:35Z</time>
      </trkpt>
      <trkpt lat="43.84566" lon="7.26111">
        <ele>818</ele>
        <time>2010-12-05T13:04:39Z</time>
      </trkpt>
      <trkpt lat="43.84557" lon="7.26109">
        <ele>818</ele>
        <time>2010-12-05T13:04:44Z</time>
      </trkpt>
      <trkpt lat="43.84551" lon="7.26107">
        <ele>818</ele>
        <time>2010-12-05T13:04:47Z</time>
      </trkpt>
      <trkpt lat="43.84542" lon="7.26104">
        <ele>819</ele>
        <time>2010-12-05T13:04:52Z</time>
      </trkpt>
      <trkpt lat="43.84533" lon="7.26099">
        <ele>819</ele>
        <time>2010-12-05T13:04:56Z</time>
      </trkpt>
      <trkpt lat="43.84523" lon="7.26094">
        <ele>818</ele>
        <time>2010-12-05T13:05:02Z</time>
      </trkpt>
      <trkpt lat="43.84515" lon="7.26088">
        <ele>819</ele>
        <time>2010-12-05T13:05:07Z</time>
      </trkpt>
      <trkpt lat="43.84506" lon="7.26084">
        <ele>820</ele>
        <time>2010-12-05T13:05:12Z</time>
      </trkpt>
      <trkpt lat="43.84495" lon="7.26082">
        <ele>820</ele>
        <time>2010-12-05T13:05:16Z</time>
      </trkpt>
      <trkpt lat="43.8449" lon="7.26082">
        <ele>821</ele>
        <time>2010-12-05T13:05:19Z</time>
      </trkpt>
      <trkpt lat="43.8448" lon="7.26081">
        <ele>821</ele>
        <time>2010-12-05T13:05:23Z</time>
      </trkpt>
      <trkpt lat="43.8447" lon="7.26079">
        <ele>821</ele>
        <time>2010-12-05T13:05:26Z</time>
      </trkpt>
      <trkpt lat="43.84459" lon="7.26076">
        <ele>822</ele>
        <time>2010-12-05T13:05:30Z</time>
      </trkpt>
      <trkpt lat="43.8445" lon="7.26075">
        <ele>822</ele>
        <time>2010-12-05T13:05:34Z</time>
      </trkpt>
      <trkpt lat="43.8444" lon="7.26073">
        <ele>822</ele>
        <time>2010-12-05T13:05:37Z</time>
      </trkpt>
      <trkpt lat="43.8443" lon="7.26071">
        <ele>823</ele>
        <time>2010-12-05T13:05:40Z</time>
      </trkpt>
      <trkpt lat="43.84421" lon="7.2607">
        <ele>823</ele>
        <time>2010-12-05T13:05:47Z</time>
      </trkpt>
      <trkpt lat="43.84412" lon="7.2607">
        <ele>823</ele>
        <time>2010-12-05T13:05:53Z</time>
      </trkpt>
      <trkpt lat="43.84401" lon="7.26069">
        <ele>822</ele>
        <time>2010-12-05T13:05:57Z</time>
      </trkpt>
      <trkpt lat="43.84391" lon="7.26069">
        <ele>822</ele>
        <time>2010-12-05T13:06:00Z</time>
      </trkpt>
      <trkpt lat="43.84382" lon="7.26068">
        <ele>822</ele>
        <time>2010-12-05T13:06:02Z</time>
      </trkpt>
      <trkpt lat="43.84372" lon="7.26066">
        <ele>823</ele>
        <time>2010-12-05T13:06:05Z</time>
      </trkpt>
      <trkpt lat="43.8436" lon="7.26065">
        <ele>823</ele>
        <time>2010-12-05T13:06:09Z</time>
      </trkpt>
      <trkpt lat="43.84351" lon="7.26064">
        <ele>823</ele>
        <time>2010-12-05T13:06:11Z</time>
      </trkpt>
      <trkpt lat="43.8434" lon="7.26064">
        <ele>823</ele>
        <time>2010-12-05T13:06:14Z</time>
      </trkpt>
      <trkpt lat="43.84329" lon="7.26063">
        <ele>823</ele>
        <time>2010-12-05T13:06:18Z</time>
      </trkpt>
      <trkpt lat="43.8432" lon="7.26061">
        <ele>823</ele>
        <time>2010-12-05T13:06:21Z</time>
      </trkpt>
      <trkpt lat="43.84311" lon="7.26061">
        <ele>823</ele>
        <time>2010-12-05T13:06:25Z</time>
      </trkpt>
      <trkpt lat="43.843" lon="7.26065">
        <ele>824</ele>
        <time>2010-12-05T13:06:28Z</time>
      </trkpt>
      <trkpt lat="43.84291" lon="7.2607">
        <ele>824</ele>
        <time>2010-12-05T13:06:30Z</time>
      </trkpt>
      <trkpt lat="43.84281" lon="7.26073">
        <ele>824</ele>
        <time>2010-12-05T13:06:32Z</time>
      </trkpt>
      <trkpt lat="43.84272" lon="7.26077">
        <ele>824</ele>
        <time>2010-12-05T13:06:35Z</time>
      </trkpt>
      <trkpt lat="43.84262" lon="7.2608">
        <ele>824</ele>
        <time>2010-12-05T13:06:38Z</time>
      </trkpt>
      <trkpt lat="43.84252" lon="7.26084">
        <ele>824</ele>
        <time>2010-12-05T13:06:41Z</time>
      </trkpt>
      <trkpt lat="43.84246" lon="7.26086">
        <ele>824</ele>
        <time>2010-12-05T13:06:43Z</time>
      </trkpt>
      <trkpt lat="43.84237" lon="7.26088">
        <ele>824</ele>
        <time>2010-12-05T13:06:46Z</time>
      </trkpt>
      <trkpt lat="43.84226" lon="7.26091">
        <ele>823</ele>
        <time>2010-12-05T13:06:49Z</time>
      </trkpt>
      <trkpt lat="43.84215" lon="7.26093">
        <ele>822</ele>
        <time>2010-12-05T13:06:52Z</time>
      </trkpt>
      <trkpt lat="43.84203" lon="7.26097">
        <ele>821</ele>
        <time>2010-12-05T13:06:55Z</time>
      </trkpt>
      <trkpt lat="43.8419" lon="7.26101">
        <ele>820</ele>
        <time>2010-12-05T13:06:58Z</time>
      </trkpt>
      <trkpt lat="43.84177" lon="7.26103">
        <ele>819</ele>
        <time>2010-12-05T13:07:00Z</time>
      </trkpt>
      <trkpt lat="43.84164" lon="7.26105">
        <ele>817</ele>
        <time>2010-12-05T13:07:02Z</time>
      </trkpt>
      <trkpt lat="43.84154" lon="7.26106">
        <ele>816</ele>
        <time>2010-12-05T13:07:05Z</time>
      </trkpt>
      <trkpt lat="43.84144" lon="7.26107">
        <ele>813</ele>
        <time>2010-12-05T13:07:08Z</time>
      </trkpt>
      <trkpt lat="43.84135" lon="7.2611">
        <ele>811</ele>
        <time>2010-12-05T13:07:11Z</time>
      </trkpt>
      <trkpt lat="43.84125" lon="7.26113">
        <ele>809</ele>
        <time>2010-12-05T13:07:14Z</time>
      </trkpt>
      <trkpt lat="43.84113" lon="7.26116">
        <ele>807</ele>
        <time>2010-12-05T13:07:17Z</time>
      </trkpt>
      <trkpt lat="43.84102" lon="7.26116">
        <ele>806</ele>
        <time>2010-12-05T13:07:19Z</time>
      </trkpt>
      <trkpt lat="43.8409" lon="7.26118">
        <ele>804</ele>
        <time>2010-12-05T13:07:22Z</time>
      </trkpt>
      <trkpt lat="43.84079" lon="7.26119">
        <ele>802</ele>
        <time>2010-12-05T13:07:24Z</time>
      </trkpt>
      <trkpt lat="43.84067" lon="7.26119">
        <ele>799</ele>
        <time>2010-12-05T13:07:26Z</time>
      </trkpt>
      <trkpt lat="43.84056" lon="7.2612">
        <ele>796</ele>
        <time>2010-12-05T13:07:28Z</time>
      </trkpt>
      <trkpt lat="43.84047" lon="7.2612">
        <ele>793</ele>
        <time>2010-12-05T13:07:31Z</time>
      </trkpt>
      <trkpt lat="43.84038" lon="7.2612">
        <ele>790</ele>
        <time>2010-12-05T13:07:33Z</time>
      </trkpt>
      <trkpt lat="43.84026" lon="7.26119">
        <ele>787</ele>
        <time>2010-12-05T13:07:36Z</time>
      </trkpt>
      <trkpt lat="43.84016" lon="7.26118">
        <ele>785</ele>
        <time>2010-12-05T13:07:39Z</time>
      </trkpt>
      <trkpt lat="43.84006" lon="7.26117">
        <ele>782</ele>
        <time>2010-12-05T13:07:41Z</time>
      </trkpt>
      <trkpt lat="43.83997" lon="7.26115">
        <ele>780</ele>
        <time>2010-12-05T13:07:43Z</time>
      </trkpt>
      <trkpt lat="43.83989" lon="7.26107">
        <ele>777</ele>
        <time>2010-12-05T13:07:46Z</time>
      </trkpt>
      <trkpt lat="43.83981" lon="7.26095">
        <ele>774</ele>
        <time>2010-12-05T13:07:49Z</time>
      </trkpt>
      <trkpt lat="43.83977" lon="7.26081">
        <ele>770</ele>
        <time>2010-12-05T13:07:53Z</time>
      </trkpt>
      <trkpt lat="43.83973" lon="7.26067">
        <ele>767</ele>
        <time>2010-12-05T13:07:56Z</time>
      </trkpt>
      <trkpt lat="43.83969" lon="7.26053">
        <ele>766</ele>
        <time>2010-12-05T13:07:59Z</time>
      </trkpt>
      <trkpt lat="43.83962" lon="7.26044">
        <ele>765</ele>
        <time>2010-12-05T13:08:02Z</time>
      </trkpt>
      <trkpt lat="43.83953" lon="7.26037">
        <ele>763</ele>
        <time>2010-12-05T13:08:05Z</time>
      </trkpt>
      <trkpt lat="43.8395" lon="7.26023">
        <ele>760</ele>
        <time>2010-12-05T13:08:10Z</time>
      </trkpt>
      <trkpt lat="43.83952" lon="7.26009">
        <ele>758</ele>
        <time>2010-12-05T13:08:14Z</time>
      </trkpt>
      <trkpt lat="43.83951" lon="7.25996">
        <ele>756</ele>
        <time>2010-12-05T13:08:17Z</time>
      </trkpt>
      <trkpt lat="43.83951" lon="7.25994">
        <ele>756</ele>
        <time>2010-12-05T13:08:35Z</time>
      </trkpt>
      <trkpt lat="43.83949" lon="7.25981">
        <ele>749</ele>
        <time>2010-12-05T13:08:57Z</time>
      </trkpt>
      <trkpt lat="43.83948" lon="7.25967">
        <ele>749</ele>
        <time>2010-12-05T13:09:00Z</time>
      </trkpt>
      <trkpt lat="43.83948" lon="7.25953">
        <ele>748</ele>
        <time>2010-12-05T13:09:02Z</time>
      </trkpt>
      <trkpt lat="43.8395" lon="7.25945">
        <ele>748</ele>
        <time>2010-12-05T13:09:14Z</time>
      </trkpt>
      <trkpt lat="43.83947" lon="7.25932">
        <ele>749</ele>
        <time>2010-12-05T13:09:29Z</time>
      </trkpt>
      <trkpt lat="43.83945" lon="7.25919">
        <ele>749</ele>
        <time>2010-12-05T13:09:32Z</time>
      </trkpt>
      <trkpt lat="43.83935" lon="7.25914">
        <ele>748</ele>
        <time>2010-12-05T13:09:35Z</time>
      </trkpt>
      <trkpt lat="43.83926" lon="7.2591">
        <ele>748</ele>
        <time>2010-12-05T13:09:38Z</time>
      </trkpt>
      <trkpt lat="43.83917" lon="7.25904">
        <ele>748</ele>
        <time>2010-12-05T13:09:40Z</time>
      </trkpt>
      <trkpt lat="43.8391" lon="7.25895">
        <ele>748</ele>
        <time>2010-12-05T13:09:42Z</time>
      </trkpt>
      <trkpt lat="43.83904" lon="7.25885">
        <ele>748</ele>
        <time>2010-12-05T13:09:45Z</time>
      </trkpt>
      <trkpt lat="43.83902" lon="7.2587">
        <ele>748</ele>
        <time>2010-12-05T13:09:48Z</time>
      </trkpt>
      <trkpt lat="43.83903" lon="7.25862">
        <ele>748</ele>
        <time>2010-12-05T13:09:49Z</time>
      </trkpt>
      <trkpt lat="43.83907" lon="7.25846">
        <ele>749</ele>
        <time>2010-12-05T13:09:52Z</time>
      </trkpt>
      <trkpt lat="43.83909" lon="7.2583">
        <ele>749</ele>
        <time>2010-12-05T13:09:55Z</time>
      </trkpt>
      <trkpt lat="43.8391" lon="7.25814">
        <ele>748</ele>
        <time>2010-12-05T13:09:57Z</time>
      </trkpt>
      <trkpt lat="43.83911" lon="7.25799">
        <ele>748</ele>
        <time>2010-12-05T13:09:59Z</time>
      </trkpt>
      <trkpt lat="43.83912" lon="7.25784">
        <ele>747</ele>
        <time>2010-12-05T13:10:01Z</time>
      </trkpt>
      <trkpt lat="43.83916" lon="7.25772">
        <ele>747</ele>
        <time>2010-12-05T13:10:04Z</time>
      </trkpt>
      <trkpt lat="43.83924" lon="7.25762">
        <ele>746</ele>
        <time>2010-12-05T13:10:06Z</time>
      </trkpt>
      <trkpt lat="43.83926" lon="7.2575">
        <ele>746</ele>
        <time>2010-12-05T13:10:09Z</time>
      </trkpt>
      <trkpt lat="43.83922" lon="7.25739">
        <ele>746</ele>
        <time>2010-12-05T13:10:12Z</time>
      </trkpt>
      <trkpt lat="43.83917" lon="7.2573">
        <ele>745</ele>
        <time>2010-12-05T13:10:18Z</time>
      </trkpt>
      <trkpt lat="43.83908" lon="7.25725">
        <ele>745</ele>
        <time>2010-12-05T13:10:28Z</time>
      </trkpt>
      <trkpt lat="43.839" lon="7.25718">
        <ele>745</ele>
        <time>2010-12-05T13:10:34Z</time>
      </trkpt>
      <trkpt lat="43.83899" lon="7.25718">
        <ele>745</ele>
        <time>2010-12-05T13:10:35Z</time>
      </trkpt>
      <trkpt lat="43.83889" lon="7.2572">
        <ele>747</ele>
        <time>2010-12-05T13:10:42Z</time>
      </trkpt>
      <trkpt lat="43.83879" lon="7.25716">
        <ele>747</ele>
        <time>2010-12-05T13:10:47Z</time>
      </trkpt>
      <trkpt lat="43.83868" lon="7.25712">
        <ele>748</ele>
        <time>2010-12-05T13:10:50Z</time>
      </trkpt>
      <trkpt lat="43.83859" lon="7.25709">
        <ele>748</ele>
        <time>2010-12-05T13:10:53Z</time>
      </trkpt>
      <trkpt lat="43.83851" lon="7.25708">
        <ele>747</ele>
        <time>2010-12-05T13:10:56Z</time>
      </trkpt>
      <trkpt lat="43.83842" lon="7.25706">
        <ele>748</ele>
        <time>2010-12-05T13:10:59Z</time>
      </trkpt>
      <trkpt lat="43.83836" lon="7.25704">
        <ele>748</ele>
        <time>2010-12-05T13:11:01Z</time>
      </trkpt>
      <trkpt lat="43.83826" lon="7.25702">
        <ele>747</ele>
        <time>2010-12-05T13:11:03Z</time>
      </trkpt>
      <trkpt lat="43.83817" lon="7.257">
        <ele>747</ele>
        <time>2010-12-05T13:11:05Z</time>
      </trkpt>
      <trkpt lat="43.83806" lon="7.25698">
        <ele>748</ele>
        <time>2010-12-05T13:11:08Z</time>
      </trkpt>
      <trkpt lat="43.83796" lon="7.25696">
        <ele>748</ele>
        <time>2010-12-05T13:11:12Z</time>
      </trkpt>
      <trkpt lat="43.83788" lon="7.2569">
        <ele>747</ele>
        <time>2010-12-05T13:11:16Z</time>
      </trkpt>
      <trkpt lat="43.83783" lon="7.25687">
        <ele>747</ele>
        <time>2010-12-05T13:11:18Z</time>
      </trkpt>
      <trkpt lat="43.83773" lon="7.25683">
        <ele>746</ele>
        <time>2010-12-05T13:11:22Z</time>
      </trkpt>
      <trkpt lat="43.83764" lon="7.2568">
        <ele>745</ele>
        <time>2010-12-05T13:11:25Z</time>
      </trkpt>
      <trkpt lat="43.83754" lon="7.25677">
        <ele>744</ele>
        <time>2010-12-05T13:11:28Z</time>
      </trkpt>
      <trkpt lat="43.83745" lon="7.25673">
        <ele>744</ele>
        <time>2010-12-05T13:11:30Z</time>
      </trkpt>
      <trkpt lat="43.83735" lon="7.25666">
        <ele>743</ele>
        <time>2010-12-05T13:11:33Z</time>
      </trkpt>
      <trkpt lat="43.83731" lon="7.25663">
        <ele>742</ele>
        <time>2010-12-05T13:11:34Z</time>
      </trkpt>
      <trkpt lat="43.83721" lon="7.25656">
        <ele>743</ele>
        <time>2010-12-05T13:11:38Z</time>
      </trkpt>
      <trkpt lat="43.83712" lon="7.25652">
        <ele>743</ele>
        <time>2010-12-05T13:11:42Z</time>
      </trkpt>
      <trkpt lat="43.83702" lon="7.25649">
        <ele>743</ele>
        <time>2010-12-05T13:11:46Z</time>
      </trkpt>
      <trkpt lat="43.83693" lon="7.25642">
        <ele>742</ele>
        <time>2010-12-05T13:11:50Z</time>
      </trkpt>
      <trkpt lat="43.83692" lon="7.25625">
        <ele>741</ele>
        <time>2010-12-05T13:12:37Z</time>
      </trkpt>
      <trkpt lat="43.83689" lon="7.2561">
        <ele>741</ele>
        <time>2010-12-05T13:12:41Z</time>
      </trkpt>
      <trkpt lat="43.83692" lon="7.25595">
        <ele>740</ele>
        <time>2010-12-05T13:12:44Z</time>
      </trkpt>
      <trkpt lat="43.83695" lon="7.25582">
        <ele>739</ele>
        <time>2010-12-05T13:12:46Z</time>
      </trkpt>
      <trkpt lat="43.837" lon="7.2557">
        <ele>739</ele>
        <time>2010-12-05T13:12:49Z</time>
      </trkpt>
      <trkpt lat="43.83708" lon="7.25561">
        <ele>739</ele>
        <time>2010-12-05T13:12:51Z</time>
      </trkpt>
      <trkpt lat="43.83715" lon="7.25553">
        <ele>739</ele>
        <time>2010-12-05T13:12:53Z</time>
      </trkpt>
      <trkpt lat="43.83722" lon="7.25544">
        <ele>737</ele>
        <time>2010-12-05T13:12:59Z</time>
      </trkpt>
      <trkpt lat="43.83731" lon="7.25533">
        <ele>736</ele>
        <time>2010-12-05T13:13:03Z</time>
      </trkpt>
      <trkpt lat="43.83739" lon="7.25525">
        <ele>735</ele>
        <time>2010-12-05T13:13:06Z</time>
      </trkpt>
      <trkpt lat="43.83746" lon="7.25517">
        <ele>735</ele>
        <time>2010-12-05T13:13:08Z</time>
      </trkpt>
      <trkpt lat="43.83741" lon="7.25506">
        <ele>732</ele>
        <time>2010-12-05T13:13:15Z</time>
      </trkpt>
      <trkpt lat="43.83732" lon="7.25505">
        <ele>731</ele>
        <time>2010-12-05T13:13:18Z</time>
      </trkpt>
      <trkpt lat="43.83732" lon="7.25505">
        <ele>731</ele>
        <time>2010-12-05T13:13:37Z</time>
      </trkpt>
      <trkpt lat="43.83724" lon="7.25494">
        <ele>723</ele>
        <time>2010-12-05T13:13:49Z</time>
      </trkpt>
      <trkpt lat="43.83723" lon="7.25489">
        <ele>723</ele>
        <time>2010-12-05T13:13:50Z</time>
      </trkpt>
      <trkpt lat="43.83724" lon="7.25476">
        <ele>721</ele>
        <time>2010-12-05T13:13:54Z</time>
      </trkpt>
      <trkpt lat="43.83723" lon="7.25462">
        <ele>719</ele>
        <time>2010-12-05T13:14:04Z</time>
      </trkpt>
      <trkpt lat="43.83716" lon="7.25452">
        <ele>717</ele>
        <time>2010-12-05T13:14:08Z</time>
      </trkpt>
      <trkpt lat="43.83709" lon="7.25441">
        <ele>714</ele>
        <time>2010-12-05T13:14:12Z</time>
      </trkpt>
      <trkpt lat="43.83703" lon="7.25431">
        <ele>712</ele>
        <time>2010-12-05T13:14:16Z</time>
      </trkpt>
      <trkpt lat="43.83699" lon="7.25417">
        <ele>712</ele>
        <time>2010-12-05T13:14:21Z</time>
      </trkpt>
      <trkpt lat="43.83699" lon="7.25403">
        <ele>711</ele>
        <time>2010-12-05T13:14:24Z</time>
      </trkpt>
      <trkpt lat="43.83698" lon="7.2539">
        <ele>710</ele>
        <time>2010-12-05T13:14:27Z</time>
      </trkpt>
      <trkpt lat="43.837" lon="7.25375">
        <ele>709</ele>
        <time>2010-12-05T13:14:30Z</time>
      </trkpt>
      <trkpt lat="43.83704" lon="7.25362">
        <ele>708</ele>
        <time>2010-12-05T13:14:33Z</time>
      </trkpt>
      <trkpt lat="43.83709" lon="7.25351">
        <ele>706</ele>
        <time>2010-12-05T13:14:35Z</time>
      </trkpt>
      <trkpt lat="43.83714" lon="7.25341">
        <ele>705</ele>
        <time>2010-12-05T13:14:37Z</time>
      </trkpt>
      <trkpt lat="43.83714" lon="7.25327">
        <ele>704</ele>
        <time>2010-12-05T13:14:41Z</time>
      </trkpt>
      <trkpt lat="43.83713" lon="7.25311">
        <ele>703</ele>
        <time>2010-12-05T13:14:44Z</time>
      </trkpt>
      <trkpt lat="43.83713" lon="7.25295">
        <ele>701</ele>
        <time>2010-12-05T13:14:47Z</time>
      </trkpt>
      <trkpt lat="43.83714" lon="7.25282">
        <ele>699</ele>
        <time>2010-12-05T13:14:49Z</time>
      </trkpt>
      <trkpt lat="43.83717" lon="7.25268">
        <ele>697</ele>
        <time>2010-12-05T13:14:51Z</time>
      </trkpt>
      <trkpt lat="43.83718" lon="7.25252">
        <ele>694</ele>
        <time>2010-12-05T13:14:55Z</time>
      </trkpt>
      <trkpt lat="43.83716" lon="7.25237">
        <ele>692</ele>
        <time>2010-12-05T13:14:58Z</time>
      </trkpt>
      <trkpt lat="43.83716" lon="7.25224">
        <ele>691</ele>
        <time>2010-12-05T13:15:01Z</time>
      </trkpt>
      <trkpt lat="43.83718" lon="7.25212">
        <ele>691</ele>
        <time>2010-12-05T13:15:03Z</time>
      </trkpt>
      <trkpt lat="43.83718" lon="7.25199">
        <ele>690</ele>
        <time>2010-12-05T13:15:06Z</time>
      </trkpt>
      <trkpt lat="43.83714" lon="7.25184">
        <ele>689</ele>
        <time>2010-12-05T13:15:09Z</time>
      </trkpt>
      <trkpt lat="43.83707" lon="7.25174">
        <ele>688</ele>
        <time>2010-12-05T13:15:11Z</time>
      </trkpt>
      <trkpt lat="43.83701" lon="7.25163">
        <ele>688</ele>
        <time>2010-12-05T13:15:14Z</time>
      </trkpt>
      <trkpt lat="43.83699" lon="7.25151">
        <ele>687</ele>
        <time>2010-12-05T13:15:16Z</time>
      </trkpt>
      <trkpt lat="43.83698" lon="7.25135">
        <ele>686</ele>
        <time>2010-12-05T13:15:18Z</time>
      </trkpt>
      <trkpt lat="43.83695" lon="7.25117">
        <ele>684</ele>
        <time>2010-12-05T13:15:21Z</time>
      </trkpt>
      <trkpt lat="43.83694" lon="7.25106">
        <ele>682</ele>
        <time>2010-12-05T13:15:22Z</time>
      </trkpt>
      <trkpt lat="43.83693" lon="7.25092">
        <ele>679</ele>
        <time>2010-12-05T13:15:24Z</time>
      </trkpt>
      <trkpt lat="43.83693" lon="7.25077">
        <ele>677</ele>
        <time>2010-12-05T13:15:27Z</time>
      </trkpt>
      <trkpt lat="43.83695" lon="7.25064">
        <ele>675</ele>
        <time>2010-12-05T13:15:30Z</time>
      </trkpt>
      <trkpt lat="43.83685" lon="7.25063">
        <ele>669</ele>
        <time>2010-12-05T13:15:37Z</time>
      </trkpt>
      <trkpt lat="43.83682" lon="7.25064">
        <ele>666</ele>
        <time>2010-12-05T13:15:40Z</time>
      </trkpt>
      <trkpt lat="43.83678" lon="7.25051">
        <ele>661</ele>
        <time>2010-12-05T13:15:46Z</time>
      </trkpt>
      <trkpt lat="43.83674" lon="7.2505">
        <ele>659</ele>
        <time>2010-12-05T13:15:49Z</time>
      </trkpt>
      <trkpt lat="43.83666" lon="7.25043">
        <ele>654</ele>
        <time>2010-12-05T13:15:54Z</time>
      </trkpt>
      <trkpt lat="43.8367" lon="7.25032">
        <ele>652</ele>
        <time>2010-12-05T13:15:57Z</time>
      </trkpt>
      <trkpt lat="43.83673" lon="7.25018">
        <ele>650</ele>
        <time>2010-12-05T13:16:00Z</time>
      </trkpt>
      <trkpt lat="43.83669" lon="7.25007">
        <ele>636</ele>
        <time>2010-12-05T13:16:26Z</time>
      </trkpt>
      <trkpt lat="43.83667" lon="7.24994">
        <ele>635</ele>
        <time>2010-12-05T13:16:29Z</time>
      </trkpt>
      <trkpt lat="43.83667" lon="7.2498">
        <ele>633</ele>
        <time>2010-12-05T13:16:33Z</time>
      </trkpt>
      <trkpt lat="43.83657" lon="7.2498">
        <ele>631</ele>
        <time>2010-12-05T13:16:40Z</time>
      </trkpt>
      <trkpt lat="43.83652" lon="7.24983">
        <ele>631</ele>
        <time>2010-12-05T13:16:42Z</time>
      </trkpt>
      <trkpt lat="43.83643" lon="7.24992">
        <ele>630</ele>
        <time>2010-12-05T13:16:46Z</time>
      </trkpt>
      <trkpt lat="43.83635" lon="7.24998">
        <ele>628</ele>
        <time>2010-12-05T13:16:50Z</time>
      </trkpt>
      <trkpt lat="43.83628" lon="7.24989">
        <ele>623</ele>
        <time>2010-12-05T13:16:59Z</time>
      </trkpt>
      <trkpt lat="43.83627" lon="7.24976">
        <ele>621</ele>
        <time>2010-12-05T13:17:03Z</time>
      </trkpt>
      <trkpt lat="43.83627" lon="7.24975">
        <ele>620</ele>
        <time>2010-12-05T13:17:10Z</time>
      </trkpt>
      <trkpt lat="43.83626" lon="7.24961">
        <ele>613</ele>
        <time>2010-12-05T13:17:16Z</time>
      </trkpt>
      <trkpt lat="43.83622" lon="7.24946">
        <ele>595</ele>
        <time>2010-12-05T13:18:17Z</time>
      </trkpt>
      <trkpt lat="43.83622" lon="7.24932">
        <ele>592</ele>
        <time>2010-12-05T13:18:20Z</time>
      </trkpt>
      <trkpt lat="43.83623" lon="7.24917">
        <ele>590</ele>
        <time>2010-12-05T13:18:24Z</time>
      </trkpt>
      <trkpt lat="43.83621" lon="7.24903">
        <ele>587</ele>
        <time>2010-12-05T13:18:27Z</time>
      </trkpt>
      <trkpt lat="43.83617" lon="7.2489">
        <ele>587</ele>
        <time>2010-12-05T13:18:31Z</time>
      </trkpt>
      <trkpt lat="43.83612" lon="7.24878">
        <ele>586</ele>
        <time>2010-12-05T13:18:36Z</time>
      </trkpt>
      <trkpt lat="43.83609" lon="7.24873">
        <ele>585</ele>
        <time>2010-12-05T13:18:38Z</time>
      </trkpt>
      <trkpt lat="43.83603" lon="7.24864">
        <ele>585</ele>
        <time>2010-12-05T13:18:42Z</time>
      </trkpt>
      <trkpt lat="43.83595" lon="7.24865">
        <ele>585</ele>
        <time>2010-12-05T13:18:49Z</time>
      </trkpt>
      <trkpt lat="43.83587" lon="7.24872">
        <ele>581</ele>
        <time>2010-12-05T13:18:58Z</time>
      </trkpt>
      <trkpt lat="43.83582" lon="7.24871">
        <ele>578</ele>
        <time>2010-12-05T13:19:08Z</time>
      </trkpt>
      <trkpt lat="43.83579" lon="7.2486">
        <ele>575</ele>
        <time>2010-12-05T13:19:23Z</time>
      </trkpt>
      <trkpt lat="43.83582" lon="7.24847">
        <ele>574</ele>
        <time>2010-12-05T13:19:28Z</time>
      </trkpt>
      <trkpt lat="43.83587" lon="7.24835">
        <ele>571</ele>
        <time>2010-12-05T13:19:33Z</time>
      </trkpt>
      <trkpt lat="43.8359" lon="7.24828">
        <ele>571</ele>
        <time>2010-12-05T13:19:35Z</time>
      </trkpt>
      <trkpt lat="43.83596" lon="7.24816">
        <ele>571</ele>
        <time>2010-12-05T13:19:39Z</time>
      </trkpt>
      <trkpt lat="43.83602" lon="7.24804">
        <ele>572</ele>
        <time>2010-12-05T13:19:43Z</time>
      </trkpt>
      <trkpt lat="43.83607" lon="7.24793">
        <ele>572</ele>
        <time>2010-12-05T13:19:46Z</time>
      </trkpt>
      <trkpt lat="43.83611" lon="7.24781">
        <ele>572</ele>
        <time>2010-12-05T13:19:50Z</time>
      </trkpt>
      <trkpt lat="43.83614" lon="7.24767">
        <ele>572</ele>
        <time>2010-12-05T13:19:54Z</time>
      </trkpt>
      <trkpt lat="43.83615" lon="7.24755">
        <ele>572</ele>
        <time>2010-12-05T13:19:57Z</time>
      </trkpt>
      <trkpt lat="43.83616" lon="7.24741">
        <ele>571</ele>
        <time>2010-12-05T13:20:01Z</time>
      </trkpt>
      <trkpt lat="43.83616" lon="7.24726">
        <ele>571</ele>
        <time>2010-12-05T13:20:05Z</time>
      </trkpt>
      <trkpt lat="43.83615" lon="7.24713">
        <ele>572</ele>
        <time>2010-12-05T13:20:09Z</time>
      </trkpt>
      <trkpt lat="43.83615" lon="7.24699">
        <ele>573</ele>
        <time>2010-12-05T13:20:13Z</time>
      </trkpt>
      <trkpt lat="43.83617" lon="7.24684">
        <ele>573</ele>
        <time>2010-12-05T13:20:17Z</time>
      </trkpt>
      <trkpt lat="43.83618" lon="7.24681">
        <ele>573</ele>
        <time>2010-12-05T13:20:17Z</time>
      </trkpt>
      <trkpt lat="43.83622" lon="7.24667">
        <ele>572</ele>
        <time>2010-12-05T13:20:21Z</time>
      </trkpt>
      <trkpt lat="43.83627" lon="7.24656">
        <ele>572</ele>
        <time>2010-12-05T13:20:25Z</time>
      </trkpt>
      <trkpt lat="43.83634" lon="7.24647">
        <ele>573</ele>
        <time>2010-12-05T13:20:29Z</time>
      </trkpt>
      <trkpt lat="43.83643" lon="7.24641">
        <ele>573</ele>
        <time>2010-12-05T13:20:33Z</time>
      </trkpt>
      <trkpt lat="43.83647" lon="7.24638">
        <ele>573</ele>
        <time>2010-12-05T13:20:34Z</time>
      </trkpt>
      <trkpt lat="43.83657" lon="7.24634">
        <ele>573</ele>
        <time>2010-12-05T13:20:38Z</time>
      </trkpt>
      <trkpt lat="43.83668" lon="7.2463">
        <ele>573</ele>
        <time>2010-12-05T13:20:42Z</time>
      </trkpt>
      <trkpt lat="43.83677" lon="7.24627">
        <ele>574</ele>
        <time>2010-12-05T13:20:45Z</time>
      </trkpt>
      <trkpt lat="43.83686" lon="7.24624">
        <ele>574</ele>
        <time>2010-12-05T13:20:48Z</time>
      </trkpt>
      <trkpt lat="43.83695" lon="7.24622">
        <ele>574</ele>
        <time>2010-12-05T13:20:51Z</time>
      </trkpt>
      <trkpt lat="43.83704" lon="7.24621">
        <ele>575</ele>
        <time>2010-12-05T13:20:54Z</time>
      </trkpt>
      <trkpt lat="43.83714" lon="7.24621">
        <ele>574</ele>
        <time>2010-12-05T13:20:57Z</time>
      </trkpt>
      <trkpt lat="43.83725" lon="7.24622">
        <ele>573</ele>
        <time>2010-12-05T13:21:00Z</time>
      </trkpt>
      <trkpt lat="43.83736" lon="7.24623">
        <ele>571</ele>
        <time>2010-12-05T13:21:03Z</time>
      </trkpt>
      <trkpt lat="43.83746" lon="7.24625">
        <ele>570</ele>
        <time>2010-12-05T13:21:06Z</time>
      </trkpt>
      <trkpt lat="43.83757" lon="7.24627">
        <ele>570</ele>
        <time>2010-12-05T13:21:09Z</time>
      </trkpt>
      <trkpt lat="43.83769" lon="7.24629">
        <ele>570</ele>
        <time>2010-12-05T13:21:12Z</time>
      </trkpt>
      <trkpt lat="43.83778" lon="7.2463">
        <ele>570</ele>
        <time>2010-12-05T13:21:14Z</time>
      </trkpt>
      <trkpt lat="43.83789" lon="7.24632">
        <ele>570</ele>
        <time>2010-12-05T13:21:17Z</time>
      </trkpt>
      <trkpt lat="43.83802" lon="7.24636">
        <ele>569</ele>
        <time>2010-12-05T13:21:19Z</time>
      </trkpt>
      <trkpt lat="43.83813" lon="7.24637">
        <ele>569</ele>
        <time>2010-12-05T13:21:21Z</time>
      </trkpt>
      <trkpt lat="43.83824" lon="7.24637">
        <ele>570</ele>
        <time>2010-12-05T13:21:23Z</time>
      </trkpt>
      <trkpt lat="43.83835" lon="7.24635">
        <ele>570</ele>
        <time>2010-12-05T13:21:26Z</time>
      </trkpt>
      <trkpt lat="43.83844" lon="7.24628">
        <ele>570</ele>
        <time>2010-12-05T13:21:28Z</time>
      </trkpt>
      <trkpt lat="43.83854" lon="7.2462">
        <ele>571</ele>
        <time>2010-12-05T13:21:30Z</time>
      </trkpt>
      <trkpt lat="43.83863" lon="7.24613">
        <ele>570</ele>
        <time>2010-12-05T13:21:33Z</time>
      </trkpt>
      <trkpt lat="43.8387" lon="7.24607">
        <ele>570</ele>
        <time>2010-12-05T13:21:35Z</time>
      </trkpt>
      <trkpt lat="43.8388" lon="7.24599">
        <ele>570</ele>
        <time>2010-12-05T13:21:38Z</time>
      </trkpt>
      <trkpt lat="43.83887" lon="7.2459">
        <ele>571</ele>
        <time>2010-12-05T13:21:40Z</time>
      </trkpt>
      <trkpt lat="43.83896" lon="7.2458">
        <ele>572</ele>
        <time>2010-12-05T13:21:43Z</time>
      </trkpt>
      <trkpt lat="43.83906" lon="7.24572">
        <ele>572</ele>
        <time>2010-12-05T13:21:46Z</time>
      </trkpt>
      <trkpt lat="43.83916" lon="7.24564">
        <ele>573</ele>
        <time>2010-12-05T13:21:49Z</time>
      </trkpt>
      <trkpt lat="43.83924" lon="7.24557">
        <ele>574</ele>
        <time>2010-12-05T13:21:52Z</time>
      </trkpt>
      <trkpt lat="43.83933" lon="7.24551">
        <ele>575</ele>
        <time>2010-12-05T13:21:54Z</time>
      </trkpt>
      <trkpt lat="43.83941" lon="7.24544">
        <ele>575</ele>
        <time>2010-12-05T13:21:56Z</time>
      </trkpt>
      <trkpt lat="43.83951" lon="7.24539">
        <ele>575</ele>
        <time>2010-12-05T13:21:58Z</time>
      </trkpt>
      <trkpt lat="43.83962" lon="7.24537">
        <ele>575</ele>
        <time>2010-12-05T13:22:01Z</time>
      </trkpt>
      <trkpt lat="43.83973" lon="7.24536">
        <ele>575</ele>
        <time>2010-12-05T13:22:03Z</time>
      </trkpt>
      <trkpt lat="43.83983" lon="7.24536">
        <ele>575</ele>
        <time>2010-12-05T13:22:05Z</time>
      </trkpt>
      <trkpt lat="43.83987" lon="7.24537">
        <ele>574</ele>
        <time>2010-12-05T13:22:06Z</time>
      </trkpt>
      <trkpt lat="43.83997" lon="7.24538">
        <ele>574</ele>
        <time>2010-12-05T13:22:08Z</time>
      </trkpt>
      <trkpt lat="43.84007" lon="7.24539">
        <ele>574</ele>
        <time>2010-12-05T13:22:11Z</time>
      </trkpt>
      <trkpt lat="43.84017" lon="7.2454">
        <ele>573</ele>
        <time>2010-12-05T13:22:13Z</time>
      </trkpt>
      <trkpt lat="43.84028" lon="7.24543">
        <ele>573</ele>
        <time>2010-12-05T13:22:16Z</time>
      </trkpt>
      <trkpt lat="43.84038" lon="7.24545">
        <ele>574</ele>
        <time>2010-12-05T13:22:18Z</time>
      </trkpt>
      <trkpt lat="43.84047" lon="7.24546">
        <ele>574</ele>
        <time>2010-12-05T13:22:21Z</time>
      </trkpt>
      <trkpt lat="43.84056" lon="7.24543">
        <ele>573</ele>
        <time>2010-12-05T13:22:23Z</time>
      </trkpt>
      <trkpt lat="43.84065" lon="7.24537">
        <ele>572</ele>
        <time>2010-12-05T13:22:25Z</time>
      </trkpt>
      <trkpt lat="43.84074" lon="7.2453">
        <ele>572</ele>
        <time>2010-12-05T13:22:28Z</time>
      </trkpt>
      <trkpt lat="43.84082" lon="7.24522">
        <ele>572</ele>
        <time>2010-12-05T13:22:30Z</time>
      </trkpt>
      <trkpt lat="43.84089" lon="7.24515">
        <ele>573</ele>
        <time>2010-12-05T13:22:32Z</time>
      </trkpt>
      <trkpt lat="43.841" lon="7.24506">
        <ele>572</ele>
        <time>2010-12-05T13:22:35Z</time>
      </trkpt>
      <trkpt lat="43.8411" lon="7.24498">
        <ele>573</ele>
        <time>2010-12-05T13:22:38Z</time>
      </trkpt>
      <trkpt lat="43.84119" lon="7.24488">
        <ele>574</ele>
        <time>2010-12-05T13:22:41Z</time>
      </trkpt>
      <trkpt lat="43.84129" lon="7.24478">
        <ele>575</ele>
        <time>2010-12-05T13:22:44Z</time>
      </trkpt>
      <trkpt lat="43.84139" lon="7.2447">
        <ele>575</ele>
        <time>2010-12-05T13:22:47Z</time>
      </trkpt>
      <trkpt lat="43.84141" lon="7.24468">
        <ele>575</ele>
        <time>2010-12-05T13:22:48Z</time>
      </trkpt>
      <trkpt lat="43.8415" lon="7.24459">
        <ele>576</ele>
        <time>2010-12-05T13:22:51Z</time>
      </trkpt>
      <trkpt lat="43.8416" lon="7.24452">
        <ele>576</ele>
        <time>2010-12-05T13:22:54Z</time>
      </trkpt>
      <trkpt lat="43.84169" lon="7.24444">
        <ele>577</ele>
        <time>2010-12-05T13:22:57Z</time>
      </trkpt>
      <trkpt lat="43.84179" lon="7.24434">
        <ele>577</ele>
        <time>2010-12-05T13:23:00Z</time>
      </trkpt>
      <trkpt lat="43.84187" lon="7.24423">
        <ele>578</ele>
        <time>2010-12-05T13:23:03Z</time>
      </trkpt>
      <trkpt lat="43.84196" lon="7.24413">
        <ele>578</ele>
        <time>2010-12-05T13:23:06Z</time>
      </trkpt>
      <trkpt lat="43.84204" lon="7.24406">
        <ele>578</ele>
        <time>2010-12-05T13:23:08Z</time>
      </trkpt>
      <trkpt lat="43.84214" lon="7.24397">
        <ele>579</ele>
        <time>2010-12-05T13:23:11Z</time>
      </trkpt>
      <trkpt lat="43.84223" lon="7.24388">
        <ele>579</ele>
        <time>2010-12-05T13:23:14Z</time>
      </trkpt>
      <trkpt lat="43.84233" lon="7.2438">
        <ele>580</ele>
        <time>2010-12-05T13:23:17Z</time>
      </trkpt>
      <trkpt lat="43.84242" lon="7.24373">
        <ele>581</ele>
        <time>2010-12-05T13:23:20Z</time>
      </trkpt>
      <trkpt lat="43.84252" lon="7.24365">
        <ele>583</ele>
        <time>2010-12-05T13:23:23Z</time>
      </trkpt>
      <trkpt lat="43.84262" lon="7.24357">
        <ele>583</ele>
        <time>2010-12-05T13:23:26Z</time>
      </trkpt>
      <trkpt lat="43.84265" lon="7.24355">
        <ele>584</ele>
        <time>2010-12-05T13:23:27Z</time>
      </trkpt>
      <trkpt lat="43.84275" lon="7.24348">
        <ele>584</ele>
        <time>2010-12-05T13:23:30Z</time>
      </trkpt>
      <trkpt lat="43.84285" lon="7.2434">
        <ele>584</ele>
        <time>2010-12-05T13:23:33Z</time>
      </trkpt>
      <trkpt lat="43.84287" lon="7.24338">
        <ele>584</ele>
        <time>2010-12-05T13:23:34Z</time>
      </trkpt>
      <trkpt lat="43.84297" lon="7.2433">
        <ele>584</ele>
        <time>2010-12-05T13:23:37Z</time>
      </trkpt>
      <trkpt lat="43.84307" lon="7.24322">
        <ele>583</ele>
        <time>2010-12-05T13:23:40Z</time>
      </trkpt>
      <trkpt lat="43.84315" lon="7.24315">
        <ele>583</ele>
        <time>2010-12-05T13:23:42Z</time>
      </trkpt>
      <trkpt lat="43.84322" lon="7.24307">
        <ele>582</ele>
        <time>2010-12-05T13:23:44Z</time>
      </trkpt>
      <trkpt lat="43.84329" lon="7.24297">
        <ele>582</ele>
        <time>2010-12-05T13:23:47Z</time>
      </trkpt>
      <trkpt lat="43.84335" lon="7.24288">
        <ele>581</ele>
        <time>2010-12-05T13:23:49Z</time>
      </trkpt>
      <trkpt lat="43.84343" lon="7.24276">
        <ele>581</ele>
        <time>2010-12-05T13:23:52Z</time>
      </trkpt>
      <trkpt lat="43.84349" lon="7.24265">
        <ele>581</ele>
        <time>2010-12-05T13:23:55Z</time>
      </trkpt>
      <trkpt lat="43.84352" lon="7.2426">
        <ele>581</ele>
        <time>2010-12-05T13:23:56Z</time>
      </trkpt>
      <trkpt lat="43.84358" lon="7.24249">
        <ele>582</ele>
        <time>2010-12-05T13:23:59Z</time>
      </trkpt>
      <trkpt lat="43.84363" lon="7.24238">
        <ele>583</ele>
        <time>2010-12-05T13:24:02Z</time>
      </trkpt>
      <trkpt lat="43.8437" lon="7.24226">
        <ele>583</ele>
        <time>2010-12-05T13:24:05Z</time>
      </trkpt>
      <trkpt lat="43.84376" lon="7.24214">
        <ele>585</ele>
        <time>2010-12-05T13:24:08Z</time>
      </trkpt>
      <trkpt lat="43.84381" lon="7.24205">
        <ele>585</ele>
        <time>2010-12-05T13:24:10Z</time>
      </trkpt>
      <trkpt lat="43.84386" lon="7.24191">
        <ele>585</ele>
        <time>2010-12-05T13:24:14Z</time>
      </trkpt>
      <trkpt lat="43.84393" lon="7.24177">
        <ele>585</ele>
        <time>2010-12-05T13:24:17Z</time>
      </trkpt>
      <trkpt lat="43.84397" lon="7.24166">
        <ele>585</ele>
        <time>2010-12-05T13:24:19Z</time>
      </trkpt>
      <trkpt lat="43.84403" lon="7.24155">
        <ele>586</ele>
        <time>2010-12-05T13:24:21Z</time>
      </trkpt>
      <trkpt lat="43.84407" lon="7.24148">
        <ele>586</ele>
        <time>2010-12-05T13:24:23Z</time>
      </trkpt>
      <trkpt lat="43.84413" lon="7.24139">
        <ele>586</ele>
        <time>2010-12-05T13:24:25Z</time>
      </trkpt>
      <trkpt lat="43.84423" lon="7.24132">
        <ele>586</ele>
        <time>2010-12-05T13:24:28Z</time>
      </trkpt>
      <trkpt lat="43.84431" lon="7.24126">
        <ele>586</ele>
        <time>2010-12-05T13:24:30Z</time>
      </trkpt>
      <trkpt lat="43.84442" lon="7.24119">
        <ele>585</ele>
        <time>2010-12-05T13:24:33Z</time>
      </trkpt>
      <trkpt lat="43.84453" lon="7.24113">
        <ele>584</ele>
        <time>2010-12-05T13:24:36Z</time>
      </trkpt>
      <trkpt lat="43.84463" lon="7.24107">
        <ele>584</ele>
        <time>2010-12-05T13:24:40Z</time>
      </trkpt>
      <trkpt lat="43.84472" lon="7.241">
        <ele>583</ele>
        <time>2010-12-05T13:24:43Z</time>
      </trkpt>
      <trkpt lat="43.84481" lon="7.24093">
        <ele>583</ele>
        <time>2010-12-05T13:24:46Z</time>
      </trkpt>
      <trkpt lat="43.84491" lon="7.24086">
        <ele>583</ele>
        <time>2010-12-05T13:24:49Z</time>
      </trkpt>
      <trkpt lat="43.84499" lon="7.2408">
        <ele>585</ele>
        <time>2010-12-05T13:24:52Z</time>
      </trkpt>
      <trkpt lat="43.84507" lon="7.24073">
        <ele>586</ele>
        <time>2010-12-05T13:24:55Z</time>
      </trkpt>
      <trkpt lat="43.84516" lon="7.24065">
        <ele>587</ele>
        <time>2010-12-05T13:24:58Z</time>
      </trkpt>
      <trkpt lat="43.84525" lon="7.24058">
        <ele>588</ele>
        <time>2010-12-05T13:25:01Z</time>
      </trkpt>
      <trkpt lat="43.8453" lon="7.24055">
        <ele>589</ele>
        <time>2010-12-05T13:25:03Z</time>
      </trkpt>
      <trkpt lat="43.84539" lon="7.24047">
        <ele>590</ele>
        <time>2010-12-05T13:25:06Z</time>
      </trkpt>
      <trkpt lat="43.84549" lon="7.2404">
        <ele>590</ele>
        <time>2010-12-05T13:25:09Z</time>
      </trkpt>
      <trkpt lat="43.8456" lon="7.24032">
        <ele>591</ele>
        <time>2010-12-05T13:25:12Z</time>
      </trkpt>
      <trkpt lat="43.84567" lon="7.24025">
        <ele>591</ele>
        <time>2010-12-05T13:25:15Z</time>
      </trkpt>
      <trkpt lat="43.84577" lon="7.24016">
        <ele>592</ele>
        <time>2010-12-05T13:25:18Z</time>
      </trkpt>
      <trkpt lat="43.84584" lon="7.2401">
        <ele>593</ele>
        <time>2010-12-05T13:25:20Z</time>
      </trkpt>
      <trkpt lat="43.84593" lon="7.24002">
        <ele>592</ele>
        <time>2010-12-05T13:25:23Z</time>
      </trkpt>
      <trkpt lat="43.84601" lon="7.23996">
        <ele>592</ele>
        <time>2010-12-05T13:25:25Z</time>
      </trkpt>
      <trkpt lat="43.8461" lon="7.2399">
        <ele>592</ele>
        <time>2010-12-05T13:25:27Z</time>
      </trkpt>
      <trkpt lat="43.84619" lon="7.23984">
        <ele>592</ele>
        <time>2010-12-05T13:25:30Z</time>
      </trkpt>
      <trkpt lat="43.84627" lon="7.23979">
        <ele>593</ele>
        <time>2010-12-05T13:25:32Z</time>
      </trkpt>
      <trkpt lat="43.84637" lon="7.23972">
        <ele>593</ele>
        <time>2010-12-05T13:25:35Z</time>
      </trkpt>
      <trkpt lat="43.84647" lon="7.23965">
        <ele>593</ele>
        <time>2010-12-05T13:25:38Z</time>
      </trkpt>
      <trkpt lat="43.84658" lon="7.23958">
        <ele>593</ele>
        <time>2010-12-05T13:25:41Z</time>
      </trkpt>
      <trkpt lat="43.84666" lon="7.23952">
        <ele>594</ele>
        <time>2010-12-05T13:25:43Z</time>
      </trkpt>
      <trkpt lat="43.84674" lon="7.23946">
        <ele>594</ele>
        <time>2010-12-05T13:25:46Z</time>
      </trkpt>
      <trkpt lat="43.84681" lon="7.23942">
        <ele>594</ele>
        <time>2010-12-05T13:25:47Z</time>
      </trkpt>
      <trkpt lat="43.8469" lon="7.23936">
        <ele>593</ele>
        <time>2010-12-05T13:25:50Z</time>
      </trkpt>
      <trkpt lat="43.84699" lon="7.2393">
        <ele>592</ele>
        <time>2010-12-05T13:25:52Z</time>
      </trkpt>
      <trkpt lat="43.84708" lon="7.23923">
        <ele>592</ele>
        <time>2010-12-05T13:25:54Z</time>
      </trkpt>
      <trkpt lat="43.84716" lon="7.23916">
        <ele>591</ele>
        <time>2010-12-05T13:25:57Z</time>
      </trkpt>
      <trkpt lat="43.84724" lon="7.23909">
        <ele>591</ele>
        <time>2010-12-05T13:25:59Z</time>
      </trkpt>
      <trkpt lat="43.84731" lon="7.23902">
        <ele>591</ele>
        <time>2010-12-05T13:26:01Z</time>
      </trkpt>
      <trkpt lat="43.84739" lon="7.23895">
        <ele>591</ele>
        <time>2010-12-05T13:26:04Z</time>
      </trkpt>
      <trkpt lat="43.84746" lon="7.23888">
        <ele>590</ele>
        <time>2010-12-05T13:26:06Z</time>
      </trkpt>
      <trkpt lat="43.84754" lon="7.23881">
        <ele>591</ele>
        <time>2010-12-05T13:26:08Z</time>
      </trkpt>
      <trkpt lat="43.8476" lon="7.23876">
        <ele>591</ele>
        <time>2010-12-05T13:26:10Z</time>
      </trkpt>
      <trkpt lat="43.84769" lon="7.23869">
        <ele>591</ele>
        <time>2010-12-05T13:26:12Z</time>
      </trkpt>
      <trkpt lat="43.84778" lon="7.23861">
        <ele>592</ele>
        <time>2010-12-05T13:26:14Z</time>
      </trkpt>
      <trkpt lat="43.84788" lon="7.23853">
        <ele>592</ele>
        <time>2010-12-05T13:26:17Z</time>
      </trkpt>
      <trkpt lat="43.84797" lon="7.23846">
        <ele>592</ele>
        <time>2010-12-05T13:26:19Z</time>
      </trkpt>
      <trkpt lat="43.84806" lon="7.23839">
        <ele>592</ele>
        <time>2010-12-05T13:26:21Z</time>
      </trkpt>
      <trkpt lat="43.84814" lon="7.23831">
        <ele>592</ele>
        <time>2010-12-05T13:26:24Z</time>
      </trkpt>
      <trkpt lat="43.84823" lon="7.23825">
        <ele>593</ele>
        <time>2010-12-05T13:26:26Z</time>
      </trkpt>
      <trkpt lat="43.84832" lon="7.23818">
        <ele>595</ele>
        <time>2010-12-05T13:26:28Z</time>
      </trkpt>
      <trkpt lat="43.84838" lon="7.23815">
        <ele>595</ele>
        <time>2010-12-05T13:26:30Z</time>
      </trkpt>
      <trkpt lat="43.84847" lon="7.23811">
        <ele>596</ele>
        <time>2010-12-05T13:26:32Z</time>
      </trkpt>
      <trkpt lat="43.84857" lon="7.23804">
        <ele>598</ele>
        <time>2010-12-05T13:26:35Z</time>
      </trkpt>
      <trkpt lat="43.84865" lon="7.23795">
        <ele>599</ele>
        <time>2010-12-05T13:26:38Z</time>
      </trkpt>
      <trkpt lat="43.84867" lon="7.23793">
        <ele>600</ele>
        <time>2010-12-05T13:26:42Z</time>
      </trkpt>
      <trkpt lat="43.84872" lon="7.23782">
        <ele>598</ele>
        <time>2010-12-05T13:27:00Z</time>
      </trkpt>
    </trkseg>
  </trk>
</gpx>